<?xml version='1.0' encoding='UTF-8'?>
<gpx version="1.1" creator="https://www.komoot.de" xmlns="http://www.topografix.com/GPX/1/1" xmlns:xsi="http://www.w3.org/2001/XMLSchema-instance" xsi:schemaLocation="http://www.topografix.com/GPX/1/1 http://www.topografix.com/GPX/1/1/gpx.xsd">
  <metadata>
    <name>49_680Breitfeld</name>
    <author>
      <link href="https://www.komoot.de">
        <text>komoot</text>
        <type>text/html</type>
      </link>
    </author>
  </metadata>
  <trk>
    <name>49_680Breitfeld</name>
    <trkseg>
      <trkpt lat="47.541279" lon="7.870900">
        <ele>339.208101</ele>
        <time>2021-11-09T20:39:48.637Z</time>
      </trkpt>
      <trkpt lat="47.541410" lon="7.870791">
        <ele>339.208101</ele>
        <time>2021-11-09T20:39:51.028Z</time>
      </trkpt>
      <trkpt lat="47.541576" lon="7.870664">
        <ele>339.208101</ele>
        <time>2021-11-09T20:39:53.467Z</time>
      </trkpt>
      <trkpt lat="47.541550" lon="7.870601">
        <ele>339.208101</ele>
        <time>2021-11-09T20:39:54.269Z</time>
      </trkpt>
      <trkpt lat="47.541521" lon="7.870517">
        <ele>339.208101</ele>
        <time>2021-11-09T20:39:55.304Z</time>
      </trkpt>
      <trkpt lat="47.541606" lon="7.870424">
        <ele>339.208101</ele>
        <time>2021-11-09T20:39:56.962Z</time>
      </trkpt>
      <trkpt lat="47.541910" lon="7.870106">
        <ele>339.181682</ele>
        <time>2021-11-09T20:40:02.625Z</time>
      </trkpt>
      <trkpt lat="47.542014" lon="7.870126">
        <ele>339.086540</ele>
        <time>2021-11-09T20:40:04.096Z</time>
      </trkpt>
      <trkpt lat="47.542118" lon="7.870135">
        <ele>338.992030</ele>
        <time>2021-11-09T20:40:05.818Z</time>
      </trkpt>
      <trkpt lat="47.542181" lon="7.870131">
        <ele>338.934823</ele>
        <time>2021-11-09T20:40:06.690Z</time>
      </trkpt>
      <trkpt lat="47.542317" lon="7.870012">
        <ele>338.791527</ele>
        <time>2021-11-09T20:40:08.809Z</time>
      </trkpt>
      <trkpt lat="47.542348" lon="7.869983">
        <ele>338.758265</ele>
        <time>2021-11-09T20:40:09.248Z</time>
      </trkpt>
      <trkpt lat="47.542329" lon="7.869820">
        <ele>338.656965</ele>
        <time>2021-11-09T20:40:11.010Z</time>
      </trkpt>
      <trkpt lat="47.542372" lon="7.869746">
        <ele>338.597170</ele>
        <time>2021-11-09T20:40:11.824Z</time>
      </trkpt>
      <trkpt lat="47.542657" lon="7.869354">
        <ele>338.244351</ele>
        <time>2021-11-09T20:40:16.630Z</time>
      </trkpt>
      <trkpt lat="47.542696" lon="7.869257">
        <ele>338.175209</ele>
        <time>2021-11-09T20:40:17.573Z</time>
      </trkpt>
      <trkpt lat="47.542722" lon="7.869201">
        <ele>338.133586</ele>
        <time>2021-11-09T20:40:18.169Z</time>
      </trkpt>
      <trkpt lat="47.543049" lon="7.868759">
        <ele>337.731996</ele>
        <time>2021-11-09T20:40:23.080Z</time>
      </trkpt>
      <trkpt lat="47.543105" lon="7.868711">
        <ele>337.673301</ele>
        <time>2021-11-09T20:40:23.820Z</time>
      </trkpt>
      <trkpt lat="47.543201" lon="7.868657">
        <ele>337.580142</ele>
        <time>2021-11-09T20:40:24.896Z</time>
      </trkpt>
      <trkpt lat="47.543657" lon="7.868359">
        <ele>336.909470</ele>
        <time>2021-11-09T20:40:30.685Z</time>
      </trkpt>
      <trkpt lat="47.543801" lon="7.868269">
        <ele>336.698577</ele>
        <time>2021-11-09T20:40:33.172Z</time>
      </trkpt>
      <trkpt lat="47.544026" lon="7.868116">
        <ele>336.364514</ele>
        <time>2021-11-09T20:40:37.447Z</time>
      </trkpt>
      <trkpt lat="47.544214" lon="7.867988">
        <ele>336.085326</ele>
        <time>2021-11-09T20:40:40.805Z</time>
      </trkpt>
      <trkpt lat="47.544246" lon="7.867967">
        <ele>336.038099</ele>
        <time>2021-11-09T20:40:41.406Z</time>
      </trkpt>
      <trkpt lat="47.544309" lon="7.867912">
        <ele>335.939427</ele>
        <time>2021-11-09T20:40:42.650Z</time>
      </trkpt>
      <trkpt lat="47.544410" lon="7.867825">
        <ele>335.781778</ele>
        <time>2021-11-09T20:40:44.662Z</time>
      </trkpt>
      <trkpt lat="47.544469" lon="7.867776">
        <ele>335.690508</ele>
        <time>2021-11-09T20:40:45.682Z</time>
      </trkpt>
      <trkpt lat="47.544568" lon="7.867693">
        <ele>335.537013</ele>
        <time>2021-11-09T20:40:47.609Z</time>
      </trkpt>
      <trkpt lat="47.545003" lon="7.867278">
        <ele>335.272616</ele>
        <time>2021-11-09T20:40:56.462Z</time>
      </trkpt>
      <trkpt lat="47.545160" lon="7.866985">
        <ele>335.407912</ele>
        <time>2021-11-09T20:41:01.093Z</time>
      </trkpt>
      <trkpt lat="47.545240" lon="7.866887">
        <ele>335.463531</ele>
        <time>2021-11-09T20:41:03.395Z</time>
      </trkpt>
      <trkpt lat="47.546096" lon="7.866147">
        <ele>335.994542</ele>
        <time>2021-11-09T20:41:28.432Z</time>
      </trkpt>
      <trkpt lat="47.546327" lon="7.865959">
        <ele>336.122356</ele>
        <time>2021-11-09T20:41:34.853Z</time>
      </trkpt>
      <trkpt lat="47.546510" lon="7.865766">
        <ele>336.171746</ele>
        <time>2021-11-09T20:41:41.239Z</time>
      </trkpt>
      <trkpt lat="47.546819" lon="7.865489">
        <ele>336.251155</ele>
        <time>2021-11-09T20:41:49.392Z</time>
      </trkpt>
      <trkpt lat="47.546889" lon="7.865225">
        <ele>336.293249</ele>
        <time>2021-11-09T20:41:53.179Z</time>
      </trkpt>
      <trkpt lat="47.546894" lon="7.864837">
        <ele>336.350843</ele>
        <time>2021-11-09T20:41:58.356Z</time>
      </trkpt>
      <trkpt lat="47.546885" lon="7.864500">
        <ele>336.400895</ele>
        <time>2021-11-09T20:42:03.995Z</time>
      </trkpt>
      <trkpt lat="47.546974" lon="7.864423">
        <ele>336.423556</ele>
        <time>2021-11-09T20:42:05.583Z</time>
      </trkpt>
      <trkpt lat="47.547320" lon="7.863864">
        <ele>336.317111</ele>
        <time>2021-11-09T20:42:15.508Z</time>
      </trkpt>
      <trkpt lat="47.547568" lon="7.863151">
        <ele>335.492239</ele>
        <time>2021-11-09T20:42:24.521Z</time>
      </trkpt>
      <trkpt lat="47.547930" lon="7.861711">
        <ele>333.911992</ele>
        <time>2021-11-09T20:42:40.895Z</time>
      </trkpt>
      <trkpt lat="47.548049" lon="7.860929">
        <ele>333.196124</ele>
        <time>2021-11-09T20:42:49.594Z</time>
      </trkpt>
      <trkpt lat="47.548334" lon="7.859801">
        <ele>332.155015</ele>
        <time>2021-11-09T20:43:03.076Z</time>
      </trkpt>
      <trkpt lat="47.548611" lon="7.858381">
        <ele>331.362076</ele>
        <time>2021-11-09T20:43:21.032Z</time>
      </trkpt>
      <trkpt lat="47.548686" lon="7.857973">
        <ele>331.298216</ele>
        <time>2021-11-09T20:43:26.421Z</time>
      </trkpt>
      <trkpt lat="47.548701" lon="7.857893">
        <ele>331.285677</ele>
        <time>2021-11-09T20:43:27.542Z</time>
      </trkpt>
      <trkpt lat="47.548743" lon="7.857692">
        <ele>331.253901</ele>
        <time>2021-11-09T20:43:30.316Z</time>
      </trkpt>
      <trkpt lat="47.548887" lon="7.857308">
        <ele>331.187561</ele>
        <time>2021-11-09T20:43:36.349Z</time>
      </trkpt>
      <trkpt lat="47.549362" lon="7.855774">
        <ele>331.340477</ele>
        <time>2021-11-09T20:44:00.394Z</time>
      </trkpt>
      <trkpt lat="47.549566" lon="7.855225">
        <ele>331.543694</ele>
        <time>2021-11-09T20:44:09.687Z</time>
      </trkpt>
      <trkpt lat="47.549883" lon="7.854434">
        <ele>331.841993</ele>
        <time>2021-11-09T20:44:24.028Z</time>
      </trkpt>
      <trkpt lat="47.550221" lon="7.853833">
        <ele>332.070450</ele>
        <time>2021-11-09T20:44:33.508Z</time>
      </trkpt>
      <trkpt lat="47.549708" lon="7.853279">
        <ele>332.330010</ele>
        <time>2021-11-09T20:44:47.415Z</time>
      </trkpt>
      <trkpt lat="47.549285" lon="7.852784">
        <ele>332.550407</ele>
        <time>2021-11-09T20:44:58.840Z</time>
      </trkpt>
      <trkpt lat="47.549535" lon="7.852225">
        <ele>332.562154</ele>
        <time>2021-11-09T20:45:08.544Z</time>
      </trkpt>
      <trkpt lat="47.549652" lon="7.851969">
        <ele>332.446750</ele>
        <time>2021-11-09T20:45:12.944Z</time>
      </trkpt>
      <trkpt lat="47.550009" lon="7.851173">
        <ele>332.090010</ele>
        <time>2021-11-09T20:45:25.167Z</time>
      </trkpt>
      <trkpt lat="47.550333" lon="7.850434">
        <ele>331.761076</ele>
        <time>2021-11-09T20:45:35.410Z</time>
      </trkpt>
      <trkpt lat="47.550488" lon="7.850081">
        <ele>331.503339</ele>
        <time>2021-11-09T20:45:40.133Z</time>
      </trkpt>
      <trkpt lat="47.550598" lon="7.849829">
        <ele>331.213105</ele>
        <time>2021-11-09T20:45:43.441Z</time>
      </trkpt>
      <trkpt lat="47.550810" lon="7.849346">
        <ele>330.655914</ele>
        <time>2021-11-09T20:45:49.868Z</time>
      </trkpt>
      <trkpt lat="47.550975" lon="7.849066">
        <ele>330.296442</ele>
        <time>2021-11-09T20:45:54.098Z</time>
      </trkpt>
      <trkpt lat="47.551242" lon="7.848702">
        <ele>329.776558</ele>
        <time>2021-11-09T20:45:58.342Z</time>
      </trkpt>
      <trkpt lat="47.551669" lon="7.848083">
        <ele>328.910411</ele>
        <time>2021-11-09T20:46:05.191Z</time>
      </trkpt>
      <trkpt lat="47.551196" lon="7.847517">
        <ele>327.986866</ele>
        <time>2021-11-09T20:46:12.095Z</time>
      </trkpt>
      <trkpt lat="47.551184" lon="7.847206">
        <ele>327.667503</ele>
        <time>2021-11-09T20:46:14.465Z</time>
      </trkpt>
      <trkpt lat="47.551205" lon="7.846694">
        <ele>327.141623</ele>
        <time>2021-11-09T20:46:18.393Z</time>
      </trkpt>
      <trkpt lat="47.551344" lon="7.844621">
        <ele>325.408746</ele>
        <time>2021-11-09T20:46:35.008Z</time>
      </trkpt>
      <trkpt lat="47.551454" lon="7.842815">
        <ele>324.182329</ele>
        <time>2021-11-09T20:46:50.194Z</time>
      </trkpt>
      <trkpt lat="47.551668" lon="7.842770">
        <ele>324.005771</ele>
        <time>2021-11-09T20:46:54.270Z</time>
      </trkpt>
      <trkpt lat="47.551922" lon="7.842704">
        <ele>323.795124</ele>
        <time>2021-11-09T20:46:58.913Z</time>
      </trkpt>
      <trkpt lat="47.552380" lon="7.842592">
        <ele>323.415945</ele>
        <time>2021-11-09T20:47:07.347Z</time>
      </trkpt>
      <trkpt lat="47.552833" lon="7.842495">
        <ele>323.042067</ele>
        <time>2021-11-09T20:47:15.324Z</time>
      </trkpt>
      <trkpt lat="47.553133" lon="7.842431">
        <ele>322.646148</ele>
        <time>2021-11-09T20:47:20.575Z</time>
      </trkpt>
      <trkpt lat="47.553123" lon="7.842222">
        <ele>322.433334</ele>
        <time>2021-11-09T20:47:22.155Z</time>
      </trkpt>
      <trkpt lat="47.553216" lon="7.841849">
        <ele>322.029451</ele>
        <time>2021-11-09T20:47:25.366Z</time>
      </trkpt>
      <trkpt lat="47.553231" lon="7.841529">
        <ele>321.703643</ele>
        <time>2021-11-09T20:47:27.858Z</time>
      </trkpt>
      <trkpt lat="47.552939" lon="7.839526">
        <ele>319.610733</ele>
        <time>2021-11-09T20:47:43.393Z</time>
      </trkpt>
      <trkpt lat="47.552802" lon="7.839009">
        <ele>319.036440</ele>
        <time>2021-11-09T20:47:47.716Z</time>
      </trkpt>
      <trkpt lat="47.552736" lon="7.838578">
        <ele>318.579468</ele>
        <time>2021-11-09T20:47:51.155Z</time>
      </trkpt>
      <trkpt lat="47.552697" lon="7.838068">
        <ele>318.048765</ele>
        <time>2021-11-09T20:47:55.170Z</time>
      </trkpt>
      <trkpt lat="47.552719" lon="7.836790">
        <ele>316.644388</ele>
        <time>2021-11-09T20:48:05.198Z</time>
      </trkpt>
      <trkpt lat="47.552714" lon="7.835010">
        <ele>314.609474</ele>
        <time>2021-11-09T20:48:18.948Z</time>
      </trkpt>
      <trkpt lat="47.552700" lon="7.833938">
        <ele>312.699504</ele>
        <time>2021-11-09T20:48:26.515Z</time>
      </trkpt>
      <trkpt lat="47.552696" lon="7.833789">
        <ele>312.420807</ele>
        <time>2021-11-09T20:48:27.512Z</time>
      </trkpt>
      <trkpt lat="47.552452" lon="7.833284">
        <ele>311.260045</ele>
        <time>2021-11-09T20:48:31.838Z</time>
      </trkpt>
      <trkpt lat="47.552467" lon="7.833198">
        <ele>311.094032</ele>
        <time>2021-11-09T20:48:32.449Z</time>
      </trkpt>
      <trkpt lat="47.552511" lon="7.833072">
        <ele>310.828887</ele>
        <time>2021-11-09T20:48:33.455Z</time>
      </trkpt>
      <trkpt lat="47.552556" lon="7.832977">
        <ele>310.611968</ele>
        <time>2021-11-09T20:48:34.272Z</time>
      </trkpt>
      <trkpt lat="47.552616" lon="7.832891">
        <ele>310.380795</ele>
        <time>2021-11-09T20:48:35.078Z</time>
      </trkpt>
      <trkpt lat="47.552690" lon="7.832598">
        <ele>309.796100</ele>
        <time>2021-11-09T20:48:37.278Z</time>
      </trkpt>
      <trkpt lat="47.552645" lon="7.830686">
        <ele>306.147481</ele>
        <time>2021-11-09T20:48:50.401Z</time>
      </trkpt>
      <trkpt lat="47.552554" lon="7.829266">
        <ele>303.846305</ele>
        <time>2021-11-09T20:49:00.688Z</time>
      </trkpt>
      <trkpt lat="47.552416" lon="7.828822">
        <ele>303.322401</ele>
        <time>2021-11-09T20:49:04.351Z</time>
      </trkpt>
      <trkpt lat="47.552404" lon="7.828582">
        <ele>303.064469</ele>
        <time>2021-11-09T20:49:06.266Z</time>
      </trkpt>
      <trkpt lat="47.552421" lon="7.828481">
        <ele>302.952904</ele>
        <time>2021-11-09T20:49:07.022Z</time>
      </trkpt>
      <trkpt lat="47.552477" lon="7.828294">
        <ele>302.733639</ele>
        <time>2021-11-09T20:49:08.597Z</time>
      </trkpt>
      <trkpt lat="47.552515" lon="7.828094">
        <ele>302.510952</ele>
        <time>2021-11-09T20:49:10.315Z</time>
      </trkpt>
      <trkpt lat="47.552491" lon="7.827227">
        <ele>301.580942</ele>
        <time>2021-11-09T20:49:17.223Z</time>
      </trkpt>
      <trkpt lat="47.552567" lon="7.824508">
        <ele>300.260694</ele>
        <time>2021-11-09T20:49:41.071Z</time>
      </trkpt>
      <trkpt lat="47.552896" lon="7.820699">
        <ele>298.362900</ele>
        <time>2021-11-09T20:50:13.810Z</time>
      </trkpt>
      <trkpt lat="47.552948" lon="7.819358">
        <ele>297.734560</ele>
        <time>2021-11-09T20:50:25.349Z</time>
      </trkpt>
      <trkpt lat="47.552844" lon="7.816432">
        <ele>297.329354</ele>
        <time>2021-11-09T20:50:52.983Z</time>
      </trkpt>
      <trkpt lat="47.552711" lon="7.812955">
        <ele>298.598935</ele>
        <time>2021-11-09T20:51:33.637Z</time>
      </trkpt>
      <trkpt lat="47.552566" lon="7.810386">
        <ele>299.727761</ele>
        <time>2021-11-09T20:52:03.669Z</time>
      </trkpt>
      <trkpt lat="47.552398" lon="7.808880">
        <ele>300.421097</ele>
        <time>2021-11-09T20:52:22.150Z</time>
      </trkpt>
      <trkpt lat="47.552068" lon="7.806445">
        <ele>300.888695</ele>
        <time>2021-11-09T20:52:50.490Z</time>
      </trkpt>
      <trkpt lat="47.552015" lon="7.806307">
        <ele>300.913246</ele>
        <time>2021-11-09T20:52:52.213Z</time>
      </trkpt>
      <trkpt lat="47.551895" lon="7.806278">
        <ele>300.941101</ele>
        <time>2021-11-09T20:52:53.522Z</time>
      </trkpt>
      <trkpt lat="47.551651" lon="7.806246">
        <ele>300.836503</ele>
        <time>2021-11-09T20:52:57.285Z</time>
      </trkpt>
      <trkpt lat="47.551671" lon="7.806117">
        <ele>300.768900</ele>
        <time>2021-11-09T20:52:58.599Z</time>
      </trkpt>
      <trkpt lat="47.551681" lon="7.805477">
        <ele>300.441933</ele>
        <time>2021-11-09T20:53:06.297Z</time>
      </trkpt>
      <trkpt lat="47.551709" lon="7.805000">
        <ele>300.197385</ele>
        <time>2021-11-09T20:53:11.941Z</time>
      </trkpt>
      <trkpt lat="47.551731" lon="7.804667">
        <ele>300.026493</ele>
        <time>2021-11-09T20:53:16.577Z</time>
      </trkpt>
      <trkpt lat="47.551744" lon="7.804473">
        <ele>299.926920</ele>
        <time>2021-11-09T20:53:18.582Z</time>
      </trkpt>
      <trkpt lat="47.551741" lon="7.804294">
        <ele>299.835468</ele>
        <time>2021-11-09T20:53:20.963Z</time>
      </trkpt>
      <trkpt lat="47.551692" lon="7.803510">
        <ele>299.579574</ele>
        <time>2021-11-09T20:53:30.110Z</time>
      </trkpt>
      <trkpt lat="47.551751" lon="7.803369">
        <ele>299.569753</ele>
        <time>2021-11-09T20:53:32.115Z</time>
      </trkpt>
      <trkpt lat="47.551744" lon="7.803277">
        <ele>299.564273</ele>
        <time>2021-11-09T20:53:32.934Z</time>
      </trkpt>
      <trkpt lat="47.551732" lon="7.803125">
        <ele>299.555213</ele>
        <time>2021-11-09T20:53:34.322Z</time>
      </trkpt>
      <trkpt lat="47.551666" lon="7.803144">
        <ele>299.549316</ele>
        <time>2021-11-09T20:53:38.989Z</time>
      </trkpt>
      <trkpt lat="47.551598" lon="7.803160">
        <ele>299.543277</ele>
        <time>2021-11-09T20:53:43.733Z</time>
      </trkpt>
      <trkpt lat="47.551163" lon="7.803129">
        <ele>299.505080</ele>
        <time>2021-11-09T20:53:52.758Z</time>
      </trkpt>
      <trkpt lat="47.550981" lon="7.803132">
        <ele>299.489115</ele>
        <time>2021-11-09T20:53:56.785Z</time>
      </trkpt>
      <trkpt lat="47.550196" lon="7.803120">
        <ele>299.522999</ele>
        <time>2021-11-09T20:54:14.107Z</time>
      </trkpt>
      <trkpt lat="47.550134" lon="7.803051">
        <ele>299.549907</ele>
        <time>2021-11-09T20:54:15.784Z</time>
      </trkpt>
      <trkpt lat="47.550146" lon="7.802262">
        <ele>299.734747</ele>
        <time>2021-11-09T20:54:27.162Z</time>
      </trkpt>
      <trkpt lat="47.550146" lon="7.802262">
        <ele>299.734747</ele>
        <time>2021-11-09T20:54:27.186Z</time>
      </trkpt>
      <trkpt lat="47.549879" lon="7.802247">
        <ele>299.827465</ele>
        <time>2021-11-09T20:54:32.941Z</time>
      </trkpt>
      <trkpt lat="47.549481" lon="7.802234">
        <ele>299.965608</ele>
        <time>2021-11-09T20:54:41.664Z</time>
      </trkpt>
      <trkpt lat="47.549410" lon="7.802226">
        <ele>299.990317</ele>
        <time>2021-11-09T20:54:43.281Z</time>
      </trkpt>
      <trkpt lat="47.548877" lon="7.802168">
        <ele>300.094770</ele>
        <time>2021-11-09T20:54:54.484Z</time>
      </trkpt>
      <trkpt lat="47.548626" lon="7.802129">
        <ele>300.118229</ele>
        <time>2021-11-09T20:54:59.697Z</time>
      </trkpt>
      <trkpt lat="47.548607" lon="7.801690">
        <ele>300.145828</ele>
        <time>2021-11-09T20:55:05.760Z</time>
      </trkpt>
      <trkpt lat="47.548596" lon="7.801213">
        <ele>300.175772</ele>
        <time>2021-11-09T20:55:12.292Z</time>
      </trkpt>
      <trkpt lat="47.548576" lon="7.800968">
        <ele>300.191256</ele>
        <time>2021-11-09T20:55:15.655Z</time>
      </trkpt>
      <trkpt lat="47.548569" lon="7.800838">
        <ele>300.199438</ele>
        <time>2021-11-09T20:55:17.420Z</time>
      </trkpt>
      <trkpt lat="47.548560" lon="7.800672">
        <ele>300.209886</ele>
        <time>2021-11-09T20:55:19.736Z</time>
      </trkpt>
      <trkpt lat="47.548545" lon="7.800404">
        <ele>300.226758</ele>
        <time>2021-11-09T20:55:23.383Z</time>
      </trkpt>
      <trkpt lat="47.548519" lon="7.799896">
        <ele>300.323022</ele>
        <time>2021-11-09T20:55:30.498Z</time>
      </trkpt>
      <trkpt lat="47.548514" lon="7.799795">
        <ele>300.344852</ele>
        <time>2021-11-09T20:55:31.902Z</time>
      </trkpt>
      <trkpt lat="47.548535" lon="7.799720">
        <ele>300.362355</ele>
        <time>2021-11-09T20:55:33.053Z</time>
      </trkpt>
      <trkpt lat="47.548459" lon="7.799691">
        <ele>300.387418</ele>
        <time>2021-11-09T20:55:34.699Z</time>
      </trkpt>
      <trkpt lat="47.547912" lon="7.799646">
        <ele>300.562377</ele>
        <time>2021-11-09T20:55:45.942Z</time>
      </trkpt>
      <trkpt lat="47.547540" lon="7.799538">
        <ele>300.683438</ele>
        <time>2021-11-09T20:55:53.854Z</time>
      </trkpt>
      <trkpt lat="47.546418" lon="7.798980">
        <ele>301.109486</ele>
        <time>2021-11-09T20:56:22.290Z</time>
      </trkpt>
      <trkpt lat="47.545862" lon="7.798858">
        <ele>301.322872</ele>
        <time>2021-11-09T20:56:34.132Z</time>
      </trkpt>
      <trkpt lat="47.545807" lon="7.798846">
        <ele>301.343978</ele>
        <time>2021-11-09T20:56:35.252Z</time>
      </trkpt>
      <trkpt lat="47.545731" lon="7.798810">
        <ele>301.374270</ele>
        <time>2021-11-09T20:56:37.282Z</time>
      </trkpt>
      <trkpt lat="47.545581" lon="7.798713">
        <ele>301.436405</ele>
        <time>2021-11-09T20:56:40.059Z</time>
      </trkpt>
      <trkpt lat="47.545511" lon="7.798680">
        <ele>301.464294</ele>
        <time>2021-11-09T20:56:41.551Z</time>
      </trkpt>
      <trkpt lat="47.545558" lon="7.798144">
        <ele>301.482256</ele>
        <time>2021-11-09T20:56:48.345Z</time>
      </trkpt>
      <trkpt lat="47.545637" lon="7.797310">
        <ele>301.468287</ele>
        <time>2021-11-09T20:57:00.115Z</time>
      </trkpt>
      <trkpt lat="47.545645" lon="7.797258">
        <ele>301.467402</ele>
        <time>2021-11-09T20:57:00.608Z</time>
      </trkpt>
      <trkpt lat="47.545670" lon="7.797142">
        <ele>301.465382</ele>
        <time>2021-11-09T20:57:02.160Z</time>
      </trkpt>
      <trkpt lat="47.545689" lon="7.797076">
        <ele>301.464192</ele>
        <time>2021-11-09T20:57:03.116Z</time>
      </trkpt>
      <trkpt lat="47.545728" lon="7.796950">
        <ele>301.461893</ele>
        <time>2021-11-09T20:57:05.866Z</time>
      </trkpt>
      <trkpt lat="47.545767" lon="7.796820">
        <ele>301.459533</ele>
        <time>2021-11-09T20:57:08.067Z</time>
      </trkpt>
      <trkpt lat="47.545788" lon="7.796748">
        <ele>301.458232</ele>
        <time>2021-11-09T20:57:08.871Z</time>
      </trkpt>
      <trkpt lat="47.545889" lon="7.796500">
        <ele>301.453427</ele>
        <time>2021-11-09T20:57:13.157Z</time>
      </trkpt>
      <trkpt lat="47.546038" lon="7.796107">
        <ele>301.445951</ele>
        <time>2021-11-09T20:57:18.711Z</time>
      </trkpt>
      <trkpt lat="47.546105" lon="7.795928">
        <ele>301.493974</ele>
        <time>2021-11-09T20:57:22.243Z</time>
      </trkpt>
      <trkpt lat="47.546154" lon="7.795747">
        <ele>301.549526</ele>
        <time>2021-11-09T20:57:24.552Z</time>
      </trkpt>
      <trkpt lat="47.546170" lon="7.795612">
        <ele>301.588570</ele>
        <time>2021-11-09T20:57:26.465Z</time>
      </trkpt>
      <trkpt lat="47.546165" lon="7.795511">
        <ele>301.617418</ele>
        <time>2021-11-09T20:57:28.489Z</time>
      </trkpt>
      <trkpt lat="47.546019" lon="7.795020">
        <ele>301.770254</ele>
        <time>2021-11-09T20:57:36.248Z</time>
      </trkpt>
      <trkpt lat="47.545947" lon="7.794710">
        <ele>301.863642</ele>
        <time>2021-11-09T20:57:41.283Z</time>
      </trkpt>
      <trkpt lat="47.545921" lon="7.794468">
        <ele>301.933446</ele>
        <time>2021-11-09T20:57:45.406Z</time>
      </trkpt>
      <trkpt lat="47.545969" lon="7.793663">
        <ele>302.163651</ele>
        <time>2021-11-09T20:57:57.897Z</time>
      </trkpt>
      <trkpt lat="47.546027" lon="7.793254">
        <ele>302.082894</ele>
        <time>2021-11-09T20:58:04.287Z</time>
      </trkpt>
      <trkpt lat="47.546253" lon="7.791998">
        <ele>301.507822</ele>
        <time>2021-11-09T20:58:20.411Z</time>
      </trkpt>
      <trkpt lat="47.546453" lon="7.790534">
        <ele>300.790290</ele>
        <time>2021-11-09T20:58:37.210Z</time>
      </trkpt>
      <trkpt lat="47.546673" lon="7.788921">
        <ele>299.831029</ele>
        <time>2021-11-09T20:58:56.728Z</time>
      </trkpt>
      <trkpt lat="47.546695" lon="7.788763">
        <ele>299.736988</ele>
        <time>2021-11-09T20:58:58.650Z</time>
      </trkpt>
      <trkpt lat="47.546810" lon="7.787834">
        <ele>299.778645</ele>
        <time>2021-11-09T20:59:10.768Z</time>
      </trkpt>
      <trkpt lat="47.546897" lon="7.787133">
        <ele>300.224024</ele>
        <time>2021-11-09T20:59:20.239Z</time>
      </trkpt>
      <trkpt lat="47.546959" lon="7.786598">
        <ele>300.563222</ele>
        <time>2021-11-09T20:59:27.893Z</time>
      </trkpt>
      <trkpt lat="47.546952" lon="7.786540">
        <ele>300.600040</ele>
        <time>2021-11-09T20:59:28.851Z</time>
      </trkpt>
      <trkpt lat="47.546913" lon="7.786470">
        <ele>300.656757</ele>
        <time>2021-11-09T20:59:30.632Z</time>
      </trkpt>
      <trkpt lat="47.546526" lon="7.786353">
        <ele>301.022408</ele>
        <time>2021-11-09T20:59:42.038Z</time>
      </trkpt>
      <trkpt lat="47.546464" lon="7.786335">
        <ele>301.080896</ele>
        <time>2021-11-09T20:59:43.844Z</time>
      </trkpt>
      <trkpt lat="47.546417" lon="7.786331">
        <ele>301.124479</ele>
        <time>2021-11-09T20:59:45.085Z</time>
      </trkpt>
      <trkpt lat="47.546102" lon="7.786217">
        <ele>302.934580</ele>
        <time>2021-11-09T20:59:56.669Z</time>
      </trkpt>
      <trkpt lat="47.545856" lon="7.785973">
        <ele>304.648929</ele>
        <time>2021-11-09T21:00:08.834Z</time>
      </trkpt>
      <trkpt lat="47.545672" lon="7.785654">
        <ele>306.289093</ele>
        <time>2021-11-09T21:00:20.161Z</time>
      </trkpt>
      <trkpt lat="47.545624" lon="7.785548">
        <ele>306.788030</ele>
        <time>2021-11-09T21:00:26.826Z</time>
      </trkpt>
      <trkpt lat="47.545250" lon="7.784778">
        <ele>310.496083</ele>
        <time>2021-11-09T21:00:58.352Z</time>
      </trkpt>
      <trkpt lat="47.545240" lon="7.784746">
        <ele>310.633921</ele>
        <time>2021-11-09T21:01:01.031Z</time>
      </trkpt>
      <trkpt lat="47.545054" lon="7.784227">
        <ele>311.926829</ele>
        <time>2021-11-09T21:01:19.181Z</time>
      </trkpt>
      <trkpt lat="47.544950" lon="7.784008">
        <ele>312.210782</ele>
        <time>2021-11-09T21:01:25.511Z</time>
      </trkpt>
      <trkpt lat="47.544627" lon="7.783499">
        <ele>312.951622</ele>
        <time>2021-11-09T21:01:41.374Z</time>
      </trkpt>
      <trkpt lat="47.544555" lon="7.783372">
        <ele>313.127499</ele>
        <time>2021-11-09T21:01:43.451Z</time>
      </trkpt>
      <trkpt lat="47.544490" lon="7.783060">
        <ele>313.473762</ele>
        <time>2021-11-09T21:01:48.197Z</time>
      </trkpt>
      <trkpt lat="47.544474" lon="7.782623">
        <ele>313.937865</ele>
        <time>2021-11-09T21:01:53.205Z</time>
      </trkpt>
      <trkpt lat="47.544469" lon="7.782455">
        <ele>314.116195</ele>
        <time>2021-11-09T21:01:54.504Z</time>
      </trkpt>
      <trkpt lat="47.544461" lon="7.782254">
        <ele>314.329718</ele>
        <time>2021-11-09T21:01:55.769Z</time>
      </trkpt>
      <trkpt lat="47.544100" lon="7.779438">
        <ele>303.421013</ele>
        <time>2021-11-09T21:02:13.258Z</time>
      </trkpt>
      <trkpt lat="47.543933" lon="7.778374">
        <ele>300.756291</ele>
        <time>2021-11-09T21:02:20.329Z</time>
      </trkpt>
      <trkpt lat="47.543707" lon="7.777394">
        <ele>298.230047</ele>
        <time>2021-11-09T21:02:27.549Z</time>
      </trkpt>
      <trkpt lat="47.543527" lon="7.776532">
        <ele>297.105202</ele>
        <time>2021-11-09T21:02:34.693Z</time>
      </trkpt>
      <trkpt lat="47.543482" lon="7.776095">
        <ele>296.939519</ele>
        <time>2021-11-09T21:02:38.569Z</time>
      </trkpt>
      <trkpt lat="47.543449" lon="7.775478">
        <ele>296.707543</ele>
        <time>2021-11-09T21:02:44.312Z</time>
      </trkpt>
      <trkpt lat="47.543402" lon="7.775016">
        <ele>296.532430</ele>
        <time>2021-11-09T21:02:48.981Z</time>
      </trkpt>
      <trkpt lat="47.543350" lon="7.774507">
        <ele>296.339484</ele>
        <time>2021-11-09T21:02:54.219Z</time>
      </trkpt>
      <trkpt lat="47.543145" lon="7.773277">
        <ele>296.135200</ele>
        <time>2021-11-09T21:03:07.118Z</time>
      </trkpt>
      <trkpt lat="47.543108" lon="7.773069">
        <ele>296.104464</ele>
        <time>2021-11-09T21:03:09.298Z</time>
      </trkpt>
      <trkpt lat="47.542720" lon="7.770771">
        <ele>295.739316</ele>
        <time>2021-11-09T21:03:30.520Z</time>
      </trkpt>
      <trkpt lat="47.542450" lon="7.769311">
        <ele>295.485836</ele>
        <time>2021-11-09T21:03:44.492Z</time>
      </trkpt>
      <trkpt lat="47.542317" lon="7.768533">
        <ele>296.698735</ele>
        <time>2021-11-09T21:03:52.866Z</time>
      </trkpt>
      <trkpt lat="47.541697" lon="7.765479">
        <ele>305.188602</ele>
        <time>2021-11-09T21:04:55.131Z</time>
      </trkpt>
      <trkpt lat="47.541552" lon="7.764869">
        <ele>307.900803</ele>
        <time>2021-11-09T21:05:14.871Z</time>
      </trkpt>
      <trkpt lat="47.541443" lon="7.764512">
        <ele>309.544021</ele>
        <time>2021-11-09T21:05:28.722Z</time>
      </trkpt>
      <trkpt lat="47.541364" lon="7.764150">
        <ele>311.176043</ele>
        <time>2021-11-09T21:05:39.689Z</time>
      </trkpt>
      <trkpt lat="47.541377" lon="7.764045">
        <ele>311.851633</ele>
        <time>2021-11-09T21:05:44.252Z</time>
      </trkpt>
      <trkpt lat="47.541334" lon="7.764020">
        <ele>312.284691</ele>
        <time>2021-11-09T21:05:49.095Z</time>
      </trkpt>
      <trkpt lat="47.541219" lon="7.763853">
        <ele>313.794439</ele>
        <time>2021-11-09T21:05:55.683Z</time>
      </trkpt>
      <trkpt lat="47.541023" lon="7.762922">
        <ele>319.966292</ele>
        <time>2021-11-09T21:06:34.015Z</time>
      </trkpt>
      <trkpt lat="47.541004" lon="7.762306">
        <ele>323.868818</ele>
        <time>2021-11-09T21:06:56.834Z</time>
      </trkpt>
      <trkpt lat="47.540921" lon="7.761599">
        <ele>328.191898</ele>
        <time>2021-11-09T21:07:21.503Z</time>
      </trkpt>
      <trkpt lat="47.540567" lon="7.759901">
        <ele>334.323649</ele>
        <time>2021-11-09T21:08:06.176Z</time>
      </trkpt>
      <trkpt lat="47.540447" lon="7.759585">
        <ele>335.574642</ele>
        <time>2021-11-09T21:08:13.759Z</time>
      </trkpt>
      <trkpt lat="47.539949" lon="7.758688">
        <ele>336.566296</ele>
        <time>2021-11-09T21:08:32.004Z</time>
      </trkpt>
      <trkpt lat="47.539722" lon="7.758107">
        <ele>336.041676</ele>
        <time>2021-11-09T21:08:38.294Z</time>
      </trkpt>
      <trkpt lat="47.539595" lon="7.757548">
        <ele>335.580734</ele>
        <time>2021-11-09T21:08:42.687Z</time>
      </trkpt>
      <trkpt lat="47.539346" lon="7.755736">
        <ele>330.785193</ele>
        <time>2021-11-09T21:08:54.431Z</time>
      </trkpt>
      <trkpt lat="47.539230" lon="7.755294">
        <ele>329.043096</ele>
        <time>2021-11-09T21:08:57.323Z</time>
      </trkpt>
      <trkpt lat="47.539079" lon="7.754976">
        <ele>327.614861</ele>
        <time>2021-11-09T21:08:59.714Z</time>
      </trkpt>
      <trkpt lat="47.538792" lon="7.754549">
        <ele>325.401348</ele>
        <time>2021-11-09T21:09:03.448Z</time>
      </trkpt>
      <trkpt lat="47.538723" lon="7.754445">
        <ele>325.050341</ele>
        <time>2021-11-09T21:09:04.346Z</time>
      </trkpt>
      <trkpt lat="47.538494" lon="7.754103">
        <ele>324.123590</ele>
        <time>2021-11-09T21:09:07.506Z</time>
      </trkpt>
      <trkpt lat="47.538359" lon="7.753900">
        <ele>323.575357</ele>
        <time>2021-11-09T21:09:09.407Z</time>
      </trkpt>
      <trkpt lat="47.538052" lon="7.753460">
        <ele>322.357937</ele>
        <time>2021-11-09T21:09:13.815Z</time>
      </trkpt>
      <trkpt lat="47.537715" lon="7.753194">
        <ele>321.269679</ele>
        <time>2021-11-09T21:09:17.933Z</time>
      </trkpt>
      <trkpt lat="47.537564" lon="7.753073">
        <ele>320.780410</ele>
        <time>2021-11-09T21:09:19.835Z</time>
      </trkpt>
      <trkpt lat="47.537371" lon="7.752851">
        <ele>320.122043</ele>
        <time>2021-11-09T21:09:23.272Z</time>
      </trkpt>
      <trkpt lat="47.537134" lon="7.752309">
        <ele>319.967034</ele>
        <time>2021-11-09T21:09:29.560Z</time>
      </trkpt>
      <trkpt lat="47.535912" lon="7.749669">
        <ele>319.232078</ele>
        <time>2021-11-09T21:09:59.740Z</time>
      </trkpt>
      <trkpt lat="47.534874" lon="7.746551">
        <ele>318.604876</ele>
        <time>2021-11-09T21:10:31.590Z</time>
      </trkpt>
      <trkpt lat="47.534429" lon="7.744856">
        <ele>318.714250</ele>
        <time>2021-11-09T21:10:50.501Z</time>
      </trkpt>
      <trkpt lat="47.534370" lon="7.744709">
        <ele>318.745060</ele>
        <time>2021-11-09T21:10:52.148Z</time>
      </trkpt>
      <trkpt lat="47.534179" lon="7.744495">
        <ele>318.808968</ele>
        <time>2021-11-09T21:10:56.031Z</time>
      </trkpt>
      <trkpt lat="47.534097" lon="7.744343">
        <ele>318.844021</ele>
        <time>2021-11-09T21:10:58.042Z</time>
      </trkpt>
      <trkpt lat="47.534043" lon="7.744207">
        <ele>318.872447</ele>
        <time>2021-11-09T21:10:59.788Z</time>
      </trkpt>
      <trkpt lat="47.533870" lon="7.743466">
        <ele>318.875519</ele>
        <time>2021-11-09T21:11:08.566Z</time>
      </trkpt>
      <trkpt lat="47.533707" lon="7.742025">
        <ele>317.950782</ele>
        <time>2021-11-09T21:11:27.116Z</time>
      </trkpt>
      <trkpt lat="47.533352" lon="7.740430">
        <ele>314.337774</ele>
        <time>2021-11-09T21:11:38.488Z</time>
      </trkpt>
      <trkpt lat="47.533191" lon="7.739816">
        <ele>311.322483</ele>
        <time>2021-11-09T21:11:42.494Z</time>
      </trkpt>
      <trkpt lat="47.533226" lon="7.739781">
        <ele>311.036149</ele>
        <time>2021-11-09T21:11:42.845Z</time>
      </trkpt>
      <trkpt lat="47.533446" lon="7.739598">
        <ele>309.325349</ele>
        <time>2021-11-09T21:11:45.090Z</time>
      </trkpt>
      <trkpt lat="47.534011" lon="7.739126">
        <ele>304.947526</ele>
        <time>2021-11-09T21:11:50.768Z</time>
      </trkpt>
      <trkpt lat="47.534755" lon="7.738529">
        <ele>299.879492</ele>
        <time>2021-11-09T21:11:58.174Z</time>
      </trkpt>
      <trkpt lat="47.535216" lon="7.738157">
        <ele>296.735203</ele>
        <time>2021-11-09T21:12:03.006Z</time>
      </trkpt>
      <trkpt lat="47.534765" lon="7.736911">
        <ele>294.302468</ele>
        <time>2021-11-09T21:12:14.144Z</time>
      </trkpt>
      <trkpt lat="47.534682" lon="7.736678">
        <ele>294.293966</ele>
        <time>2021-11-09T21:12:17.169Z</time>
      </trkpt>
      <trkpt lat="47.534670" lon="7.736644">
        <ele>294.292728</ele>
        <time>2021-11-09T21:12:17.625Z</time>
      </trkpt>
      <trkpt lat="47.534450" lon="7.736026">
        <ele>294.270180</ele>
        <time>2021-11-09T21:12:25.951Z</time>
      </trkpt>
      <trkpt lat="47.534301" lon="7.735625">
        <ele>294.255408</ele>
        <time>2021-11-09T21:12:31.803Z</time>
      </trkpt>
      <trkpt lat="47.533860" lon="7.734479">
        <ele>294.643152</ele>
        <time>2021-11-09T21:12:48.721Z</time>
      </trkpt>
      <trkpt lat="47.533685" lon="7.734026">
        <ele>294.867318</ele>
        <time>2021-11-09T21:12:54.951Z</time>
      </trkpt>
      <trkpt lat="47.533577" lon="7.733712">
        <ele>295.018676</ele>
        <time>2021-11-09T21:12:59.014Z</time>
      </trkpt>
      <trkpt lat="47.533436" lon="7.733399">
        <ele>295.180291</ele>
        <time>2021-11-09T21:13:03.087Z</time>
      </trkpt>
      <trkpt lat="47.533324" lon="7.733190">
        <ele>295.294898</ele>
        <time>2021-11-09T21:13:06.194Z</time>
      </trkpt>
      <trkpt lat="47.533220" lon="7.733022">
        <ele>295.386121</ele>
        <time>2021-11-09T21:13:08.454Z</time>
      </trkpt>
      <trkpt lat="47.532961" lon="7.732599">
        <ele>295.341866</ele>
        <time>2021-11-09T21:13:14.355Z</time>
      </trkpt>
      <trkpt lat="47.532853" lon="7.732416">
        <ele>295.323029</ele>
        <time>2021-11-09T21:13:16.951Z</time>
      </trkpt>
      <trkpt lat="47.532776" lon="7.732283">
        <ele>295.309451</ele>
        <time>2021-11-09T21:13:18.570Z</time>
      </trkpt>
      <trkpt lat="47.532665" lon="7.732105">
        <ele>295.290672</ele>
        <time>2021-11-09T21:13:20.866Z</time>
      </trkpt>
      <trkpt lat="47.532473" lon="7.731703">
        <ele>295.252510</ele>
        <time>2021-11-09T21:13:25.335Z</time>
      </trkpt>
      <trkpt lat="47.532405" lon="7.731493">
        <ele>295.234459</ele>
        <time>2021-11-09T21:13:27.544Z</time>
      </trkpt>
      <trkpt lat="47.532193" lon="7.730459">
        <ele>295.231289</ele>
        <time>2021-11-09T21:13:37.420Z</time>
      </trkpt>
      <trkpt lat="47.531944" lon="7.728603">
        <ele>295.478919</ele>
        <time>2021-11-09T21:13:57.981Z</time>
      </trkpt>
      <trkpt lat="47.531815" lon="7.728165">
        <ele>295.566240</ele>
        <time>2021-11-09T21:14:03.258Z</time>
      </trkpt>
      <trkpt lat="47.531623" lon="7.727725">
        <ele>295.774570</ele>
        <time>2021-11-09T21:14:09.097Z</time>
      </trkpt>
      <trkpt lat="47.531296" lon="7.727089">
        <ele>296.092461</ele>
        <time>2021-11-09T21:14:18.342Z</time>
      </trkpt>
      <trkpt lat="47.531193" lon="7.726888">
        <ele>296.192804</ele>
        <time>2021-11-09T21:14:20.842Z</time>
      </trkpt>
      <trkpt lat="47.531031" lon="7.726569">
        <ele>296.351535</ele>
        <time>2021-11-09T21:14:25.679Z</time>
      </trkpt>
      <trkpt lat="47.530756" lon="7.726844">
        <ele>296.546961</ele>
        <time>2021-11-09T21:14:31.763Z</time>
      </trkpt>
      <trkpt lat="47.530372" lon="7.727161">
        <ele>296.920183</ele>
        <time>2021-11-09T21:14:40.012Z</time>
      </trkpt>
      <trkpt lat="47.529976" lon="7.727410">
        <ele>297.306867</ele>
        <time>2021-11-09T21:14:47.901Z</time>
      </trkpt>
      <trkpt lat="47.529269" lon="7.727844">
        <ele>297.994758</ele>
        <time>2021-11-09T21:15:02.483Z</time>
      </trkpt>
      <trkpt lat="47.528941" lon="7.728048">
        <ele>298.204370</ele>
        <time>2021-11-09T21:15:08.946Z</time>
      </trkpt>
      <trkpt lat="47.528848" lon="7.728118">
        <ele>298.203583</ele>
        <time>2021-11-09T21:15:10.771Z</time>
      </trkpt>
      <trkpt lat="47.528803" lon="7.728159">
        <ele>298.203184</ele>
        <time>2021-11-09T21:15:11.619Z</time>
      </trkpt>
      <trkpt lat="47.528746" lon="7.728265">
        <ele>298.202493</ele>
        <time>2021-11-09T21:15:13.146Z</time>
      </trkpt>
      <trkpt lat="47.528715" lon="7.728334">
        <ele>298.202071</ele>
        <time>2021-11-09T21:15:14.050Z</time>
      </trkpt>
      <trkpt lat="47.528688" lon="7.728441">
        <ele>298.201489</ele>
        <time>2021-11-09T21:15:15.374Z</time>
      </trkpt>
      <trkpt lat="47.528614" lon="7.728431">
        <ele>298.200928</ele>
        <time>2021-11-09T21:15:16.599Z</time>
      </trkpt>
      <trkpt lat="47.528552" lon="7.728411">
        <ele>298.200449</ele>
        <time>2021-11-09T21:15:17.583Z</time>
      </trkpt>
      <trkpt lat="47.528408" lon="7.728307">
        <ele>298.199240</ele>
        <time>2021-11-09T21:15:20.083Z</time>
      </trkpt>
      <trkpt lat="47.528320" lon="7.728136">
        <ele>298.198145</ele>
        <time>2021-11-09T21:15:22.250Z</time>
      </trkpt>
      <trkpt lat="47.528164" lon="7.727824">
        <ele>298.196166</ele>
        <time>2021-11-09T21:15:25.895Z</time>
      </trkpt>
      <trkpt lat="47.528065" lon="7.727556">
        <ele>298.194610</ele>
        <time>2021-11-09T21:15:28.563Z</time>
      </trkpt>
      <trkpt lat="47.528009" lon="7.727429">
        <ele>298.193837</ele>
        <time>2021-11-09T21:15:29.886Z</time>
      </trkpt>
      <trkpt lat="47.527862" lon="7.727114">
        <ele>298.191885</ele>
        <time>2021-11-09T21:15:33.058Z</time>
      </trkpt>
      <trkpt lat="47.526894" lon="7.725042">
        <ele>297.835908</ele>
        <time>2021-11-09T21:15:55.848Z</time>
      </trkpt>
      <trkpt lat="47.526744" lon="7.724750">
        <ele>297.968843</ele>
        <time>2021-11-09T21:16:00.500Z</time>
      </trkpt>
      <trkpt lat="47.526099" lon="7.723563">
        <ele>299.246368</ele>
        <time>2021-11-09T21:16:21.637Z</time>
      </trkpt>
      <trkpt lat="47.525373" lon="7.722545">
        <ele>299.775042</ele>
        <time>2021-11-09T21:16:42.867Z</time>
      </trkpt>
      <trkpt lat="47.525258" lon="7.722384">
        <ele>299.656051</ele>
        <time>2021-11-09T21:16:45.655Z</time>
      </trkpt>
      <trkpt lat="47.524884" lon="7.722022">
        <ele>299.320101</ele>
        <time>2021-11-09T21:16:52.860Z</time>
      </trkpt>
      <trkpt lat="47.524632" lon="7.721805">
        <ele>299.100916</ele>
        <time>2021-11-09T21:16:56.538Z</time>
      </trkpt>
      <trkpt lat="47.524263" lon="7.721598">
        <ele>298.804225</ele>
        <time>2021-11-09T21:17:00.794Z</time>
      </trkpt>
      <trkpt lat="47.523902" lon="7.721670">
        <ele>297.440880</ele>
        <time>2021-11-09T21:17:04.343Z</time>
      </trkpt>
      <trkpt lat="47.523671" lon="7.721634">
        <ele>296.085478</ele>
        <time>2021-11-09T21:17:06.486Z</time>
      </trkpt>
      <trkpt lat="47.523300" lon="7.721328">
        <ele>293.607425</ele>
        <time>2021-11-09T21:17:10.417Z</time>
      </trkpt>
      <trkpt lat="47.523111" lon="7.721224">
        <ele>292.430870</ele>
        <time>2021-11-09T21:17:12.195Z</time>
      </trkpt>
      <trkpt lat="47.522888" lon="7.721170">
        <ele>291.112311</ele>
        <time>2021-11-09T21:17:14.293Z</time>
      </trkpt>
      <trkpt lat="47.522682" lon="7.721170">
        <ele>289.910236</ele>
        <time>2021-11-09T21:17:16.114Z</time>
      </trkpt>
      <trkpt lat="47.522498" lon="7.721207">
        <ele>288.826683</ele>
        <time>2021-11-09T21:17:17.809Z</time>
      </trkpt>
      <trkpt lat="47.522249" lon="7.721165">
        <ele>287.549571</ele>
        <time>2021-11-09T21:17:20.061Z</time>
      </trkpt>
      <trkpt lat="47.521984" lon="7.721168">
        <ele>286.347726</ele>
        <time>2021-11-09T21:17:22.417Z</time>
      </trkpt>
      <trkpt lat="47.521846" lon="7.721211">
        <ele>285.708173</ele>
        <time>2021-11-09T21:17:23.756Z</time>
      </trkpt>
      <trkpt lat="47.521722" lon="7.721283">
        <ele>285.104129</ele>
        <time>2021-11-09T21:17:24.926Z</time>
      </trkpt>
      <trkpt lat="47.521455" lon="7.721426">
        <ele>283.816482</ele>
        <time>2021-11-09T21:17:27.631Z</time>
      </trkpt>
      <trkpt lat="47.521121" lon="7.721544">
        <ele>282.259233</ele>
        <time>2021-11-09T21:17:30.933Z</time>
      </trkpt>
      <trkpt lat="47.520760" lon="7.721667">
        <ele>280.579270</ele>
        <time>2021-11-09T21:17:34.800Z</time>
      </trkpt>
      <trkpt lat="47.519305" lon="7.722165">
        <ele>279.707783</ele>
        <time>2021-11-09T21:17:55.347Z</time>
      </trkpt>
      <trkpt lat="47.518237" lon="7.722578">
        <ele>280.495619</ele>
        <time>2021-11-09T21:18:15.929Z</time>
      </trkpt>
      <trkpt lat="47.518038" lon="7.722700">
        <ele>280.777805</ele>
        <time>2021-11-09T21:18:20.021Z</time>
      </trkpt>
      <trkpt lat="47.517885" lon="7.722793">
        <ele>280.994493</ele>
        <time>2021-11-09T21:18:23.501Z</time>
      </trkpt>
      <trkpt lat="47.517269" lon="7.723372">
        <ele>281.950432</ele>
        <time>2021-11-09T21:18:38.921Z</time>
      </trkpt>
      <trkpt lat="47.516416" lon="7.724623">
        <ele>284.566807</ele>
        <time>2021-11-09T21:19:06.881Z</time>
      </trkpt>
      <trkpt lat="47.515959" lon="7.725102">
        <ele>285.790612</ele>
        <time>2021-11-09T21:19:20.577Z</time>
      </trkpt>
      <trkpt lat="47.515697" lon="7.725255">
        <ele>286.259854</ele>
        <time>2021-11-09T21:19:27.566Z</time>
      </trkpt>
      <trkpt lat="47.515140" lon="7.725368">
        <ele>287.138022</ele>
        <time>2021-11-09T21:19:42.317Z</time>
      </trkpt>
      <trkpt lat="47.514143" lon="7.725538">
        <ele>288.701183</ele>
        <time>2021-11-09T21:20:02.129Z</time>
      </trkpt>
      <trkpt lat="47.513681" lon="7.725617">
        <ele>288.269371</ele>
        <time>2021-11-09T21:20:07.503Z</time>
      </trkpt>
      <trkpt lat="47.513538" lon="7.725582">
        <ele>288.134796</ele>
        <time>2021-11-09T21:20:09.508Z</time>
      </trkpt>
      <trkpt lat="47.513232" lon="7.725318">
        <ele>287.805961</ele>
        <time>2021-11-09T21:20:13.670Z</time>
      </trkpt>
      <trkpt lat="47.513193" lon="7.725244">
        <ele>287.747099</ele>
        <time>2021-11-09T21:20:14.467Z</time>
      </trkpt>
      <trkpt lat="47.513150" lon="7.725105">
        <ele>287.651221</ele>
        <time>2021-11-09T21:20:15.494Z</time>
      </trkpt>
      <trkpt lat="47.513078" lon="7.724821">
        <ele>287.460986</ele>
        <time>2021-11-09T21:20:19.736Z</time>
      </trkpt>
      <trkpt lat="47.512976" lon="7.724418">
        <ele>287.191094</ele>
        <time>2021-11-09T21:20:23.113Z</time>
      </trkpt>
      <trkpt lat="47.512943" lon="7.724297">
        <ele>287.109260</ele>
        <time>2021-11-09T21:20:24.762Z</time>
      </trkpt>
      <trkpt lat="47.512910" lon="7.724174">
        <ele>287.026409</ele>
        <time>2021-11-09T21:20:25.671Z</time>
      </trkpt>
      <trkpt lat="47.512888" lon="7.724074">
        <ele>286.961941</ele>
        <time>2021-11-09T21:20:26.409Z</time>
      </trkpt>
      <trkpt lat="47.512857" lon="7.723931">
        <ele>286.869881</ele>
        <time>2021-11-09T21:20:27.590Z</time>
      </trkpt>
      <trkpt lat="47.512277" lon="7.724501">
        <ele>286.238092</ele>
        <time>2021-11-09T21:20:38.244Z</time>
      </trkpt>
      <trkpt lat="47.512214" lon="7.724543">
        <ele>286.175387</ele>
        <time>2021-11-09T21:20:40.150Z</time>
      </trkpt>
      <trkpt lat="47.511979" lon="7.724618">
        <ele>285.957213</ele>
        <time>2021-11-09T21:20:44.190Z</time>
      </trkpt>
      <trkpt lat="47.511791" lon="7.724622">
        <ele>285.786576</ele>
        <time>2021-11-09T21:20:47.955Z</time>
      </trkpt>
      <trkpt lat="47.511606" lon="7.724590">
        <ele>285.617537</ele>
        <time>2021-11-09T21:20:51.931Z</time>
      </trkpt>
      <trkpt lat="47.510952" lon="7.724263">
        <ele>285.385748</ele>
        <time>2021-11-09T21:21:07.789Z</time>
      </trkpt>
      <trkpt lat="47.510349" lon="7.724011">
        <ele>285.365304</ele>
        <time>2021-11-09T21:21:19.320Z</time>
      </trkpt>
      <trkpt lat="47.509849" lon="7.723882">
        <ele>285.348744</ele>
        <time>2021-11-09T21:21:28.959Z</time>
      </trkpt>
      <trkpt lat="47.509672" lon="7.723906">
        <ele>285.342945</ele>
        <time>2021-11-09T21:21:32.540Z</time>
      </trkpt>
      <trkpt lat="47.509150" lon="7.724070">
        <ele>285.831496</ele>
        <time>2021-11-09T21:21:41.780Z</time>
      </trkpt>
      <trkpt lat="47.508823" lon="7.724215">
        <ele>286.167219</ele>
        <time>2021-11-09T21:21:48.203Z</time>
      </trkpt>
      <trkpt lat="47.508629" lon="7.724301">
        <ele>286.366389</ele>
        <time>2021-11-09T21:21:51.989Z</time>
      </trkpt>
      <trkpt lat="47.508425" lon="7.724317">
        <ele>286.567306</ele>
        <time>2021-11-09T21:21:57.334Z</time>
      </trkpt>
      <trkpt lat="47.508175" lon="7.724311">
        <ele>286.813215</ele>
        <time>2021-11-09T21:22:03.624Z</time>
      </trkpt>
      <trkpt lat="47.507810" lon="7.724326">
        <ele>287.233764</ele>
        <time>2021-11-09T21:22:13.147Z</time>
      </trkpt>
      <trkpt lat="47.507444" lon="7.724343">
        <ele>287.953196</ele>
        <time>2021-11-09T21:22:22.807Z</time>
      </trkpt>
      <trkpt lat="47.507064" lon="7.724278">
        <ele>288.704746</ele>
        <time>2021-11-09T21:22:33.316Z</time>
      </trkpt>
      <trkpt lat="47.506945" lon="7.724261">
        <ele>288.939631</ele>
        <time>2021-11-09T21:22:36.703Z</time>
      </trkpt>
      <trkpt lat="47.506921" lon="7.724257">
        <ele>288.987081</ele>
        <time>2021-11-09T21:22:37.374Z</time>
      </trkpt>
      <trkpt lat="47.506607" lon="7.724268">
        <ele>289.604168</ele>
        <time>2021-11-09T21:22:46.159Z</time>
      </trkpt>
      <trkpt lat="47.506453" lon="7.724284">
        <ele>289.907475</ele>
        <time>2021-11-09T21:22:50.859Z</time>
      </trkpt>
      <trkpt lat="47.505930" lon="7.724337">
        <ele>290.936014</ele>
        <time>2021-11-09T21:23:06.694Z</time>
      </trkpt>
      <trkpt lat="47.505891" lon="7.724339">
        <ele>291.012316</ele>
        <time>2021-11-09T21:23:07.878Z</time>
      </trkpt>
      <trkpt lat="47.505851" lon="7.724341">
        <ele>291.090573</ele>
        <time>2021-11-09T21:23:09.090Z</time>
      </trkpt>
      <trkpt lat="47.505783" lon="7.724344">
        <ele>291.223592</ele>
        <time>2021-11-09T21:23:11.037Z</time>
      </trkpt>
      <trkpt lat="47.505646" lon="7.724350">
        <ele>291.491585</ele>
        <time>2021-11-09T21:23:15.358Z</time>
      </trkpt>
      <trkpt lat="47.505365" lon="7.724317">
        <ele>292.042750</ele>
        <time>2021-11-09T21:23:23.840Z</time>
      </trkpt>
      <trkpt lat="47.505161" lon="7.724267">
        <ele>292.447061</ele>
        <time>2021-11-09T21:23:29.386Z</time>
      </trkpt>
      <trkpt lat="47.505073" lon="7.724246">
        <ele>292.621349</ele>
        <time>2021-11-09T21:23:31.808Z</time>
      </trkpt>
      <trkpt lat="47.505012" lon="7.724231">
        <ele>292.742256</ele>
        <time>2021-11-09T21:23:33.998Z</time>
      </trkpt>
      <trkpt lat="47.504856" lon="7.724220">
        <ele>293.047629</ele>
        <time>2021-11-09T21:23:38.123Z</time>
      </trkpt>
      <trkpt lat="47.504610" lon="7.724250">
        <ele>293.530262</ele>
        <time>2021-11-09T21:23:45.027Z</time>
      </trkpt>
      <trkpt lat="47.504514" lon="7.724269">
        <ele>293.719640</ele>
        <time>2021-11-09T21:23:47.397Z</time>
      </trkpt>
      <trkpt lat="47.504396" lon="7.724291">
        <ele>293.952188</ele>
        <time>2021-11-09T21:23:50.330Z</time>
      </trkpt>
      <trkpt lat="47.504048" lon="7.724357">
        <ele>294.234485</ele>
        <time>2021-11-09T21:23:59.201Z</time>
      </trkpt>
      <trkpt lat="47.503945" lon="7.724377">
        <ele>294.265611</ele>
        <time>2021-11-09T21:24:01.935Z</time>
      </trkpt>
      <trkpt lat="47.503494" lon="7.724462">
        <ele>294.401838</ele>
        <time>2021-11-09T21:24:12.296Z</time>
      </trkpt>
      <trkpt lat="47.503457" lon="7.724469">
        <ele>294.413015</ele>
        <time>2021-11-09T21:24:12.999Z</time>
      </trkpt>
      <trkpt lat="47.503333" lon="7.724502">
        <ele>294.450765</ele>
        <time>2021-11-09T21:24:15.489Z</time>
      </trkpt>
      <trkpt lat="47.503201" lon="7.724541">
        <ele>294.491097</ele>
        <time>2021-11-09T21:24:18.050Z</time>
      </trkpt>
      <trkpt lat="47.502794" lon="7.724635">
        <ele>294.614524</ele>
        <time>2021-11-09T21:24:25.477Z</time>
      </trkpt>
      <trkpt lat="47.502584" lon="7.724671">
        <ele>294.677868</ele>
        <time>2021-11-09T21:24:29.347Z</time>
      </trkpt>
      <trkpt lat="47.502283" lon="7.724703">
        <ele>294.903467</ele>
        <time>2021-11-09T21:24:35.006Z</time>
      </trkpt>
      <trkpt lat="47.502205" lon="7.724690">
        <ele>294.973787</ele>
        <time>2021-11-09T21:24:36.743Z</time>
      </trkpt>
      <trkpt lat="47.502179" lon="7.724686">
        <ele>294.997206</ele>
        <time>2021-11-09T21:24:37.326Z</time>
      </trkpt>
      <trkpt lat="47.502172" lon="7.724685">
        <ele>295.003506</ele>
        <time>2021-11-09T21:24:37.473Z</time>
      </trkpt>
      <trkpt lat="47.502055" lon="7.724669">
        <ele>295.108771</ele>
        <time>2021-11-09T21:24:40.215Z</time>
      </trkpt>
      <trkpt lat="47.502040" lon="7.724902">
        <ele>295.250428</ele>
        <time>2021-11-09T21:24:43.190Z</time>
      </trkpt>
      <trkpt lat="47.502029" lon="7.725074">
        <ele>295.354992</ele>
        <time>2021-11-09T21:24:45.127Z</time>
      </trkpt>
      <trkpt lat="47.502031" lon="7.725298">
        <ele>295.490575</ele>
        <time>2021-11-09T21:24:47.819Z</time>
      </trkpt>
      <trkpt lat="47.502031" lon="7.725427">
        <ele>295.568650</ele>
        <time>2021-11-09T21:24:49.776Z</time>
      </trkpt>
      <trkpt lat="47.502048" lon="7.725782">
        <ele>295.784044</ele>
        <time>2021-11-09T21:24:54.091Z</time>
      </trkpt>
      <trkpt lat="47.502115" lon="7.726246">
        <ele>296.071213</ele>
        <time>2021-11-09T21:25:01.101Z</time>
      </trkpt>
      <trkpt lat="47.502122" lon="7.726303">
        <ele>296.106276</ele>
        <time>2021-11-09T21:25:01.604Z</time>
      </trkpt>
      <trkpt lat="47.502177" lon="7.726706">
        <ele>296.395414</ele>
        <time>2021-11-09T21:25:07.999Z</time>
      </trkpt>
      <trkpt lat="47.502189" lon="7.726824">
        <ele>296.534746</ele>
        <time>2021-11-09T21:25:09.498Z</time>
      </trkpt>
      <trkpt lat="47.502204" lon="7.726964">
        <ele>296.700256</ele>
        <time>2021-11-09T21:25:12.112Z</time>
      </trkpt>
      <trkpt lat="47.502204" lon="7.726964">
        <ele>296.700256</ele>
        <time>2021-11-09T21:25:12.323Z</time>
      </trkpt>
      <trkpt lat="47.502204" lon="7.726964">
        <ele>296.700256</ele>
        <time>2021-11-09T21:25:12.403Z</time>
      </trkpt>
      <trkpt lat="47.502089" lon="7.726997">
        <ele>296.902720</ele>
        <time>2021-11-09T21:25:14.935Z</time>
      </trkpt>
      <trkpt lat="47.502070" lon="7.727002">
        <ele>296.936074</ele>
        <time>2021-11-09T21:25:15.344Z</time>
      </trkpt>
      <trkpt lat="47.501683" lon="7.727114">
        <ele>297.617620</ele>
        <time>2021-11-09T21:25:24.478Z</time>
      </trkpt>
      <trkpt lat="47.500808" lon="7.727366">
        <ele>299.158308</ele>
        <time>2021-11-09T21:25:45.100Z</time>
      </trkpt>
      <trkpt lat="47.499222" lon="7.727694">
        <ele>300.235042</ele>
        <time>2021-11-09T21:26:11.598Z</time>
      </trkpt>
      <trkpt lat="47.498171" lon="7.727736">
        <ele>300.828014</ele>
        <time>2021-11-09T21:26:28.649Z</time>
      </trkpt>
      <trkpt lat="47.496689" lon="7.727441">
        <ele>301.692430</ele>
        <time>2021-11-09T21:26:55.000Z</time>
      </trkpt>
      <trkpt lat="47.496367" lon="7.727420">
        <ele>301.890284</ele>
        <time>2021-11-09T21:27:00.864Z</time>
      </trkpt>
      <trkpt lat="47.496162" lon="7.727414">
        <ele>302.016150</ele>
        <time>2021-11-09T21:27:04.565Z</time>
      </trkpt>
      <trkpt lat="47.496039" lon="7.727411">
        <ele>302.091665</ele>
        <time>2021-11-09T21:27:06.693Z</time>
      </trkpt>
      <trkpt lat="47.495921" lon="7.727411">
        <ele>302.164100</ele>
        <time>2021-11-09T21:27:08.661Z</time>
      </trkpt>
      <trkpt lat="47.495777" lon="7.727410">
        <ele>302.252496</ele>
        <time>2021-11-09T21:27:11.244Z</time>
      </trkpt>
      <trkpt lat="47.495736" lon="7.727409">
        <ele>302.277668</ele>
        <time>2021-11-09T21:27:11.934Z</time>
      </trkpt>
      <trkpt lat="47.495388" lon="7.727405">
        <ele>302.491297</ele>
        <time>2021-11-09T21:27:17.804Z</time>
      </trkpt>
      <trkpt lat="47.493928" lon="7.727382">
        <ele>303.078525</ele>
        <time>2021-11-09T21:27:40.665Z</time>
      </trkpt>
      <trkpt lat="47.493736" lon="7.727441">
        <ele>303.154402</ele>
        <time>2021-11-09T21:27:43.997Z</time>
      </trkpt>
      <trkpt lat="47.493304" lon="7.727627">
        <ele>303.459256</ele>
        <time>2021-11-09T21:27:51.837Z</time>
      </trkpt>
      <trkpt lat="47.493051" lon="7.727844">
        <ele>303.755054</ele>
        <time>2021-11-09T21:27:57.360Z</time>
      </trkpt>
      <trkpt lat="47.492640" lon="7.728394">
        <ele>304.315560</ele>
        <time>2021-11-09T21:28:07.851Z</time>
      </trkpt>
      <trkpt lat="47.492253" lon="7.728955">
        <ele>304.863540</ele>
        <time>2021-11-09T21:28:18.379Z</time>
      </trkpt>
      <trkpt lat="47.492160" lon="7.729079">
        <ele>304.990164</ele>
        <time>2021-11-09T21:28:20.701Z</time>
      </trkpt>
      <trkpt lat="47.492018" lon="7.729265">
        <ele>305.206349</ele>
        <time>2021-11-09T21:28:24.685Z</time>
      </trkpt>
      <trkpt lat="47.491764" lon="7.729620">
        <ele>305.634585</ele>
        <time>2021-11-09T21:28:31.443Z</time>
      </trkpt>
      <trkpt lat="47.491749" lon="7.729641">
        <ele>305.659895</ele>
        <time>2021-11-09T21:28:32.205Z</time>
      </trkpt>
      <trkpt lat="47.491352" lon="7.730195">
        <ele>306.328737</ele>
        <time>2021-11-09T21:28:42.775Z</time>
      </trkpt>
      <trkpt lat="47.491274" lon="7.730304">
        <ele>306.460234</ele>
        <time>2021-11-09T21:28:45.045Z</time>
      </trkpt>
      <trkpt lat="47.491229" lon="7.730369">
        <ele>306.537311</ele>
        <time>2021-11-09T21:28:46.171Z</time>
      </trkpt>
      <trkpt lat="47.491189" lon="7.730425">
        <ele>306.604804</ele>
        <time>2021-11-09T21:28:47.203Z</time>
      </trkpt>
      <trkpt lat="47.491123" lon="7.730521">
        <ele>306.718237</ele>
        <time>2021-11-09T21:28:48.869Z</time>
      </trkpt>
      <trkpt lat="47.489972" lon="7.732312">
        <ele>309.113120</ele>
        <time>2021-11-09T21:29:22.234Z</time>
      </trkpt>
      <trkpt lat="47.489918" lon="7.732395">
        <ele>309.230764</ele>
        <time>2021-11-09T21:29:24.236Z</time>
      </trkpt>
      <trkpt lat="47.489032" lon="7.734791">
        <ele>312.365025</ele>
        <time>2021-11-09T21:30:05.786Z</time>
      </trkpt>
      <trkpt lat="47.488949" lon="7.734979">
        <ele>312.633342</ele>
        <time>2021-11-09T21:30:09.214Z</time>
      </trkpt>
      <trkpt lat="47.488804" lon="7.735382">
        <ele>313.171355</ele>
        <time>2021-11-09T21:30:15.571Z</time>
      </trkpt>
      <trkpt lat="47.488606" lon="7.735964">
        <ele>313.304633</ele>
        <time>2021-11-09T21:30:24.471Z</time>
      </trkpt>
      <trkpt lat="47.488046" lon="7.737266">
        <ele>313.620316</ele>
        <time>2021-11-09T21:30:40.427Z</time>
      </trkpt>
      <trkpt lat="47.487864" lon="7.737500">
        <ele>313.693294</ele>
        <time>2021-11-09T21:30:43.376Z</time>
      </trkpt>
      <trkpt lat="47.487621" lon="7.737779">
        <ele>313.773388</ele>
        <time>2021-11-09T21:30:47.369Z</time>
      </trkpt>
      <trkpt lat="47.487552" lon="7.737858">
        <ele>313.795036</ele>
        <time>2021-11-09T21:30:48.324Z</time>
      </trkpt>
      <trkpt lat="47.487288" lon="7.738117">
        <ele>313.873633</ele>
        <time>2021-11-09T21:30:52.801Z</time>
      </trkpt>
      <trkpt lat="47.486827" lon="7.738319">
        <ele>313.992934</ele>
        <time>2021-11-09T21:31:00.459Z</time>
      </trkpt>
      <trkpt lat="47.486689" lon="7.738358">
        <ele>314.027797</ele>
        <time>2021-11-09T21:31:03.606Z</time>
      </trkpt>
      <trkpt lat="47.486676" lon="7.738293">
        <ele>314.039163</ele>
        <time>2021-11-09T21:31:04.611Z</time>
      </trkpt>
      <trkpt lat="47.486621" lon="7.738169">
        <ele>314.064035</ele>
        <time>2021-11-09T21:31:05.806Z</time>
      </trkpt>
      <trkpt lat="47.486495" lon="7.737981">
        <ele>314.108435</ele>
        <time>2021-11-09T21:31:09.669Z</time>
      </trkpt>
      <trkpt lat="47.486384" lon="7.737805">
        <ele>314.148803</ele>
        <time>2021-11-09T21:31:12.052Z</time>
      </trkpt>
      <trkpt lat="47.486354" lon="7.737753">
        <ele>314.160268</ele>
        <time>2021-11-09T21:31:12.683Z</time>
      </trkpt>
      <trkpt lat="47.486314" lon="7.737686">
        <ele>314.210720</ele>
        <time>2021-11-09T21:31:14.163Z</time>
      </trkpt>
      <trkpt lat="47.486287" lon="7.737642">
        <ele>314.244723</ele>
        <time>2021-11-09T21:31:15.320Z</time>
      </trkpt>
      <trkpt lat="47.486087" lon="7.737329">
        <ele>314.491168</ele>
        <time>2021-11-09T21:31:20.501Z</time>
      </trkpt>
      <trkpt lat="47.485976" lon="7.737217">
        <ele>314.604908</ele>
        <time>2021-11-09T21:31:23.251Z</time>
      </trkpt>
      <trkpt lat="47.485875" lon="7.737156">
        <ele>314.697263</ele>
        <time>2021-11-09T21:31:25.347Z</time>
      </trkpt>
      <trkpt lat="47.485806" lon="7.737111">
        <ele>314.761100</ele>
        <time>2021-11-09T21:31:26.341Z</time>
      </trkpt>
      <trkpt lat="47.485750" lon="7.737070">
        <ele>314.813995</ele>
        <time>2021-11-09T21:31:27.396Z</time>
      </trkpt>
      <trkpt lat="47.485750" lon="7.737070">
        <ele>314.813995</ele>
        <time>2021-11-09T21:31:27.473Z</time>
      </trkpt>
      <trkpt lat="47.485696" lon="7.737158">
        <ele>314.882000</ele>
        <time>2021-11-09T21:31:28.945Z</time>
      </trkpt>
      <trkpt lat="47.485631" lon="7.737265">
        <ele>314.964315</ele>
        <time>2021-11-09T21:31:30.766Z</time>
      </trkpt>
      <trkpt lat="47.485384" lon="7.737678">
        <ele>315.279842</ele>
        <time>2021-11-09T21:31:38.005Z</time>
      </trkpt>
      <trkpt lat="47.485202" lon="7.737978">
        <ele>315.510493</ele>
        <time>2021-11-09T21:31:42.976Z</time>
      </trkpt>
      <trkpt lat="47.485121" lon="7.738124">
        <ele>315.618565</ele>
        <time>2021-11-09T21:31:45.343Z</time>
      </trkpt>
      <trkpt lat="47.485088" lon="7.738190">
        <ele>315.665537</ele>
        <time>2021-11-09T21:31:46.041Z</time>
      </trkpt>
      <trkpt lat="47.485067" lon="7.738278">
        <ele>315.687349</ele>
        <time>2021-11-09T21:31:47.045Z</time>
      </trkpt>
      <trkpt lat="47.485045" lon="7.738427">
        <ele>315.697277</ele>
        <time>2021-11-09T21:31:48.886Z</time>
      </trkpt>
      <trkpt lat="47.485032" lon="7.738535">
        <ele>315.704417</ele>
        <time>2021-11-09T21:31:50.384Z</time>
      </trkpt>
      <trkpt lat="47.485014" lon="7.738715">
        <ele>315.716261</ele>
        <time>2021-11-09T21:31:52.094Z</time>
      </trkpt>
      <trkpt lat="47.484997" lon="7.738871">
        <ele>315.726547</ele>
        <time>2021-11-09T21:31:53.718Z</time>
      </trkpt>
      <trkpt lat="47.484807" lon="7.739866">
        <ele>315.793851</ele>
        <time>2021-11-09T21:32:03.100Z</time>
      </trkpt>
      <trkpt lat="47.484365" lon="7.740878">
        <ele>315.963756</ele>
        <time>2021-11-09T21:32:15.439Z</time>
      </trkpt>
      <trkpt lat="47.484268" lon="7.741010">
        <ele>316.050206</ele>
        <time>2021-11-09T21:32:17.990Z</time>
      </trkpt>
      <trkpt lat="47.484154" lon="7.741142">
        <ele>316.145166</ele>
        <time>2021-11-09T21:32:20.739Z</time>
      </trkpt>
      <trkpt lat="47.483946" lon="7.741362">
        <ele>316.312890</ele>
        <time>2021-11-09T21:32:25.323Z</time>
      </trkpt>
      <trkpt lat="47.483828" lon="7.741475">
        <ele>316.405096</ele>
        <time>2021-11-09T21:32:27.897Z</time>
      </trkpt>
      <trkpt lat="47.483275" lon="7.742050">
        <ele>316.848479</ele>
        <time>2021-11-09T21:32:39.574Z</time>
      </trkpt>
      <trkpt lat="47.482927" lon="7.742421">
        <ele>317.200386</ele>
        <time>2021-11-09T21:32:47.483Z</time>
      </trkpt>
      <trkpt lat="47.482889" lon="7.742461">
        <ele>317.254088</ele>
        <time>2021-11-09T21:32:48.153Z</time>
      </trkpt>
      <trkpt lat="47.482599" lon="7.742771">
        <ele>317.666066</ele>
        <time>2021-11-09T21:32:54.765Z</time>
      </trkpt>
      <trkpt lat="47.482182" lon="7.743222">
        <ele>318.260860</ele>
        <time>2021-11-09T21:33:04.433Z</time>
      </trkpt>
      <trkpt lat="47.482182" lon="7.743222">
        <ele>318.260860</ele>
        <time>2021-11-09T21:33:04.480Z</time>
      </trkpt>
      <trkpt lat="47.481963" lon="7.742814">
        <ele>318.666348</ele>
        <time>2021-11-09T21:33:11.297Z</time>
      </trkpt>
      <trkpt lat="47.481898" lon="7.742719">
        <ele>318.771557</ele>
        <time>2021-11-09T21:33:13.506Z</time>
      </trkpt>
      <trkpt lat="47.481698" lon="7.742446">
        <ele>319.084898</ele>
        <time>2021-11-09T21:33:18.881Z</time>
      </trkpt>
      <trkpt lat="47.481605" lon="7.742324">
        <ele>319.283183</ele>
        <time>2021-11-09T21:33:22.081Z</time>
      </trkpt>
      <trkpt lat="47.481177" lon="7.741735">
        <ele>320.264867</ele>
        <time>2021-11-09T21:33:34.545Z</time>
      </trkpt>
      <trkpt lat="47.480648" lon="7.741012">
        <ele>321.474362</ele>
        <time>2021-11-09T21:33:50.841Z</time>
      </trkpt>
      <trkpt lat="47.480591" lon="7.740959">
        <ele>321.587429</ele>
        <time>2021-11-09T21:33:52.794Z</time>
      </trkpt>
      <trkpt lat="47.480539" lon="7.740961">
        <ele>321.674794</ele>
        <time>2021-11-09T21:33:53.564Z</time>
      </trkpt>
      <trkpt lat="47.480294" lon="7.741119">
        <ele>322.123664</ele>
        <time>2021-11-09T21:33:59.088Z</time>
      </trkpt>
      <trkpt lat="47.480104" lon="7.741241">
        <ele>322.328183</ele>
        <time>2021-11-09T21:34:03.070Z</time>
      </trkpt>
      <trkpt lat="47.479963" lon="7.741350">
        <ele>322.483690</ele>
        <time>2021-11-09T21:34:06.329Z</time>
      </trkpt>
      <trkpt lat="47.479843" lon="7.741440">
        <ele>322.615201</ele>
        <time>2021-11-09T21:34:08.771Z</time>
      </trkpt>
      <trkpt lat="47.479629" lon="7.741696">
        <ele>322.884205</ele>
        <time>2021-11-09T21:34:14.038Z</time>
      </trkpt>
      <trkpt lat="47.479130" lon="7.742380">
        <ele>323.549136</ele>
        <time>2021-11-09T21:34:25.280Z</time>
      </trkpt>
      <trkpt lat="47.479105" lon="7.742414">
        <ele>323.582328</ele>
        <time>2021-11-09T21:34:25.958Z</time>
      </trkpt>
      <trkpt lat="47.478949" lon="7.742644">
        <ele>323.797603</ele>
        <time>2021-11-09T21:34:29.996Z</time>
      </trkpt>
      <trkpt lat="47.478895" lon="7.742714">
        <ele>323.867782</ele>
        <time>2021-11-09T21:34:31.287Z</time>
      </trkpt>
      <trkpt lat="47.478848" lon="7.742778">
        <ele>323.966160</ele>
        <time>2021-11-09T21:34:32.502Z</time>
      </trkpt>
      <trkpt lat="47.478747" lon="7.742916">
        <ele>324.211733</ele>
        <time>2021-11-09T21:34:35.200Z</time>
      </trkpt>
      <trkpt lat="47.478673" lon="7.743018">
        <ele>324.392390</ele>
        <time>2021-11-09T21:34:37.362Z</time>
      </trkpt>
      <trkpt lat="47.478481" lon="7.743277">
        <ele>324.856499</ele>
        <time>2021-11-09T21:34:42.623Z</time>
      </trkpt>
      <trkpt lat="47.478402" lon="7.743393">
        <ele>325.055311</ele>
        <time>2021-11-09T21:34:45.071Z</time>
      </trkpt>
      <trkpt lat="47.478238" lon="7.743706">
        <ele>325.533446</ele>
        <time>2021-11-09T21:34:50.834Z</time>
      </trkpt>
      <trkpt lat="47.478130" lon="7.743970">
        <ele>325.906008</ele>
        <time>2021-11-09T21:34:55.871Z</time>
      </trkpt>
      <trkpt lat="47.478089" lon="7.744093">
        <ele>326.071583</ele>
        <time>2021-11-09T21:34:57.940Z</time>
      </trkpt>
      <trkpt lat="47.478062" lon="7.744180">
        <ele>326.187161</ele>
        <time>2021-11-09T21:34:59.356Z</time>
      </trkpt>
      <trkpt lat="47.478021" lon="7.744260">
        <ele>326.308372</ele>
        <time>2021-11-09T21:35:01.107Z</time>
      </trkpt>
      <trkpt lat="47.477976" lon="7.744460">
        <ele>326.562860</ele>
        <time>2021-11-09T21:35:04.509Z</time>
      </trkpt>
      <trkpt lat="47.477881" lon="7.744927">
        <ele>327.142689</ele>
        <time>2021-11-09T21:35:12.486Z</time>
      </trkpt>
      <trkpt lat="47.477870" lon="7.744978">
        <ele>327.196181</ele>
        <time>2021-11-09T21:35:13.551Z</time>
      </trkpt>
      <trkpt lat="47.477849" lon="7.745070">
        <ele>327.293210</ele>
        <time>2021-11-09T21:35:15.188Z</time>
      </trkpt>
      <trkpt lat="47.477828" lon="7.745168">
        <ele>327.395937</ele>
        <time>2021-11-09T21:35:16.678Z</time>
      </trkpt>
      <trkpt lat="47.477754" lon="7.745547">
        <ele>327.790126</ele>
        <time>2021-11-09T21:35:23.256Z</time>
      </trkpt>
      <trkpt lat="47.477739" lon="7.745618">
        <ele>327.864456</ele>
        <time>2021-11-09T21:35:24.384Z</time>
      </trkpt>
      <trkpt lat="47.477716" lon="7.745732">
        <ele>327.983334</ele>
        <time>2021-11-09T21:35:25.999Z</time>
      </trkpt>
      <trkpt lat="47.477702" lon="7.745803">
        <ele>328.057236</ele>
        <time>2021-11-09T21:35:27.094Z</time>
      </trkpt>
      <trkpt lat="47.477673" lon="7.745978">
        <ele>328.237279</ele>
        <time>2021-11-09T21:35:29.838Z</time>
      </trkpt>
      <trkpt lat="47.477600" lon="7.746461">
        <ele>328.731822</ele>
        <time>2021-11-09T21:35:36.691Z</time>
      </trkpt>
      <trkpt lat="47.477602" lon="7.746541">
        <ele>328.811815</ele>
        <time>2021-11-09T21:35:38.034Z</time>
      </trkpt>
      <trkpt lat="47.477518" lon="7.746981">
        <ele>329.268675</ele>
        <time>2021-11-09T21:35:43.600Z</time>
      </trkpt>
      <trkpt lat="47.477485" lon="7.747133">
        <ele>329.428200</ele>
        <time>2021-11-09T21:35:45.851Z</time>
      </trkpt>
      <trkpt lat="47.477447" lon="7.747309">
        <ele>329.612819</ele>
        <time>2021-11-09T21:35:47.668Z</time>
      </trkpt>
      <trkpt lat="47.477430" lon="7.747396">
        <ele>329.703312</ele>
        <time>2021-11-09T21:35:48.806Z</time>
      </trkpt>
      <trkpt lat="47.477359" lon="7.747755">
        <ele>329.820334</ele>
        <time>2021-11-09T21:35:53.368Z</time>
      </trkpt>
      <trkpt lat="47.477344" lon="7.747828">
        <ele>329.835079</ele>
        <time>2021-11-09T21:35:54.015Z</time>
      </trkpt>
      <trkpt lat="47.477197" lon="7.748413">
        <ele>329.955692</ele>
        <time>2021-11-09T21:36:00.526Z</time>
      </trkpt>
      <trkpt lat="47.476699" lon="7.749626">
        <ele>330.229967</ele>
        <time>2021-11-09T21:36:14.766Z</time>
      </trkpt>
      <trkpt lat="47.476287" lon="7.750465">
        <ele>330.645170</ele>
        <time>2021-11-09T21:36:26.850Z</time>
      </trkpt>
      <trkpt lat="47.476116" lon="7.750723">
        <ele>330.810337</ele>
        <time>2021-11-09T21:36:31.099Z</time>
      </trkpt>
      <trkpt lat="47.476077" lon="7.750784">
        <ele>330.848717</ele>
        <time>2021-11-09T21:36:32.012Z</time>
      </trkpt>
      <trkpt lat="47.475914" lon="7.750989">
        <ele>330.993394</ele>
        <time>2021-11-09T21:36:36.018Z</time>
      </trkpt>
      <trkpt lat="47.475761" lon="7.751164">
        <ele>331.124178</ele>
        <time>2021-11-09T21:36:39.233Z</time>
      </trkpt>
      <trkpt lat="47.475475" lon="7.751591">
        <ele>331.398957</ele>
        <time>2021-11-09T21:36:46.702Z</time>
      </trkpt>
      <trkpt lat="47.475425" lon="7.751674">
        <ele>331.449777</ele>
        <time>2021-11-09T21:36:48.405Z</time>
      </trkpt>
      <trkpt lat="47.475261" lon="7.751996">
        <ele>331.685919</ele>
        <time>2021-11-09T21:36:53.134Z</time>
      </trkpt>
      <trkpt lat="47.475233" lon="7.752051">
        <ele>331.728674</ele>
        <time>2021-11-09T21:36:54.222Z</time>
      </trkpt>
      <trkpt lat="47.475199" lon="7.752117">
        <ele>331.780202</ele>
        <time>2021-11-09T21:36:55.396Z</time>
      </trkpt>
      <trkpt lat="47.475086" lon="7.752297">
        <ele>331.932744</ele>
        <time>2021-11-09T21:36:58.292Z</time>
      </trkpt>
      <trkpt lat="47.475038" lon="7.752374">
        <ele>331.997786</ele>
        <time>2021-11-09T21:36:59.681Z</time>
      </trkpt>
      <trkpt lat="47.475005" lon="7.752413">
        <ele>332.036587</ele>
        <time>2021-11-09T21:37:00.832Z</time>
      </trkpt>
      <trkpt lat="47.474768" lon="7.752634">
        <ele>332.293951</ele>
        <time>2021-11-09T21:37:06.030Z</time>
      </trkpt>
      <trkpt lat="47.474213" lon="7.752969">
        <ele>332.844616</ele>
        <time>2021-11-09T21:37:16.872Z</time>
      </trkpt>
      <trkpt lat="47.473881" lon="7.753376">
        <ele>333.247598</ele>
        <time>2021-11-09T21:37:24.153Z</time>
      </trkpt>
      <trkpt lat="47.473818" lon="7.753486">
        <ele>333.343353</ele>
        <time>2021-11-09T21:37:25.990Z</time>
      </trkpt>
      <trkpt lat="47.473818" lon="7.753486">
        <ele>333.343353</ele>
        <time>2021-11-09T21:37:26.042Z</time>
      </trkpt>
      <trkpt lat="47.473676" lon="7.753791">
        <ele>333.589318</ele>
        <time>2021-11-09T21:37:30.643Z</time>
      </trkpt>
      <trkpt lat="47.473295" lon="7.754642">
        <ele>334.267242</ele>
        <time>2021-11-09T21:37:44.091Z</time>
      </trkpt>
      <trkpt lat="47.473177" lon="7.754905">
        <ele>334.476891</ele>
        <time>2021-11-09T21:37:48.282Z</time>
      </trkpt>
      <trkpt lat="47.472840" lon="7.755695">
        <ele>335.184327</ele>
        <time>2021-11-09T21:37:59.914Z</time>
      </trkpt>
      <trkpt lat="47.472767" lon="7.755867">
        <ele>335.381556</ele>
        <time>2021-11-09T21:38:02.286Z</time>
      </trkpt>
      <trkpt lat="47.472705" lon="7.756048">
        <ele>335.578610</ele>
        <time>2021-11-09T21:38:04.876Z</time>
      </trkpt>
      <trkpt lat="47.472674" lon="7.756164">
        <ele>335.699744</ele>
        <time>2021-11-09T21:38:06.388Z</time>
      </trkpt>
      <trkpt lat="47.472582" lon="7.756520">
        <ele>336.069868</ele>
        <time>2021-11-09T21:38:11.387Z</time>
      </trkpt>
      <trkpt lat="47.472546" lon="7.756663">
        <ele>336.218057</ele>
        <time>2021-11-09T21:38:13.543Z</time>
      </trkpt>
      <trkpt lat="47.472456" lon="7.757206">
        <ele>336.760998</ele>
        <time>2021-11-09T21:38:21.899Z</time>
      </trkpt>
      <trkpt lat="47.472395" lon="7.757551">
        <ele>337.107308</ele>
        <time>2021-11-09T21:38:27.472Z</time>
      </trkpt>
      <trkpt lat="47.472362" lon="7.757684">
        <ele>337.244894</ele>
        <time>2021-11-09T21:38:29.491Z</time>
      </trkpt>
      <trkpt lat="47.472319" lon="7.757816">
        <ele>337.387192</ele>
        <time>2021-11-09T21:38:31.864Z</time>
      </trkpt>
      <trkpt lat="47.472238" lon="7.757977">
        <ele>337.572963</ele>
        <time>2021-11-09T21:38:34.970Z</time>
      </trkpt>
      <trkpt lat="47.472159" lon="7.758094">
        <ele>337.717068</ele>
        <time>2021-11-09T21:38:37.365Z</time>
      </trkpt>
      <trkpt lat="47.472073" lon="7.758206">
        <ele>337.864770</ele>
        <time>2021-11-09T21:38:39.970Z</time>
      </trkpt>
      <trkpt lat="47.471915" lon="7.758366">
        <ele>338.111601</ele>
        <time>2021-11-09T21:38:43.992Z</time>
      </trkpt>
      <trkpt lat="47.471824" lon="7.758458">
        <ele>338.253689</ele>
        <time>2021-11-09T21:38:46.326Z</time>
      </trkpt>
      <trkpt lat="47.471717" lon="7.758570">
        <ele>338.422661</ele>
        <time>2021-11-09T21:38:48.702Z</time>
      </trkpt>
      <trkpt lat="47.471671" lon="7.758643">
        <ele>338.509627</ele>
        <time>2021-11-09T21:38:50.325Z</time>
      </trkpt>
      <trkpt lat="47.471508" lon="7.759003">
        <ele>338.887203</ele>
        <time>2021-11-09T21:38:55.931Z</time>
      </trkpt>
      <trkpt lat="47.471457" lon="7.759151">
        <ele>339.031962</ele>
        <time>2021-11-09T21:38:58.242Z</time>
      </trkpt>
      <trkpt lat="47.471350" lon="7.759462">
        <ele>339.336052</ele>
        <time>2021-11-09T21:39:02.699Z</time>
      </trkpt>
      <trkpt lat="47.471272" lon="7.759692">
        <ele>339.560284</ele>
        <time>2021-11-09T21:39:06.133Z</time>
      </trkpt>
      <trkpt lat="47.471202" lon="7.759897">
        <ele>339.760420</ele>
        <time>2021-11-09T21:39:08.884Z</time>
      </trkpt>
      <trkpt lat="47.471129" lon="7.760229">
        <ele>339.871842</ele>
        <time>2021-11-09T21:39:13.218Z</time>
      </trkpt>
      <trkpt lat="47.471136" lon="7.760336">
        <ele>339.894071</ele>
        <time>2021-11-09T21:39:14.282Z</time>
      </trkpt>
      <trkpt lat="47.471180" lon="7.760462">
        <ele>339.923396</ele>
        <time>2021-11-09T21:39:15.721Z</time>
      </trkpt>
      <trkpt lat="47.471265" lon="7.760743">
        <ele>339.987055</ele>
        <time>2021-11-09T21:39:19.524Z</time>
      </trkpt>
      <trkpt lat="47.471314" lon="7.760905">
        <ele>340.023754</ele>
        <time>2021-11-09T21:39:21.086Z</time>
      </trkpt>
      <trkpt lat="47.471311" lon="7.760992">
        <ele>340.041767</ele>
        <time>2021-11-09T21:39:21.878Z</time>
      </trkpt>
      <trkpt lat="47.471270" lon="7.761194">
        <ele>340.085379</ele>
        <time>2021-11-09T21:39:24.421Z</time>
      </trkpt>
      <trkpt lat="47.471113" lon="7.761649">
        <ele>340.191014</ele>
        <time>2021-11-09T21:39:29.464Z</time>
      </trkpt>
      <trkpt lat="47.471053" lon="7.761797">
        <ele>340.226700</ele>
        <time>2021-11-09T21:39:30.972Z</time>
      </trkpt>
      <trkpt lat="47.470716" lon="7.762408">
        <ele>340.417289</ele>
        <time>2021-11-09T21:39:39.182Z</time>
      </trkpt>
      <trkpt lat="47.470687" lon="7.762459">
        <ele>340.444767</ele>
        <time>2021-11-09T21:39:40.123Z</time>
      </trkpt>
      <trkpt lat="47.470461" lon="7.763125">
        <ele>340.752013</ele>
        <time>2021-11-09T21:39:48.239Z</time>
      </trkpt>
      <trkpt lat="47.470433" lon="7.763337">
        <ele>340.841073</ele>
        <time>2021-11-09T21:39:51.050Z</time>
      </trkpt>
      <trkpt lat="47.470406" lon="7.763555">
        <ele>340.932450</ele>
        <time>2021-11-09T21:39:54.036Z</time>
      </trkpt>
      <trkpt lat="47.470377" lon="7.763914">
        <ele>341.081517</ele>
        <time>2021-11-09T21:39:59.067Z</time>
      </trkpt>
      <trkpt lat="47.470330" lon="7.764383">
        <ele>341.276998</ele>
        <time>2021-11-09T21:40:05.212Z</time>
      </trkpt>
      <trkpt lat="47.470323" lon="7.764439">
        <ele>341.300478</ele>
        <time>2021-11-09T21:40:06.464Z</time>
      </trkpt>
      <trkpt lat="47.470230" lon="7.765246">
        <ele>341.210085</ele>
        <time>2021-11-09T21:40:14.546Z</time>
      </trkpt>
      <trkpt lat="47.470213" lon="7.765394">
        <ele>341.123914</ele>
        <time>2021-11-09T21:40:15.901Z</time>
      </trkpt>
      <trkpt lat="47.470203" lon="7.765481">
        <ele>341.073258</ele>
        <time>2021-11-09T21:40:17.460Z</time>
      </trkpt>
      <trkpt lat="47.470162" lon="7.765840">
        <ele>340.864266</ele>
        <time>2021-11-09T21:40:20.182Z</time>
      </trkpt>
      <trkpt lat="47.470139" lon="7.766059">
        <ele>340.737049</ele>
        <time>2021-11-09T21:40:22.543Z</time>
      </trkpt>
      <trkpt lat="47.470117" lon="7.766218">
        <ele>340.643888</ele>
        <time>2021-11-09T21:40:23.645Z</time>
      </trkpt>
      <trkpt lat="47.470126" lon="7.766402">
        <ele>340.537993</ele>
        <time>2021-11-09T21:40:25.031Z</time>
      </trkpt>
      <trkpt lat="47.470144" lon="7.766471">
        <ele>340.495539</ele>
        <time>2021-11-09T21:40:25.857Z</time>
      </trkpt>
      <trkpt lat="47.470127" lon="7.766502">
        <ele>340.472626</ele>
        <time>2021-11-09T21:40:26.532Z</time>
      </trkpt>
      <trkpt lat="47.470117" lon="7.766539">
        <ele>340.449752</ele>
        <time>2021-11-09T21:40:26.953Z</time>
      </trkpt>
      <trkpt lat="47.470114" lon="7.766579">
        <ele>340.426651</ele>
        <time>2021-11-09T21:40:27.283Z</time>
      </trkpt>
      <trkpt lat="47.470118" lon="7.766618">
        <ele>340.404008</ele>
        <time>2021-11-09T21:40:27.578Z</time>
      </trkpt>
      <trkpt lat="47.470132" lon="7.766659">
        <ele>340.377641</ele>
        <time>2021-11-09T21:40:27.859Z</time>
      </trkpt>
      <trkpt lat="47.470153" lon="7.766693">
        <ele>340.351205</ele>
        <time>2021-11-09T21:40:28.190Z</time>
      </trkpt>
      <trkpt lat="47.470181" lon="7.766714">
        <ele>340.324547</ele>
        <time>2021-11-09T21:40:28.558Z</time>
      </trkpt>
      <trkpt lat="47.470212" lon="7.766722">
        <ele>340.297825</ele>
        <time>2021-11-09T21:40:28.918Z</time>
      </trkpt>
      <trkpt lat="47.470242" lon="7.766716">
        <ele>340.272119</ele>
        <time>2021-11-09T21:40:29.276Z</time>
      </trkpt>
      <trkpt lat="47.470289" lon="7.766725">
        <ele>340.231875</ele>
        <time>2021-11-09T21:40:29.780Z</time>
      </trkpt>
      <trkpt lat="47.470360" lon="7.766755">
        <ele>340.169173</ele>
        <time>2021-11-09T21:40:31.154Z</time>
      </trkpt>
      <trkpt lat="47.470452" lon="7.766777">
        <ele>340.090036</ele>
        <time>2021-11-09T21:40:32.262Z</time>
      </trkpt>
      <trkpt lat="47.470478" lon="7.766796">
        <ele>340.065411</ele>
        <time>2021-11-09T21:40:32.522Z</time>
      </trkpt>
      <trkpt lat="47.470652" lon="7.766915">
        <ele>339.920245</ele>
        <time>2021-11-09T21:40:34.837Z</time>
      </trkpt>
      <trkpt lat="47.471145" lon="7.767252">
        <ele>339.737775</ele>
        <time>2021-11-09T21:40:41.437Z</time>
      </trkpt>
      <trkpt lat="47.470979" lon="7.768192">
        <ele>339.517120</ele>
        <time>2021-11-09T21:40:53.270Z</time>
      </trkpt>
      <trkpt lat="47.470868" lon="7.769055">
        <ele>339.366348</ele>
        <time>2021-11-09T21:41:06.410Z</time>
      </trkpt>
      <trkpt lat="47.470854" lon="7.769162">
        <ele>339.464069</ele>
        <time>2021-11-09T21:41:08.662Z</time>
      </trkpt>
      <trkpt lat="47.470712" lon="7.770050">
        <ele>340.282258</ele>
        <time>2021-11-09T21:41:24.884Z</time>
      </trkpt>
      <trkpt lat="47.470499" lon="7.771171">
        <ele>341.326346</ele>
        <time>2021-11-09T21:41:45.998Z</time>
      </trkpt>
      <trkpt lat="47.470261" lon="7.772145">
        <ele>342.140281</ele>
        <time>2021-11-09T21:42:03.254Z</time>
      </trkpt>
      <trkpt lat="47.470122" lon="7.772830">
        <ele>342.645775</ele>
        <time>2021-11-09T21:42:14.614Z</time>
      </trkpt>
      <trkpt lat="47.470120" lon="7.772872">
        <ele>342.675534</ele>
        <time>2021-11-09T21:42:15.525Z</time>
      </trkpt>
      <trkpt lat="47.470034" lon="7.774910">
        <ele>344.522133</ele>
        <time>2021-11-09T21:42:48.729Z</time>
      </trkpt>
      <trkpt lat="47.470028" lon="7.775062">
        <ele>344.712449</ele>
        <time>2021-11-09T21:42:51.790Z</time>
      </trkpt>
      <trkpt lat="47.469958" lon="7.776819">
        <ele>346.912424</ele>
        <time>2021-11-09T21:43:26.026Z</time>
      </trkpt>
      <trkpt lat="47.469866" lon="7.778066">
        <ele>348.728118</ele>
        <time>2021-11-09T21:43:51.791Z</time>
      </trkpt>
      <trkpt lat="47.469631" lon="7.779469">
        <ele>350.796571</ele>
        <time>2021-11-09T21:44:19.527Z</time>
      </trkpt>
      <trkpt lat="47.469352" lon="7.781141">
        <ele>351.987083</ele>
        <time>2021-11-09T21:44:48.550Z</time>
      </trkpt>
      <trkpt lat="47.469211" lon="7.782028">
        <ele>352.611987</ele>
        <time>2021-11-09T21:45:02.707Z</time>
      </trkpt>
      <trkpt lat="47.468831" lon="7.784400">
        <ele>352.181570</ele>
        <time>2021-11-09T21:45:35.361Z</time>
      </trkpt>
      <trkpt lat="47.468800" lon="7.784631">
        <ele>352.126161</ele>
        <time>2021-11-09T21:45:38.088Z</time>
      </trkpt>
      <trkpt lat="47.469176" lon="7.784763">
        <ele>351.590934</ele>
        <time>2021-11-09T21:45:42.450Z</time>
      </trkpt>
      <trkpt lat="47.469364" lon="7.784822">
        <ele>351.324757</ele>
        <time>2021-11-09T21:45:44.582Z</time>
      </trkpt>
      <trkpt lat="47.469637" lon="7.784915">
        <ele>350.936753</ele>
        <time>2021-11-09T21:45:47.750Z</time>
      </trkpt>
      <trkpt lat="47.469901" lon="7.785007">
        <ele>350.561102</ele>
        <time>2021-11-09T21:45:50.924Z</time>
      </trkpt>
      <trkpt lat="47.470008" lon="7.785038">
        <ele>350.410090</ele>
        <time>2021-11-09T21:45:52.120Z</time>
      </trkpt>
      <trkpt lat="47.470007" lon="7.785071">
        <ele>350.379164</ele>
        <time>2021-11-09T21:45:52.367Z</time>
      </trkpt>
      <trkpt lat="47.470028" lon="7.785128">
        <ele>350.318387</ele>
        <time>2021-11-09T21:45:52.910Z</time>
      </trkpt>
      <trkpt lat="47.470053" lon="7.785149">
        <ele>350.278569</ele>
        <time>2021-11-09T21:45:53.254Z</time>
      </trkpt>
      <trkpt lat="47.470075" lon="7.785152">
        <ele>350.247970</ele>
        <time>2021-11-09T21:45:53.510Z</time>
      </trkpt>
      <trkpt lat="47.470127" lon="7.785098">
        <ele>350.159976</ele>
        <time>2021-11-09T21:45:54.299Z</time>
      </trkpt>
      <trkpt lat="47.470132" lon="7.785075">
        <ele>350.137356</ele>
        <time>2021-11-09T21:45:54.478Z</time>
      </trkpt>
      <trkpt lat="47.470634" lon="7.785245">
        <ele>349.672289</ele>
        <time>2021-11-09T21:46:00.290Z</time>
      </trkpt>
      <trkpt lat="47.470959" lon="7.785356">
        <ele>349.713285</ele>
        <time>2021-11-09T21:46:04.351Z</time>
      </trkpt>
      <trkpt lat="47.471127" lon="7.785436">
        <ele>349.734977</ele>
        <time>2021-11-09T21:46:06.758Z</time>
      </trkpt>
      <trkpt lat="47.471125" lon="7.785472">
        <ele>349.737978</ele>
        <time>2021-11-09T21:46:07.178Z</time>
      </trkpt>
      <trkpt lat="47.471152" lon="7.785543">
        <ele>349.744747</ele>
        <time>2021-11-09T21:46:07.924Z</time>
      </trkpt>
      <trkpt lat="47.471176" lon="7.785560">
        <ele>349.748017</ele>
        <time>2021-11-09T21:46:08.318Z</time>
      </trkpt>
      <trkpt lat="47.470848" lon="7.787192">
        <ele>350.063456</ele>
        <time>2021-11-09T21:46:29.685Z</time>
      </trkpt>
      <trkpt lat="47.470802" lon="7.787415">
        <ele>350.289025</ele>
        <time>2021-11-09T21:46:32.910Z</time>
      </trkpt>
      <trkpt lat="47.470785" lon="7.787490">
        <ele>350.365556</ele>
        <time>2021-11-09T21:46:34.152Z</time>
      </trkpt>
      <trkpt lat="47.470698" lon="7.788038">
        <ele>350.910158</ele>
        <time>2021-11-09T21:46:41.911Z</time>
      </trkpt>
      <trkpt lat="47.470614" lon="7.788952">
        <ele>351.802566</ele>
        <time>2021-11-09T21:46:55.073Z</time>
      </trkpt>
      <trkpt lat="47.470591" lon="7.791493">
        <ele>354.044971</ele>
        <time>2021-11-09T21:47:30.879Z</time>
      </trkpt>
      <trkpt lat="47.470596" lon="7.792776">
        <ele>354.856388</ele>
        <time>2021-11-09T21:47:46.557Z</time>
      </trkpt>
      <trkpt lat="47.470587" lon="7.794273">
        <ele>355.282683</ele>
        <time>2021-11-09T21:48:02.981Z</time>
      </trkpt>
      <trkpt lat="47.470724" lon="7.794809">
        <ele>355.445858</ele>
        <time>2021-11-09T21:48:08.971Z</time>
      </trkpt>
      <trkpt lat="47.470854" lon="7.795152">
        <ele>355.502553</ele>
        <time>2021-11-09T21:48:13.079Z</time>
      </trkpt>
      <trkpt lat="47.470898" lon="7.795257">
        <ele>355.514918</ele>
        <time>2021-11-09T21:48:14.355Z</time>
      </trkpt>
      <trkpt lat="47.471005" lon="7.795723">
        <ele>355.564178</ele>
        <time>2021-11-09T21:48:19.468Z</time>
      </trkpt>
      <trkpt lat="47.471026" lon="7.796272">
        <ele>355.619217</ele>
        <time>2021-11-09T21:48:25.101Z</time>
      </trkpt>
      <trkpt lat="47.470815" lon="7.797463">
        <ele>355.754629</ele>
        <time>2021-11-09T21:48:37.877Z</time>
      </trkpt>
      <trkpt lat="47.470622" lon="7.797969">
        <ele>356.013192</ele>
        <time>2021-11-09T21:48:44.101Z</time>
      </trkpt>
      <trkpt lat="47.470580" lon="7.798119">
        <ele>356.085447</ele>
        <time>2021-11-09T21:48:45.889Z</time>
      </trkpt>
      <trkpt lat="47.470528" lon="7.798467">
        <ele>356.244058</ele>
        <time>2021-11-09T21:48:49.913Z</time>
      </trkpt>
      <trkpt lat="47.470510" lon="7.798553">
        <ele>356.284124</ele>
        <time>2021-11-09T21:48:50.919Z</time>
      </trkpt>
      <trkpt lat="47.470269" lon="7.799995">
        <ele>356.967446</ele>
        <time>2021-11-09T21:49:09.465Z</time>
      </trkpt>
      <trkpt lat="47.470137" lon="7.800744">
        <ele>357.658753</ele>
        <time>2021-11-09T21:49:19.483Z</time>
      </trkpt>
      <trkpt lat="47.470139" lon="7.800862">
        <ele>357.764175</ele>
        <time>2021-11-09T21:49:21.041Z</time>
      </trkpt>
      <trkpt lat="47.470163" lon="7.801003">
        <ele>357.894036</ele>
        <time>2021-11-09T21:49:23.255Z</time>
      </trkpt>
      <trkpt lat="47.470106" lon="7.801105">
        <ele>358.012233</ele>
        <time>2021-11-09T21:49:24.953Z</time>
      </trkpt>
      <trkpt lat="47.470064" lon="7.801244">
        <ele>358.148214</ele>
        <time>2021-11-09T21:49:27.016Z</time>
      </trkpt>
      <trkpt lat="47.470035" lon="7.801408">
        <ele>358.299615</ele>
        <time>2021-11-09T21:49:29.409Z</time>
      </trkpt>
      <trkpt lat="47.469938" lon="7.801967">
        <ele>358.815058</ele>
        <time>2021-11-09T21:49:37.563Z</time>
      </trkpt>
      <trkpt lat="47.469839" lon="7.802540">
        <ele>359.354552</ele>
        <time>2021-11-09T21:49:45.978Z</time>
      </trkpt>
      <trkpt lat="47.469821" lon="7.802641">
        <ele>359.471893</ele>
        <time>2021-11-09T21:49:47.353Z</time>
      </trkpt>
      <trkpt lat="47.469280" lon="7.805635">
        <ele>362.829755</ele>
        <time>2021-11-09T21:50:32.624Z</time>
      </trkpt>
      <trkpt lat="47.469217" lon="7.805935">
        <ele>363.116990</ele>
        <time>2021-11-09T21:50:36.995Z</time>
      </trkpt>
      <trkpt lat="47.469092" lon="7.806596">
        <ele>363.744577</ele>
        <time>2021-11-09T21:50:46.200Z</time>
      </trkpt>
      <trkpt lat="47.469033" lon="7.806891">
        <ele>364.025867</ele>
        <time>2021-11-09T21:50:50.266Z</time>
      </trkpt>
      <trkpt lat="47.468960" lon="7.807202">
        <ele>364.326885</ele>
        <time>2021-11-09T21:50:54.683Z</time>
      </trkpt>
      <trkpt lat="47.468675" lon="7.808217">
        <ele>365.132840</ele>
        <time>2021-11-09T21:51:09.286Z</time>
      </trkpt>
      <trkpt lat="47.468629" lon="7.808388">
        <ele>365.246252</ele>
        <time>2021-11-09T21:51:11.526Z</time>
      </trkpt>
      <trkpt lat="47.468609" lon="7.808505">
        <ele>365.320620</ele>
        <time>2021-11-09T21:51:12.614Z</time>
      </trkpt>
      <trkpt lat="47.468582" lon="7.808672">
        <ele>365.426432</ele>
        <time>2021-11-09T21:51:14.560Z</time>
      </trkpt>
      <trkpt lat="47.468575" lon="7.808774">
        <ele>365.489611</ele>
        <time>2021-11-09T21:51:16.679Z</time>
      </trkpt>
      <trkpt lat="47.468567" lon="7.808880">
        <ele>365.555337</ele>
        <time>2021-11-09T21:51:17.648Z</time>
      </trkpt>
      <trkpt lat="47.468560" lon="7.809002">
        <ele>365.630787</ele>
        <time>2021-11-09T21:51:18.786Z</time>
      </trkpt>
      <trkpt lat="47.468554" lon="7.809191">
        <ele>365.747382</ele>
        <time>2021-11-09T21:51:20.891Z</time>
      </trkpt>
      <trkpt lat="47.468553" lon="7.809321">
        <ele>365.827497</ele>
        <time>2021-11-09T21:51:23.437Z</time>
      </trkpt>
      <trkpt lat="47.468548" lon="7.810180">
        <ele>366.356857</ele>
        <time>2021-11-09T21:51:32.947Z</time>
      </trkpt>
      <trkpt lat="47.468474" lon="7.810467">
        <ele>366.549866</ele>
        <time>2021-11-09T21:51:37.354Z</time>
      </trkpt>
      <trkpt lat="47.468357" lon="7.810692">
        <ele>366.728314</ele>
        <time>2021-11-09T21:51:40.464Z</time>
      </trkpt>
      <trkpt lat="47.468313" lon="7.810744">
        <ele>366.780685</ele>
        <time>2021-11-09T21:51:42.120Z</time>
      </trkpt>
      <trkpt lat="47.468136" lon="7.810955">
        <ele>366.992077</ele>
        <time>2021-11-09T21:51:46.007Z</time>
      </trkpt>
      <trkpt lat="47.468125" lon="7.810968">
        <ele>367.005170</ele>
        <time>2021-11-09T21:51:46.220Z</time>
      </trkpt>
      <trkpt lat="47.468045" lon="7.811064">
        <ele>367.100965</ele>
        <time>2021-11-09T21:51:48.387Z</time>
      </trkpt>
      <trkpt lat="47.467664" lon="7.811512">
        <ele>367.553565</ele>
        <time>2021-11-09T21:51:57.132Z</time>
      </trkpt>
      <trkpt lat="47.467534" lon="7.811668">
        <ele>367.709232</ele>
        <time>2021-11-09T21:52:00.108Z</time>
      </trkpt>
      <trkpt lat="47.467360" lon="7.811849">
        <ele>367.907042</ele>
        <time>2021-11-09T21:52:04.067Z</time>
      </trkpt>
      <trkpt lat="47.467121" lon="7.812080">
        <ele>368.200809</ele>
        <time>2021-11-09T21:52:09.635Z</time>
      </trkpt>
      <trkpt lat="47.467084" lon="7.812119">
        <ele>368.251667</ele>
        <time>2021-11-09T21:52:10.516Z</time>
      </trkpt>
      <trkpt lat="47.467062" lon="7.812145">
        <ele>368.283189</ele>
        <time>2021-11-09T21:52:11.028Z</time>
      </trkpt>
      <trkpt lat="47.467013" lon="7.812269">
        <ele>368.391883</ele>
        <time>2021-11-09T21:52:13.032Z</time>
      </trkpt>
      <trkpt lat="47.467077" lon="7.812317">
        <ele>368.472209</ele>
        <time>2021-11-09T21:52:14.501Z</time>
      </trkpt>
      <trkpt lat="47.467146" lon="7.812375">
        <ele>368.561049</ele>
        <time>2021-11-09T21:52:16.035Z</time>
      </trkpt>
      <trkpt lat="47.466979" lon="7.812866">
        <ele>368.976993</ele>
        <time>2021-11-09T21:52:23.024Z</time>
      </trkpt>
      <trkpt lat="47.466915" lon="7.813076">
        <ele>369.151314</ele>
        <time>2021-11-09T21:52:26.057Z</time>
      </trkpt>
      <trkpt lat="47.466730" lon="7.813590">
        <ele>369.591982</ele>
        <time>2021-11-09T21:52:33.469Z</time>
      </trkpt>
      <trkpt lat="47.466661" lon="7.813746">
        <ele>369.733060</ele>
        <time>2021-11-09T21:52:35.801Z</time>
      </trkpt>
      <trkpt lat="47.466640" lon="7.813785">
        <ele>369.770792</ele>
        <time>2021-11-09T21:52:36.492Z</time>
      </trkpt>
      <trkpt lat="47.466531" lon="7.813985">
        <ele>369.965203</ele>
        <time>2021-11-09T21:52:39.867Z</time>
      </trkpt>
      <trkpt lat="47.466272" lon="7.814382">
        <ele>370.396910</ele>
        <time>2021-11-09T21:52:47.510Z</time>
      </trkpt>
      <trkpt lat="47.466179" lon="7.814494">
        <ele>370.536834</ele>
        <time>2021-11-09T21:52:49.978Z</time>
      </trkpt>
      <trkpt lat="47.466052" lon="7.814635">
        <ele>370.722108</ele>
        <time>2021-11-09T21:52:53.406Z</time>
      </trkpt>
      <trkpt lat="47.465476" lon="7.815350">
        <ele>371.599451</ele>
        <time>2021-11-09T21:53:08.595Z</time>
      </trkpt>
      <trkpt lat="47.465411" lon="7.815405">
        <ele>371.686823</ele>
        <time>2021-11-09T21:53:10.003Z</time>
      </trkpt>
      <trkpt lat="47.465155" lon="7.815522">
        <ele>371.999448</ele>
        <time>2021-11-09T21:53:14.481Z</time>
      </trkpt>
      <trkpt lat="47.465032" lon="7.815580">
        <ele>372.149826</ele>
        <time>2021-11-09T21:53:16.746Z</time>
      </trkpt>
      <trkpt lat="47.464917" lon="7.815658">
        <ele>372.288699</ele>
        <time>2021-11-09T21:53:18.816Z</time>
      </trkpt>
      <trkpt lat="47.464761" lon="7.815835">
        <ele>372.504515</ele>
        <time>2021-11-09T21:53:22.080Z</time>
      </trkpt>
      <trkpt lat="47.464717" lon="7.815901">
        <ele>372.573301</ele>
        <time>2021-11-09T21:53:23.367Z</time>
      </trkpt>
      <trkpt lat="47.464393" lon="7.816382">
        <ele>373.077187</ele>
        <time>2021-11-09T21:53:32.322Z</time>
      </trkpt>
      <trkpt lat="47.464280" lon="7.816543">
        <ele>373.249410</ele>
        <time>2021-11-09T21:53:35.368Z</time>
      </trkpt>
      <trkpt lat="47.464209" lon="7.816621">
        <ele>373.346491</ele>
        <time>2021-11-09T21:53:37.439Z</time>
      </trkpt>
      <trkpt lat="47.464112" lon="7.816530">
        <ele>373.472577</ele>
        <time>2021-11-09T21:53:40.259Z</time>
      </trkpt>
      <trkpt lat="47.463967" lon="7.816383">
        <ele>373.665539</ele>
        <time>2021-11-09T21:53:43.212Z</time>
      </trkpt>
      <trkpt lat="47.463919" lon="7.816337">
        <ele>373.728320</ele>
        <time>2021-11-09T21:53:44.511Z</time>
      </trkpt>
      <trkpt lat="47.463805" lon="7.816235">
        <ele>373.874570</ele>
        <time>2021-11-09T21:53:47.550Z</time>
      </trkpt>
      <trkpt lat="47.463672" lon="7.816122">
        <ele>374.042934</ele>
        <time>2021-11-09T21:53:49.899Z</time>
      </trkpt>
      <trkpt lat="47.463339" lon="7.815878">
        <ele>374.463047</ele>
        <time>2021-11-09T21:53:58.957Z</time>
      </trkpt>
      <trkpt lat="47.463250" lon="7.815816">
        <ele>374.575015</ele>
        <time>2021-11-09T21:54:01.536Z</time>
      </trkpt>
      <trkpt lat="47.463109" lon="7.815699">
        <ele>374.759023</ele>
        <time>2021-11-09T21:54:05.662Z</time>
      </trkpt>
      <trkpt lat="47.462938" lon="7.815588">
        <ele>374.971565</ele>
        <time>2021-11-09T21:54:09.913Z</time>
      </trkpt>
      <trkpt lat="47.462859" lon="7.815548">
        <ele>375.066602</ele>
        <time>2021-11-09T21:54:12.420Z</time>
      </trkpt>
      <trkpt lat="47.462785" lon="7.815763">
        <ele>375.252244</ele>
        <time>2021-11-09T21:54:14.975Z</time>
      </trkpt>
      <trkpt lat="47.462434" lon="7.816598">
        <ele>376.008827</ele>
        <time>2021-11-09T21:54:29.019Z</time>
      </trkpt>
      <trkpt lat="47.462262" lon="7.817447">
        <ele>376.524445</ele>
        <time>2021-11-09T21:54:39.869Z</time>
      </trkpt>
      <trkpt lat="47.462122" lon="7.818441">
        <ele>377.057420</ele>
        <time>2021-11-09T21:54:51.380Z</time>
      </trkpt>
      <trkpt lat="47.462012" lon="7.818948">
        <ele>377.336925</ele>
        <time>2021-11-09T21:54:57.842Z</time>
      </trkpt>
      <trkpt lat="47.461960" lon="7.819120">
        <ele>377.435828</ele>
        <time>2021-11-09T21:54:59.915Z</time>
      </trkpt>
      <trkpt lat="47.461912" lon="7.819188">
        <ele>377.487432</ele>
        <time>2021-11-09T21:55:00.983Z</time>
      </trkpt>
      <trkpt lat="47.461803" lon="7.819336">
        <ele>377.611152</ele>
        <time>2021-11-09T21:55:04.085Z</time>
      </trkpt>
      <trkpt lat="47.461833" lon="7.819386">
        <ele>377.654307</ele>
        <time>2021-11-09T21:55:04.786Z</time>
      </trkpt>
      <trkpt lat="47.461832" lon="7.819582">
        <ele>377.780840</ele>
        <time>2021-11-09T21:55:06.993Z</time>
      </trkpt>
      <trkpt lat="47.461818" lon="7.819635">
        <ele>377.817573</ele>
        <time>2021-11-09T21:55:07.600Z</time>
      </trkpt>
      <trkpt lat="47.461810" lon="7.819668">
        <ele>377.840204</ele>
        <time>2021-11-09T21:55:08.213Z</time>
      </trkpt>
      <trkpt lat="47.461754" lon="7.819910">
        <ele>378.005326</ele>
        <time>2021-11-09T21:55:11.783Z</time>
      </trkpt>
      <trkpt lat="47.461722" lon="7.820179">
        <ele>378.181648</ele>
        <time>2021-11-09T21:55:15.013Z</time>
      </trkpt>
      <trkpt lat="47.461730" lon="7.820282">
        <ele>378.248578</ele>
        <time>2021-11-09T21:55:16.663Z</time>
      </trkpt>
      <trkpt lat="47.461748" lon="7.820387">
        <ele>378.318506</ele>
        <time>2021-11-09T21:55:18.152Z</time>
      </trkpt>
      <trkpt lat="47.461867" lon="7.821095">
        <ele>378.789471</ele>
        <time>2021-11-09T21:55:27.273Z</time>
      </trkpt>
      <trkpt lat="47.461966" lon="7.821681">
        <ele>379.179397</ele>
        <time>2021-11-09T21:55:34.814Z</time>
      </trkpt>
      <trkpt lat="47.461985" lon="7.821867">
        <ele>379.292482</ele>
        <time>2021-11-09T21:55:37.590Z</time>
      </trkpt>
      <trkpt lat="47.461990" lon="7.821930">
        <ele>379.315938</ele>
        <time>2021-11-09T21:55:38.550Z</time>
      </trkpt>
      <trkpt lat="47.462122" lon="7.824085">
        <ele>380.116068</ele>
        <time>2021-11-09T21:56:03.213Z</time>
      </trkpt>
      <trkpt lat="47.462104" lon="7.824385">
        <ele>380.227436</ele>
        <time>2021-11-09T21:56:06.359Z</time>
      </trkpt>
      <trkpt lat="47.462075" lon="7.824560">
        <ele>380.294683</ele>
        <time>2021-11-09T21:56:08.247Z</time>
      </trkpt>
      <trkpt lat="47.462041" lon="7.824554">
        <ele>380.313810</ele>
        <time>2021-11-09T21:56:08.835Z</time>
      </trkpt>
      <trkpt lat="47.461981" lon="7.824592">
        <ele>380.350271</ele>
        <time>2021-11-09T21:56:09.819Z</time>
      </trkpt>
      <trkpt lat="47.461961" lon="7.824632">
        <ele>380.369061</ele>
        <time>2021-11-09T21:56:10.454Z</time>
      </trkpt>
      <trkpt lat="47.461951" lon="7.824677">
        <ele>380.386951</ele>
        <time>2021-11-09T21:56:10.841Z</time>
      </trkpt>
      <trkpt lat="47.461983" lon="7.824803">
        <ele>380.437785</ele>
        <time>2021-11-09T21:56:12.450Z</time>
      </trkpt>
      <trkpt lat="47.462009" lon="7.824828">
        <ele>380.455108</ele>
        <time>2021-11-09T21:56:12.885Z</time>
      </trkpt>
      <trkpt lat="47.462048" lon="7.824839">
        <ele>380.477287</ele>
        <time>2021-11-09T21:56:13.465Z</time>
      </trkpt>
      <trkpt lat="47.462087" lon="7.824826">
        <ele>380.499620</ele>
        <time>2021-11-09T21:56:14.158Z</time>
      </trkpt>
      <trkpt lat="47.462119" lon="7.824792">
        <ele>380.521630</ele>
        <time>2021-11-09T21:56:14.801Z</time>
      </trkpt>
      <trkpt lat="47.462172" lon="7.824876">
        <ele>380.565024</ele>
        <time>2021-11-09T21:56:16.098Z</time>
      </trkpt>
      <trkpt lat="47.462220" lon="7.824965">
        <ele>380.608021</ele>
        <time>2021-11-09T21:56:17.252Z</time>
      </trkpt>
      <trkpt lat="47.462266" lon="7.825058">
        <ele>380.651541</ele>
        <time>2021-11-09T21:56:18.641Z</time>
      </trkpt>
      <trkpt lat="47.462323" lon="7.825177">
        <ele>380.706621</ele>
        <time>2021-11-09T21:56:20.294Z</time>
      </trkpt>
      <trkpt lat="47.462301" lon="7.825212">
        <ele>380.724670</ele>
        <time>2021-11-09T21:56:20.828Z</time>
      </trkpt>
      <trkpt lat="47.462295" lon="7.825350">
        <ele>380.776897</ele>
        <time>2021-11-09T21:56:22.445Z</time>
      </trkpt>
      <trkpt lat="47.462312" lon="7.825390">
        <ele>380.794740</ele>
        <time>2021-11-09T21:56:22.870Z</time>
      </trkpt>
      <trkpt lat="47.462244" lon="7.825463">
        <ele>380.841678</ele>
        <time>2021-11-09T21:56:24.497Z</time>
      </trkpt>
      <trkpt lat="47.462057" lon="7.825761">
        <ele>380.995233</ele>
        <time>2021-11-09T21:56:29.085Z</time>
      </trkpt>
      <trkpt lat="47.461963" lon="7.826038">
        <ele>381.112288</ele>
        <time>2021-11-09T21:56:32.896Z</time>
      </trkpt>
      <trkpt lat="47.461900" lon="7.826316">
        <ele>381.223023</ele>
        <time>2021-11-09T21:56:36.386Z</time>
      </trkpt>
      <trkpt lat="47.461850" lon="7.826816">
        <ele>381.665077</ele>
        <time>2021-11-09T21:56:42.223Z</time>
      </trkpt>
      <trkpt lat="47.461804" lon="7.827389">
        <ele>382.262824</ele>
        <time>2021-11-09T21:56:50.324Z</time>
      </trkpt>
      <trkpt lat="47.461536" lon="7.829345">
        <ele>384.304177</ele>
        <time>2021-11-09T21:57:20.350Z</time>
      </trkpt>
      <trkpt lat="47.461525" lon="7.829524">
        <ele>384.474422</ele>
        <time>2021-11-09T21:57:23.418Z</time>
      </trkpt>
      <trkpt lat="47.461539" lon="7.829782">
        <ele>384.719581</ele>
        <time>2021-11-09T21:57:26.833Z</time>
      </trkpt>
      <trkpt lat="47.461548" lon="7.829918">
        <ele>384.849014</ele>
        <time>2021-11-09T21:57:28.789Z</time>
      </trkpt>
      <trkpt lat="47.461585" lon="7.830158">
        <ele>385.082173</ele>
        <time>2021-11-09T21:57:32.470Z</time>
      </trkpt>
      <trkpt lat="47.461787" lon="7.831158">
        <ele>386.070728</ele>
        <time>2021-11-09T21:57:46.363Z</time>
      </trkpt>
      <trkpt lat="47.461918" lon="7.831668">
        <ele>386.572690</ele>
        <time>2021-11-09T21:57:53.388Z</time>
      </trkpt>
      <trkpt lat="47.462048" lon="7.832204">
        <ele>386.921563</ele>
        <time>2021-11-09T21:58:00.425Z</time>
      </trkpt>
      <trkpt lat="47.462080" lon="7.832335">
        <ele>387.006899</ele>
        <time>2021-11-09T21:58:02.054Z</time>
      </trkpt>
      <trkpt lat="47.462179" lon="7.832744">
        <ele>387.273049</ele>
        <time>2021-11-09T21:58:07.254Z</time>
      </trkpt>
      <trkpt lat="47.462217" lon="7.832953">
        <ele>387.405642</ele>
        <time>2021-11-09T21:58:10.098Z</time>
      </trkpt>
      <trkpt lat="47.462285" lon="7.833721">
        <ele>387.880175</ele>
        <time>2021-11-09T21:58:19.605Z</time>
      </trkpt>
      <trkpt lat="47.462296" lon="7.833933">
        <ele>388.010439</ele>
        <time>2021-11-09T21:58:22.553Z</time>
      </trkpt>
      <trkpt lat="47.462317" lon="7.834216">
        <ele>388.184873</ele>
        <time>2021-11-09T21:58:26.063Z</time>
      </trkpt>
      <trkpt lat="47.462357" lon="7.834782">
        <ele>388.534012</ele>
        <time>2021-11-09T21:58:32.825Z</time>
      </trkpt>
      <trkpt lat="47.462375" lon="7.834910">
        <ele>388.614222</ele>
        <time>2021-11-09T21:58:34.609Z</time>
      </trkpt>
      <trkpt lat="47.462388" lon="7.834991">
        <ele>388.665298</ele>
        <time>2021-11-09T21:58:35.639Z</time>
      </trkpt>
      <trkpt lat="47.462586" lon="7.835900">
        <ele>389.251208</ele>
        <time>2021-11-09T21:58:46.787Z</time>
      </trkpt>
      <trkpt lat="47.462666" lon="7.836201">
        <ele>389.449632</ele>
        <time>2021-11-09T21:58:50.898Z</time>
      </trkpt>
      <trkpt lat="47.462700" lon="7.836337">
        <ele>389.538591</ele>
        <time>2021-11-09T21:58:52.771Z</time>
      </trkpt>
      <trkpt lat="47.462730" lon="7.836472">
        <ele>389.625773</ele>
        <time>2021-11-09T21:58:54.493Z</time>
      </trkpt>
      <trkpt lat="47.462748" lon="7.836556">
        <ele>389.679835</ele>
        <time>2021-11-09T21:58:55.381Z</time>
      </trkpt>
      <trkpt lat="47.462851" lon="7.837404">
        <ele>390.316699</ele>
        <time>2021-11-09T21:59:07.993Z</time>
      </trkpt>
      <trkpt lat="47.462856" lon="7.837506">
        <ele>390.396396</ele>
        <time>2021-11-09T21:59:09.884Z</time>
      </trkpt>
      <trkpt lat="47.462865" lon="7.837711">
        <ele>390.556487</ele>
        <time>2021-11-09T21:59:12.293Z</time>
      </trkpt>
      <trkpt lat="47.462869" lon="7.837866">
        <ele>390.677365</ele>
        <time>2021-11-09T21:59:14.249Z</time>
      </trkpt>
      <trkpt lat="47.462871" lon="7.837954">
        <ele>390.745981</ele>
        <time>2021-11-09T21:59:15.778Z</time>
      </trkpt>
      <trkpt lat="47.462873" lon="7.838016">
        <ele>390.794352</ele>
        <time>2021-11-09T21:59:16.820Z</time>
      </trkpt>
      <trkpt lat="47.462883" lon="7.838488">
        <ele>391.162357</ele>
        <time>2021-11-09T21:59:22.954Z</time>
      </trkpt>
      <trkpt lat="47.462936" lon="7.838934">
        <ele>391.515249</ele>
        <time>2021-11-09T21:59:28.296Z</time>
      </trkpt>
      <trkpt lat="47.462967" lon="7.839047">
        <ele>391.610282</ele>
        <time>2021-11-09T21:59:29.994Z</time>
      </trkpt>
      <trkpt lat="47.462982" lon="7.839106">
        <ele>391.659404</ele>
        <time>2021-11-09T21:59:30.932Z</time>
      </trkpt>
      <trkpt lat="47.463043" lon="7.839292">
        <ele>391.820506</ele>
        <time>2021-11-09T21:59:32.749Z</time>
      </trkpt>
      <trkpt lat="47.463133" lon="7.839561">
        <ele>391.895919</ele>
        <time>2021-11-09T21:59:36.655Z</time>
      </trkpt>
      <trkpt lat="47.463287" lon="7.840028">
        <ele>391.930823</ele>
        <time>2021-11-09T21:59:42.690Z</time>
      </trkpt>
      <trkpt lat="47.463588" lon="7.840904">
        <ele>391.996833</ele>
        <time>2021-11-09T21:59:53.984Z</time>
      </trkpt>
      <trkpt lat="47.463616" lon="7.840992">
        <ele>392.003367</ele>
        <time>2021-11-09T21:59:55.063Z</time>
      </trkpt>
      <trkpt lat="47.463685" lon="7.841203">
        <ele>392.019112</ele>
        <time>2021-11-09T21:59:57.006Z</time>
      </trkpt>
      <trkpt lat="47.463874" lon="7.841863">
        <ele>392.040159</ele>
        <time>2021-11-09T22:00:03.294Z</time>
      </trkpt>
      <trkpt lat="47.463922" lon="7.842123">
        <ele>391.993469</ele>
        <time>2021-11-09T22:00:05.278Z</time>
      </trkpt>
      <trkpt lat="47.463971" lon="7.842355">
        <ele>391.951363</ele>
        <time>2021-11-09T22:00:07.841Z</time>
      </trkpt>
      <trkpt lat="47.464053" lon="7.842690">
        <ele>391.889642</ele>
        <time>2021-11-09T22:00:10.642Z</time>
      </trkpt>
      <trkpt lat="47.464075" lon="7.842774">
        <ele>391.874037</ele>
        <time>2021-11-09T22:00:11.840Z</time>
      </trkpt>
      <trkpt lat="47.464165" lon="7.843130">
        <ele>391.808194</ele>
        <time>2021-11-09T22:00:14.965Z</time>
      </trkpt>
      <trkpt lat="47.464176" lon="7.843178">
        <ele>391.799414</ele>
        <time>2021-11-09T22:00:15.450Z</time>
      </trkpt>
      <trkpt lat="47.464234" lon="7.843434">
        <ele>391.752642</ele>
        <time>2021-11-09T22:00:18.514Z</time>
      </trkpt>
      <trkpt lat="47.464354" lon="7.843960">
        <ele>391.656473</ele>
        <time>2021-11-09T22:00:24.530Z</time>
      </trkpt>
      <trkpt lat="47.464386" lon="7.844088">
        <ele>391.632831</ele>
        <time>2021-11-09T22:00:25.873Z</time>
      </trkpt>
      <trkpt lat="47.464433" lon="7.844273">
        <ele>391.599450</ele>
        <time>2021-11-09T22:00:28.357Z</time>
      </trkpt>
      <trkpt lat="47.464585" lon="7.844988">
        <ele>392.022048</ele>
        <time>2021-11-09T22:00:36.870Z</time>
      </trkpt>
      <trkpt lat="47.464737" lon="7.846119">
        <ele>392.672214</ele>
        <time>2021-11-09T22:00:50.978Z</time>
      </trkpt>
      <trkpt lat="47.464771" lon="7.847028">
        <ele>393.233619</ele>
        <time>2021-11-09T22:01:03.089Z</time>
      </trkpt>
      <trkpt lat="47.464784" lon="7.847333">
        <ele>393.501599</ele>
        <time>2021-11-09T22:01:07.068Z</time>
      </trkpt>
      <trkpt lat="47.464820" lon="7.847644">
        <ele>393.778278</ele>
        <time>2021-11-09T22:01:11.339Z</time>
      </trkpt>
      <trkpt lat="47.464850" lon="7.847870">
        <ele>393.980237</ele>
        <time>2021-11-09T22:01:14.256Z</time>
      </trkpt>
      <trkpt lat="47.464909" lon="7.848219">
        <ele>394.295691</ele>
        <time>2021-11-09T22:01:19.322Z</time>
      </trkpt>
      <trkpt lat="47.464909" lon="7.848219">
        <ele>394.295691</ele>
        <time>2021-11-09T22:01:19.347Z</time>
      </trkpt>
      <trkpt lat="47.464909" lon="7.848219">
        <ele>394.295691</ele>
        <time>2021-11-09T22:01:19.371Z</time>
      </trkpt>
      <trkpt lat="47.464952" lon="7.848443">
        <ele>394.499877</ele>
        <time>2021-11-09T22:01:22.560Z</time>
      </trkpt>
      <trkpt lat="47.465152" lon="7.849351">
        <ele>395.337277</ele>
        <time>2021-11-09T22:01:35.818Z</time>
      </trkpt>
      <trkpt lat="47.465348" lon="7.849875">
        <ele>395.954662</ele>
        <time>2021-11-09T22:01:43.941Z</time>
      </trkpt>
      <trkpt lat="47.465558" lon="7.850405">
        <ele>396.608778</ele>
        <time>2021-11-09T22:01:52.192Z</time>
      </trkpt>
      <trkpt lat="47.465620" lon="7.850585">
        <ele>396.823881</ele>
        <time>2021-11-09T22:01:54.991Z</time>
      </trkpt>
      <trkpt lat="47.465714" lon="7.850917">
        <ele>397.207136</ele>
        <time>2021-11-09T22:01:59.478Z</time>
      </trkpt>
      <trkpt lat="47.465829" lon="7.851383">
        <ele>397.735345</ele>
        <time>2021-11-09T22:02:06.740Z</time>
      </trkpt>
      <trkpt lat="47.465804" lon="7.851399">
        <ele>397.778248</ele>
        <time>2021-11-09T22:02:07.440Z</time>
      </trkpt>
      <trkpt lat="47.465765" lon="7.851501">
        <ele>397.903022</ele>
        <time>2021-11-09T22:02:09.635Z</time>
      </trkpt>
      <trkpt lat="47.465770" lon="7.851542">
        <ele>397.947382</ele>
        <time>2021-11-09T22:02:10.345Z</time>
      </trkpt>
      <trkpt lat="47.465781" lon="7.851575">
        <ele>397.986558</ele>
        <time>2021-11-09T22:02:10.907Z</time>
      </trkpt>
      <trkpt lat="47.465821" lon="7.851619">
        <ele>398.065070</ele>
        <time>2021-11-09T22:02:11.946Z</time>
      </trkpt>
      <trkpt lat="47.465846" lon="7.851625">
        <ele>398.104961</ele>
        <time>2021-11-09T22:02:12.478Z</time>
      </trkpt>
      <trkpt lat="47.465871" lon="7.851620">
        <ele>398.144695</ele>
        <time>2021-11-09T22:02:12.981Z</time>
      </trkpt>
      <trkpt lat="47.465896" lon="7.851603">
        <ele>398.188032</ele>
        <time>2021-11-09T22:02:13.495Z</time>
      </trkpt>
      <trkpt lat="47.465931" lon="7.851497">
        <ele>398.358430</ele>
        <time>2021-11-09T22:02:15.495Z</time>
      </trkpt>
      <trkpt lat="47.465925" lon="7.851458">
        <ele>398.440054</ele>
        <time>2021-11-09T22:02:16.196Z</time>
      </trkpt>
      <trkpt lat="47.466015" lon="7.851377">
        <ele>398.758075</ele>
        <time>2021-11-09T22:02:19.135Z</time>
      </trkpt>
      <trkpt lat="47.466390" lon="7.851107">
        <ele>400.017072</ele>
        <time>2021-11-09T22:02:29.185Z</time>
      </trkpt>
      <trkpt lat="47.466513" lon="7.851046">
        <ele>400.408687</ele>
        <time>2021-11-09T22:02:31.977Z</time>
      </trkpt>
      <trkpt lat="47.466576" lon="7.851019">
        <ele>400.606688</ele>
        <time>2021-11-09T22:02:33.740Z</time>
      </trkpt>
      <trkpt lat="47.466767" lon="7.850952">
        <ele>401.199254</ele>
        <time>2021-11-09T22:02:38.822Z</time>
      </trkpt>
      <trkpt lat="47.466831" lon="7.850929">
        <ele>401.398073</ele>
        <time>2021-11-09T22:02:40.234Z</time>
      </trkpt>
      <trkpt lat="47.467007" lon="7.850894">
        <ele>401.934148</ele>
        <time>2021-11-09T22:02:45.277Z</time>
      </trkpt>
      <trkpt lat="47.468532" lon="7.850782">
        <ele>407.733961</ele>
        <time>2021-11-09T22:03:32.906Z</time>
      </trkpt>
      <trkpt lat="47.468646" lon="7.850779">
        <ele>408.221986</ele>
        <time>2021-11-09T22:03:35.440Z</time>
      </trkpt>
      <trkpt lat="47.468794" lon="7.850777">
        <ele>408.855488</ele>
        <time>2021-11-09T22:03:42.191Z</time>
      </trkpt>
      <trkpt lat="47.468807" lon="7.850777">
        <ele>408.911132</ele>
        <time>2021-11-09T22:03:42.305Z</time>
      </trkpt>
      <trkpt lat="47.468931" lon="7.850775">
        <ele>409.441913</ele>
        <time>2021-11-09T22:03:47.645Z</time>
      </trkpt>
      <trkpt lat="47.469115" lon="7.850772">
        <ele>410.229526</ele>
        <time>2021-11-09T22:03:54.163Z</time>
      </trkpt>
      <trkpt lat="47.469315" lon="7.850771">
        <ele>411.085580</ele>
        <time>2021-11-09T22:04:01.046Z</time>
      </trkpt>
      <trkpt lat="47.469352" lon="7.850770">
        <ele>411.243975</ele>
        <time>2021-11-09T22:04:01.371Z</time>
      </trkpt>
      <trkpt lat="47.469464" lon="7.850775">
        <ele>411.756947</ele>
        <time>2021-11-09T22:04:07.022Z</time>
      </trkpt>
      <trkpt lat="47.469555" lon="7.850782">
        <ele>412.186344</ele>
        <time>2021-11-09T22:04:09.461Z</time>
      </trkpt>
      <trkpt lat="47.469772" lon="7.850804">
        <ele>413.211308</ele>
        <time>2021-11-09T22:04:18.440Z</time>
      </trkpt>
      <trkpt lat="47.470145" lon="7.850841">
        <ele>414.972935</ele>
        <time>2021-11-09T22:04:33.461Z</time>
      </trkpt>
      <trkpt lat="47.470421" lon="7.850868">
        <ele>416.276365</ele>
        <time>2021-11-09T22:04:43.675Z</time>
      </trkpt>
      <trkpt lat="47.470525" lon="7.850877">
        <ele>416.767280</ele>
        <time>2021-11-09T22:04:47.916Z</time>
      </trkpt>
      <trkpt lat="47.471325" lon="7.850935">
        <ele>420.497206</ele>
        <time>2021-11-09T22:05:19.773Z</time>
      </trkpt>
      <trkpt lat="47.471670" lon="7.851035">
        <ele>422.044484</ele>
        <time>2021-11-09T22:05:32.913Z</time>
      </trkpt>
      <trkpt lat="47.471898" lon="7.851131">
        <ele>423.087805</ele>
        <time>2021-11-09T22:05:43.088Z</time>
      </trkpt>
      <trkpt lat="47.472010" lon="7.851173">
        <ele>423.596328</ele>
        <time>2021-11-09T22:05:47.029Z</time>
      </trkpt>
      <trkpt lat="47.472075" lon="7.851198">
        <ele>423.891914</ele>
        <time>2021-11-09T22:05:49.708Z</time>
      </trkpt>
      <trkpt lat="47.472223" lon="7.851237">
        <ele>424.553542</ele>
        <time>2021-11-09T22:05:55.618Z</time>
      </trkpt>
      <trkpt lat="47.472594" lon="7.851279">
        <ele>426.191155</ele>
        <time>2021-11-09T22:06:09.071Z</time>
      </trkpt>
      <trkpt lat="47.473090" lon="7.851217">
        <ele>428.338853</ele>
        <time>2021-11-09T22:06:26.423Z</time>
      </trkpt>
      <trkpt lat="47.473132" lon="7.851211">
        <ele>428.511166</ele>
        <time>2021-11-09T22:06:28.180Z</time>
      </trkpt>
      <trkpt lat="47.473275" lon="7.851189">
        <ele>429.098283</ele>
        <time>2021-11-09T22:06:34.071Z</time>
      </trkpt>
      <trkpt lat="47.473706" lon="7.851184">
        <ele>430.858411</ele>
        <time>2021-11-09T22:06:48.655Z</time>
      </trkpt>
      <trkpt lat="47.474073" lon="7.851261">
        <ele>432.372123</ele>
        <time>2021-11-09T22:07:01.271Z</time>
      </trkpt>
      <trkpt lat="47.474489" lon="7.851469">
        <ele>434.165336</ele>
        <time>2021-11-09T22:07:17.292Z</time>
      </trkpt>
      <trkpt lat="47.475005" lon="7.851847">
        <ele>436.994034</ele>
        <time>2021-11-09T22:07:40.883Z</time>
      </trkpt>
      <trkpt lat="47.475474" lon="7.852041">
        <ele>439.667319</ele>
        <time>2021-11-09T22:08:01.534Z</time>
      </trkpt>
      <trkpt lat="47.475712" lon="7.852137">
        <ele>441.021493</ele>
        <time>2021-11-09T22:08:12.883Z</time>
      </trkpt>
      <trkpt lat="47.476000" lon="7.852252">
        <ele>442.659023</ele>
        <time>2021-11-09T22:08:25.877Z</time>
      </trkpt>
      <trkpt lat="47.476190" lon="7.852326">
        <ele>443.737552</ele>
        <time>2021-11-09T22:08:33.878Z</time>
      </trkpt>
      <trkpt lat="47.476289" lon="7.852358">
        <ele>444.293826</ele>
        <time>2021-11-09T22:08:38.946Z</time>
      </trkpt>
      <trkpt lat="47.476520" lon="7.852417">
        <ele>445.439122</ele>
        <time>2021-11-09T22:08:47.980Z</time>
      </trkpt>
      <trkpt lat="47.476682" lon="7.852438">
        <ele>446.112891</ele>
        <time>2021-11-09T22:08:55.537Z</time>
      </trkpt>
      <trkpt lat="47.476792" lon="7.852449">
        <ele>446.569683</ele>
        <time>2021-11-09T22:08:59.759Z</time>
      </trkpt>
      <trkpt lat="47.476984" lon="7.852449">
        <ele>447.365178</ele>
        <time>2021-11-09T22:09:07.878Z</time>
      </trkpt>
      <trkpt lat="47.479117" lon="7.852270">
        <ele>456.158498</ele>
        <time>2021-11-09T22:10:20.818Z</time>
      </trkpt>
      <trkpt lat="47.479244" lon="7.852259">
        <ele>456.677410</ele>
        <time>2021-11-09T22:10:24.804Z</time>
      </trkpt>
      <trkpt lat="47.479485" lon="7.852237">
        <ele>457.662305</ele>
        <time>2021-11-09T22:10:35.128Z</time>
      </trkpt>
      <trkpt lat="47.480217" lon="7.852063">
        <ele>460.630343</ele>
        <time>2021-11-09T22:11:04.458Z</time>
      </trkpt>
      <trkpt lat="47.480646" lon="7.851849">
        <ele>462.361247</ele>
        <time>2021-11-09T22:11:21.149Z</time>
      </trkpt>
      <trkpt lat="47.480750" lon="7.851790">
        <ele>462.787096</ele>
        <time>2021-11-09T22:11:26.028Z</time>
      </trkpt>
      <trkpt lat="47.480852" lon="7.851729">
        <ele>463.207722</ele>
        <time>2021-11-09T22:11:30.515Z</time>
      </trkpt>
      <trkpt lat="47.481334" lon="7.851437">
        <ele>465.199033</ele>
        <time>2021-11-09T22:11:46.857Z</time>
      </trkpt>
      <trkpt lat="47.481608" lon="7.851297">
        <ele>466.307320</ele>
        <time>2021-11-09T22:11:55.360Z</time>
      </trkpt>
      <trkpt lat="47.481766" lon="7.851223">
        <ele>466.882571</ele>
        <time>2021-11-09T22:12:01.661Z</time>
      </trkpt>
      <trkpt lat="47.482358" lon="7.850933">
        <ele>468.754938</ele>
        <time>2021-11-09T22:12:22.356Z</time>
      </trkpt>
      <trkpt lat="47.482608" lon="7.850799">
        <ele>469.553297</ele>
        <time>2021-11-09T22:12:29.588Z</time>
      </trkpt>
      <trkpt lat="47.482665" lon="7.850768">
        <ele>469.735634</ele>
        <time>2021-11-09T22:12:31.764Z</time>
      </trkpt>
      <trkpt lat="47.482738" lon="7.850728">
        <ele>469.969364</ele>
        <time>2021-11-09T22:12:33.166Z</time>
      </trkpt>
      <trkpt lat="47.482794" lon="7.850696">
        <ele>470.149607</ele>
        <time>2021-11-09T22:12:34.930Z</time>
      </trkpt>
      <trkpt lat="47.482807" lon="7.850688">
        <ele>470.191881</ele>
        <time>2021-11-09T22:12:36.204Z</time>
      </trkpt>
      <trkpt lat="47.482915" lon="7.850629">
        <ele>470.537546</ele>
        <time>2021-11-09T22:12:37.679Z</time>
      </trkpt>
      <trkpt lat="47.483011" lon="7.850573">
        <ele>470.847378</ele>
        <time>2021-11-09T22:12:41.720Z</time>
      </trkpt>
      <trkpt lat="47.483128" lon="7.850517">
        <ele>471.216593</ele>
        <time>2021-11-09T22:12:45.787Z</time>
      </trkpt>
      <trkpt lat="47.484041" lon="7.850377">
        <ele>473.934528</ele>
        <time>2021-11-09T22:13:10.198Z</time>
      </trkpt>
      <trkpt lat="47.484352" lon="7.850459">
        <ele>474.864058</ele>
        <time>2021-11-09T22:13:19.076Z</time>
      </trkpt>
      <trkpt lat="47.484518" lon="7.850556">
        <ele>475.389218</ele>
        <time>2021-11-09T22:13:26.076Z</time>
      </trkpt>
      <trkpt lat="47.484548" lon="7.850572">
        <ele>475.483051</ele>
        <time>2021-11-09T22:13:27.404Z</time>
      </trkpt>
      <trkpt lat="47.484631" lon="7.850586">
        <ele>475.728860</ele>
        <time>2021-11-09T22:13:29.519Z</time>
      </trkpt>
      <trkpt lat="47.484736" lon="7.850560">
        <ele>476.042118</ele>
        <time>2021-11-09T22:13:30.901Z</time>
      </trkpt>
      <trkpt lat="47.484922" lon="7.850473">
        <ele>476.616113</ele>
        <time>2021-11-09T22:13:36.714Z</time>
      </trkpt>
      <trkpt lat="47.485140" lon="7.850236">
        <ele>477.387593</ele>
        <time>2021-11-09T22:13:41.917Z</time>
      </trkpt>
      <trkpt lat="47.485302" lon="7.850164">
        <ele>477.641893</ele>
        <time>2021-11-09T22:13:45.380Z</time>
      </trkpt>
      <trkpt lat="47.485423" lon="7.850124">
        <ele>477.828288</ele>
        <time>2021-11-09T22:13:47.089Z</time>
      </trkpt>
      <trkpt lat="47.485547" lon="7.850079">
        <ele>478.020234</ele>
        <time>2021-11-09T22:13:50.798Z</time>
      </trkpt>
      <trkpt lat="47.485834" lon="7.849993">
        <ele>478.460469</ele>
        <time>2021-11-09T22:13:55.730Z</time>
      </trkpt>
      <trkpt lat="47.485932" lon="7.849984">
        <ele>478.608086</ele>
        <time>2021-11-09T22:13:58.655Z</time>
      </trkpt>
      <trkpt lat="47.485987" lon="7.849975">
        <ele>478.691277</ele>
        <time>2021-11-09T22:13:59.853Z</time>
      </trkpt>
      <trkpt lat="47.486083" lon="7.849946">
        <ele>478.838580</ele>
        <time>2021-11-09T22:14:00.913Z</time>
      </trkpt>
      <trkpt lat="47.486240" lon="7.849728">
        <ele>479.162253</ele>
        <time>2021-11-09T22:14:05.166Z</time>
      </trkpt>
      <trkpt lat="47.486279" lon="7.849670">
        <ele>479.245379</ele>
        <time>2021-11-09T22:14:06.246Z</time>
      </trkpt>
      <trkpt lat="47.486303" lon="7.849650">
        <ele>479.286789</ele>
        <time>2021-11-09T22:14:06.872Z</time>
      </trkpt>
      <trkpt lat="47.486469" lon="7.849589">
        <ele>479.543933</ele>
        <time>2021-11-09T22:14:09.468Z</time>
      </trkpt>
      <trkpt lat="47.486773" lon="7.849704">
        <ele>480.015665</ele>
        <time>2021-11-09T22:14:16.142Z</time>
      </trkpt>
      <trkpt lat="47.486894" lon="7.849739">
        <ele>480.539324</ele>
        <time>2021-11-09T22:14:19.386Z</time>
      </trkpt>
      <trkpt lat="47.487073" lon="7.849767">
        <ele>481.488427</ele>
        <time>2021-11-09T22:14:23.842Z</time>
      </trkpt>
      <trkpt lat="47.487219" lon="7.849782">
        <ele>482.260120</ele>
        <time>2021-11-09T22:14:27.451Z</time>
      </trkpt>
      <trkpt lat="47.487361" lon="7.849792">
        <ele>483.009716</ele>
        <time>2021-11-09T22:14:31.777Z</time>
      </trkpt>
      <trkpt lat="47.488402" lon="7.849885">
        <ele>488.508772</ele>
        <time>2021-11-09T22:15:15.080Z</time>
      </trkpt>
      <trkpt lat="47.488639" lon="7.849855">
        <ele>489.866971</ele>
        <time>2021-11-09T22:15:23.564Z</time>
      </trkpt>
      <trkpt lat="47.488939" lon="7.849720">
        <ele>492.327756</ele>
        <time>2021-11-09T22:15:37.477Z</time>
      </trkpt>
      <trkpt lat="47.488993" lon="7.849683">
        <ele>492.794757</ele>
        <time>2021-11-09T22:15:40.654Z</time>
      </trkpt>
      <trkpt lat="47.489046" lon="7.849642">
        <ele>493.264091</ele>
        <time>2021-11-09T22:15:44.737Z</time>
      </trkpt>
      <trkpt lat="47.489366" lon="7.849261">
        <ele>496.487259</ele>
        <time>2021-11-09T22:16:02.115Z</time>
      </trkpt>
      <trkpt lat="47.489636" lon="7.849127">
        <ele>498.722147</ele>
        <time>2021-11-09T22:16:14.038Z</time>
      </trkpt>
      <trkpt lat="47.489714" lon="7.849112">
        <ele>499.339423</ele>
        <time>2021-11-09T22:16:19.500Z</time>
      </trkpt>
      <trkpt lat="47.489830" lon="7.849115">
        <ele>500.249909</ele>
        <time>2021-11-09T22:16:23.984Z</time>
      </trkpt>
      <trkpt lat="47.490088" lon="7.849193">
        <ele>502.316462</ele>
        <time>2021-11-09T22:16:38.519Z</time>
      </trkpt>
      <trkpt lat="47.490465" lon="7.849456">
        <ele>506.196574</ele>
        <time>2021-11-09T22:16:59.579Z</time>
      </trkpt>
      <trkpt lat="47.490655" lon="7.849589">
        <ele>508.368961</ele>
        <time>2021-11-09T22:17:07.562Z</time>
      </trkpt>
      <trkpt lat="47.490721" lon="7.849614">
        <ele>509.073110</ele>
        <time>2021-11-09T22:17:11.887Z</time>
      </trkpt>
      <trkpt lat="47.490767" lon="7.849632">
        <ele>509.564892</ele>
        <time>2021-11-09T22:17:14.064Z</time>
      </trkpt>
      <trkpt lat="47.491187" lon="7.849815">
        <ele>514.090131</ele>
        <time>2021-11-09T22:17:39.957Z</time>
      </trkpt>
      <trkpt lat="47.492141" lon="7.850226">
        <ele>524.617407</ele>
        <time>2021-11-09T22:18:37.897Z</time>
      </trkpt>
      <trkpt lat="47.492293" lon="7.850293">
        <ele>526.457422</ele>
        <time>2021-11-09T22:18:50.579Z</time>
      </trkpt>
      <trkpt lat="47.492414" lon="7.850375">
        <ele>528.001404</ele>
        <time>2021-11-09T22:18:59.640Z</time>
      </trkpt>
      <trkpt lat="47.492541" lon="7.850563">
        <ele>530.085371</ele>
        <time>2021-11-09T22:19:11.095Z</time>
      </trkpt>
      <trkpt lat="47.492601" lon="7.850751">
        <ele>531.715251</ele>
        <time>2021-11-09T22:19:21.085Z</time>
      </trkpt>
      <trkpt lat="47.492659" lon="7.851591">
        <ele>538.334393</ele>
        <time>2021-11-09T22:19:54.921Z</time>
      </trkpt>
      <trkpt lat="47.492688" lon="7.851670">
        <ele>539.039174</ele>
        <time>2021-11-09T22:20:00.069Z</time>
      </trkpt>
      <trkpt lat="47.492804" lon="7.851886">
        <ele>541.202100</ele>
        <time>2021-11-09T22:20:09.807Z</time>
      </trkpt>
      <trkpt lat="47.492920" lon="7.852087">
        <ele>543.239719</ele>
        <time>2021-11-09T22:20:21.466Z</time>
      </trkpt>
      <trkpt lat="47.493033" lon="7.852285">
        <ele>544.806906</ele>
        <time>2021-11-09T22:20:30.082Z</time>
      </trkpt>
      <trkpt lat="47.493043" lon="7.852307">
        <ele>544.967236</ele>
        <time>2021-11-09T22:20:31.478Z</time>
      </trkpt>
      <trkpt lat="47.493734" lon="7.854034">
        <ele>557.103560</ele>
        <time>2021-11-09T22:21:36.683Z</time>
      </trkpt>
      <trkpt lat="47.494057" lon="7.854507">
        <ele>560.573160</ele>
        <time>2021-11-09T22:22:01.153Z</time>
      </trkpt>
      <trkpt lat="47.494198" lon="7.854677">
        <ele>561.702701</ele>
        <time>2021-11-09T22:22:08.575Z</time>
      </trkpt>
      <trkpt lat="47.494366" lon="7.854877">
        <ele>563.041794</ele>
        <time>2021-11-09T22:22:20.996Z</time>
      </trkpt>
      <trkpt lat="47.494791" lon="7.855375">
        <ele>566.408557</ele>
        <time>2021-11-09T22:22:40.688Z</time>
      </trkpt>
      <trkpt lat="47.494903" lon="7.855508">
        <ele>567.300406</ele>
        <time>2021-11-09T22:22:48.718Z</time>
      </trkpt>
      <trkpt lat="47.495162" lon="7.855728">
        <ele>569.155129</ele>
        <time>2021-11-09T22:22:56.431Z</time>
      </trkpt>
      <trkpt lat="47.495219" lon="7.855764">
        <ele>569.540036</ele>
        <time>2021-11-09T22:23:01.058Z</time>
      </trkpt>
      <trkpt lat="47.495339" lon="7.855822">
        <ele>570.324080</ele>
        <time>2021-11-09T22:23:03.879Z</time>
      </trkpt>
      <trkpt lat="47.495626" lon="7.855911">
        <ele>569.550038</ele>
        <time>2021-11-09T22:23:12.311Z</time>
      </trkpt>
      <trkpt lat="47.495682" lon="7.855928">
        <ele>569.379916</ele>
        <time>2021-11-09T22:23:12.976Z</time>
      </trkpt>
      <trkpt lat="47.495742" lon="7.855769">
        <ele>569.013734</ele>
        <time>2021-11-09T22:23:14.730Z</time>
      </trkpt>
      <trkpt lat="47.495962" lon="7.855400">
        <ele>568.024232</ele>
        <time>2021-11-09T22:23:20.684Z</time>
      </trkpt>
      <trkpt lat="47.496291" lon="7.855054">
        <ele>566.823154</ele>
        <time>2021-11-09T22:23:26.451Z</time>
      </trkpt>
      <trkpt lat="47.497386" lon="7.854753">
        <ele>561.466114</ele>
        <time>2021-11-09T22:23:40.385Z</time>
      </trkpt>
      <trkpt lat="47.497996" lon="7.854842">
        <ele>557.205553</ele>
        <time>2021-11-09T22:23:48.290Z</time>
      </trkpt>
      <trkpt lat="47.498034" lon="7.854847">
        <ele>556.940380</ele>
        <time>2021-11-09T22:23:48.725Z</time>
      </trkpt>
      <trkpt lat="47.498061" lon="7.854851">
        <ele>556.751769</ele>
        <time>2021-11-09T22:23:49.086Z</time>
      </trkpt>
      <trkpt lat="47.498499" lon="7.854914">
        <ele>553.692962</ele>
        <time>2021-11-09T22:23:54.848Z</time>
      </trkpt>
      <trkpt lat="47.498600" lon="7.854805">
        <ele>552.824134</ele>
        <time>2021-11-09T22:23:56.561Z</time>
      </trkpt>
      <trkpt lat="47.498844" lon="7.854653">
        <ele>551.793405</ele>
        <time>2021-11-09T22:24:00.043Z</time>
      </trkpt>
      <trkpt lat="47.498934" lon="7.854576">
        <ele>551.447664</ele>
        <time>2021-11-09T22:24:01.535Z</time>
      </trkpt>
      <trkpt lat="47.499091" lon="7.854535">
        <ele>550.917429</ele>
        <time>2021-11-09T22:24:03.588Z</time>
      </trkpt>
      <trkpt lat="47.499815" lon="7.854405">
        <ele>548.491804</ele>
        <time>2021-11-09T22:24:14.145Z</time>
      </trkpt>
      <trkpt lat="47.500046" lon="7.854421">
        <ele>547.722674</ele>
        <time>2021-11-09T22:24:17.817Z</time>
      </trkpt>
      <trkpt lat="47.502338" lon="7.854924">
        <ele>545.033554</ele>
        <time>2021-11-09T22:24:59.215Z</time>
      </trkpt>
      <trkpt lat="47.502566" lon="7.854916">
        <ele>544.836789</ele>
        <time>2021-11-09T22:25:04.026Z</time>
      </trkpt>
      <trkpt lat="47.502908" lon="7.854689">
        <ele>544.513420</ele>
        <time>2021-11-09T22:25:11.534Z</time>
      </trkpt>
      <trkpt lat="47.503269" lon="7.854422">
        <ele>544.165251</ele>
        <time>2021-11-09T22:25:19.089Z</time>
      </trkpt>
      <trkpt lat="47.503693" lon="7.854148">
        <ele>543.766101</ele>
        <time>2021-11-09T22:25:26.782Z</time>
      </trkpt>
      <trkpt lat="47.504150" lon="7.853972">
        <ele>542.837454</ele>
        <time>2021-11-09T22:25:34.142Z</time>
      </trkpt>
      <trkpt lat="47.504477" lon="7.853819">
        <ele>541.964231</ele>
        <time>2021-11-09T22:25:39.447Z</time>
      </trkpt>
      <trkpt lat="47.505250" lon="7.853383">
        <ele>539.857950</ele>
        <time>2021-11-09T22:25:51.337Z</time>
      </trkpt>
      <trkpt lat="47.505215" lon="7.852914">
        <ele>539.046340</ele>
        <time>2021-11-09T22:25:54.689Z</time>
      </trkpt>
      <trkpt lat="47.505145" lon="7.852200">
        <ele>539.044579</ele>
        <time>2021-11-09T22:26:00.286Z</time>
      </trkpt>
      <trkpt lat="47.504980" lon="7.851535">
        <ele>539.043148</ele>
        <time>2021-11-09T22:26:06.756Z</time>
      </trkpt>
      <trkpt lat="47.504903" lon="7.851306">
        <ele>539.042631</ele>
        <time>2021-11-09T22:26:09.122Z</time>
      </trkpt>
      <trkpt lat="47.504851" lon="7.851192">
        <ele>539.042353</ele>
        <time>2021-11-09T22:26:11.683Z</time>
      </trkpt>
      <trkpt lat="47.504672" lon="7.850987">
        <ele>539.041676</ele>
        <time>2021-11-09T22:26:15.883Z</time>
      </trkpt>
      <trkpt lat="47.504357" lon="7.850973">
        <ele>539.040734</ele>
        <time>2021-11-09T22:26:22.982Z</time>
      </trkpt>
      <trkpt lat="47.504239" lon="7.850874">
        <ele>539.231004</ele>
        <time>2021-11-09T22:26:26.163Z</time>
      </trkpt>
      <trkpt lat="47.503893" lon="7.849807">
        <ele>540.614602</ele>
        <time>2021-11-09T22:26:46.225Z</time>
      </trkpt>
      <trkpt lat="47.503641" lon="7.848945">
        <ele>541.712606</ele>
        <time>2021-11-09T22:27:00.463Z</time>
      </trkpt>
      <trkpt lat="47.503484" lon="7.848394">
        <ele>542.123715</ele>
        <time>2021-11-09T22:27:07.607Z</time>
      </trkpt>
      <trkpt lat="47.503091" lon="7.847553">
        <ele>541.987407</ele>
        <time>2021-11-09T22:27:16.690Z</time>
      </trkpt>
      <trkpt lat="47.503052" lon="7.847473">
        <ele>541.974257</ele>
        <time>2021-11-09T22:27:18.428Z</time>
      </trkpt>
      <trkpt lat="47.503023" lon="7.847369">
        <ele>541.959260</ele>
        <time>2021-11-09T22:27:19.218Z</time>
      </trkpt>
      <trkpt lat="47.503044" lon="7.846999">
        <ele>541.909767</ele>
        <time>2021-11-09T22:27:22.706Z</time>
      </trkpt>
      <trkpt lat="47.503134" lon="7.846872">
        <ele>541.885233</ele>
        <time>2021-11-09T22:27:24.224Z</time>
      </trkpt>
      <trkpt lat="47.503256" lon="7.846808">
        <ele>541.859693</ele>
        <time>2021-11-09T22:27:25.703Z</time>
      </trkpt>
      <trkpt lat="47.503628" lon="7.846708">
        <ele>541.974554</ele>
        <time>2021-11-09T22:27:30.640Z</time>
      </trkpt>
      <trkpt lat="47.504232" lon="7.846590">
        <ele>543.579675</ele>
        <time>2021-11-09T22:27:39.274Z</time>
      </trkpt>
      <trkpt lat="47.504599" lon="7.846703">
        <ele>544.567282</ele>
        <time>2021-11-09T22:27:49.502Z</time>
      </trkpt>
      <trkpt lat="47.504849" lon="7.846705">
        <ele>545.225952</ele>
        <time>2021-11-09T22:27:55.797Z</time>
      </trkpt>
      <trkpt lat="47.505754" lon="7.846083">
        <ele>549.826019</ele>
        <time>2021-11-09T22:28:34.173Z</time>
      </trkpt>
      <trkpt lat="47.505835" lon="7.845960">
        <ele>550.589091</ele>
        <time>2021-11-09T22:28:39.879Z</time>
      </trkpt>
      <trkpt lat="47.505847" lon="7.845902">
        <ele>550.858556</ele>
        <time>2021-11-09T22:28:44.133Z</time>
      </trkpt>
      <trkpt lat="47.506032" lon="7.844375">
        <ele>557.750087</ele>
        <time>2021-11-09T22:29:52.114Z</time>
      </trkpt>
      <trkpt lat="47.506130" lon="7.843433">
        <ele>560.121099</ele>
        <time>2021-11-09T22:30:31.096Z</time>
      </trkpt>
      <trkpt lat="47.506150" lon="7.843312">
        <ele>560.389609</ele>
        <time>2021-11-09T22:30:33.839Z</time>
      </trkpt>
      <trkpt lat="47.506374" lon="7.841365">
        <ele>564.109991</ele>
        <time>2021-11-09T22:31:10.848Z</time>
      </trkpt>
      <trkpt lat="47.505959" lon="7.841291">
        <ele>564.123701</ele>
        <time>2021-11-09T22:31:19.308Z</time>
      </trkpt>
      <trkpt lat="47.505358" lon="7.841213">
        <ele>564.143488</ele>
        <time>2021-11-09T22:31:31.577Z</time>
      </trkpt>
      <trkpt lat="47.505239" lon="7.841203">
        <ele>564.147397</ele>
        <time>2021-11-09T22:31:33.743Z</time>
      </trkpt>
      <trkpt lat="47.504959" lon="7.841240">
        <ele>564.156618</ele>
        <time>2021-11-09T22:31:39.448Z</time>
      </trkpt>
      <trkpt lat="47.503768" lon="7.841356">
        <ele>561.679892</ele>
        <time>2021-11-09T22:31:59.348Z</time>
      </trkpt>
      <trkpt lat="47.503614" lon="7.841305">
        <ele>561.282618</ele>
        <time>2021-11-09T22:32:01.898Z</time>
      </trkpt>
      <trkpt lat="47.503565" lon="7.841261">
        <ele>561.138340</ele>
        <time>2021-11-09T22:32:02.754Z</time>
      </trkpt>
      <trkpt lat="47.503365" lon="7.840954">
        <ele>560.413013</ele>
        <time>2021-11-09T22:32:06.795Z</time>
      </trkpt>
      <trkpt lat="47.503247" lon="7.840737">
        <ele>559.939262</ele>
        <time>2021-11-09T22:32:09.468Z</time>
      </trkpt>
      <trkpt lat="47.503203" lon="7.840615">
        <ele>559.704063</ele>
        <time>2021-11-09T22:32:10.648Z</time>
      </trkpt>
      <trkpt lat="47.503029" lon="7.840222">
        <ele>557.932622</ele>
        <time>2021-11-09T22:32:14.954Z</time>
      </trkpt>
      <trkpt lat="47.502867" lon="7.839629">
        <ele>555.396689</ele>
        <time>2021-11-09T22:32:20.631Z</time>
      </trkpt>
      <trkpt lat="47.502712" lon="7.839407">
        <ele>554.130961</ele>
        <time>2021-11-09T22:32:23.534Z</time>
      </trkpt>
      <trkpt lat="47.502604" lon="7.839292">
        <ele>553.350203</ele>
        <time>2021-11-09T22:32:25.181Z</time>
      </trkpt>
      <trkpt lat="47.502464" lon="7.839247">
        <ele>552.509452</ele>
        <time>2021-11-09T22:32:27.054Z</time>
      </trkpt>
      <trkpt lat="47.502118" lon="7.839230">
        <ele>550.477796</ele>
        <time>2021-11-09T22:32:31.504Z</time>
      </trkpt>
      <trkpt lat="47.501875" lon="7.839304">
        <ele>549.029048</ele>
        <time>2021-11-09T22:32:34.745Z</time>
      </trkpt>
      <trkpt lat="47.500610" lon="7.840107">
        <ele>541.952658</ele>
        <time>2021-11-09T22:32:53.073Z</time>
      </trkpt>
      <trkpt lat="47.500490" lon="7.840175">
        <ele>541.292052</ele>
        <time>2021-11-09T22:32:54.815Z</time>
      </trkpt>
      <trkpt lat="47.500334" lon="7.840257">
        <ele>540.440959</ele>
        <time>2021-11-09T22:32:57.196Z</time>
      </trkpt>
      <trkpt lat="47.499541" lon="7.840552">
        <ele>537.719963</ele>
        <time>2021-11-09T22:33:09.021Z</time>
      </trkpt>
      <trkpt lat="47.499316" lon="7.840601">
        <ele>537.032918</ele>
        <time>2021-11-09T22:33:12.356Z</time>
      </trkpt>
      <trkpt lat="47.499138" lon="7.840659">
        <ele>536.482303</ele>
        <time>2021-11-09T22:33:15.091Z</time>
      </trkpt>
      <trkpt lat="47.498763" lon="7.840766">
        <ele>535.328567</ele>
        <time>2021-11-09T22:33:21.070Z</time>
      </trkpt>
      <trkpt lat="47.498156" lon="7.841079">
        <ele>532.807249</ele>
        <time>2021-11-09T22:33:30.858Z</time>
      </trkpt>
      <trkpt lat="47.497867" lon="7.841132">
        <ele>531.423890</ele>
        <time>2021-11-09T22:33:35.042Z</time>
      </trkpt>
      <trkpt lat="47.497488" lon="7.841201">
        <ele>529.609927</ele>
        <time>2021-11-09T22:33:40.325Z</time>
      </trkpt>
      <trkpt lat="47.497385" lon="7.841209">
        <ele>529.119964</ele>
        <time>2021-11-09T22:33:41.716Z</time>
      </trkpt>
      <trkpt lat="47.497204" lon="7.841203">
        <ele>528.259929</ele>
        <time>2021-11-09T22:33:44.028Z</time>
      </trkpt>
      <trkpt lat="47.496881" lon="7.840859">
        <ele>526.369621</ele>
        <time>2021-11-09T22:33:49.209Z</time>
      </trkpt>
      <trkpt lat="47.496495" lon="7.840384">
        <ele>522.729994</ele>
        <time>2021-11-09T22:33:55.695Z</time>
      </trkpt>
      <trkpt lat="47.496134" lon="7.839925">
        <ele>518.951754</ele>
        <time>2021-11-09T22:34:01.712Z</time>
      </trkpt>
      <trkpt lat="47.496133" lon="7.839923">
        <ele>518.938408</ele>
        <time>2021-11-09T22:34:01.753Z</time>
      </trkpt>
      <trkpt lat="47.495494" lon="7.839107">
        <ele>512.238224</ele>
        <time>2021-11-09T22:34:12.236Z</time>
      </trkpt>
      <trkpt lat="47.494823" lon="7.838533">
        <ele>507.116866</ele>
        <time>2021-11-09T22:34:22.016Z</time>
      </trkpt>
      <trkpt lat="47.494673" lon="7.838344">
        <ele>505.846756</ele>
        <time>2021-11-09T22:34:24.711Z</time>
      </trkpt>
      <trkpt lat="47.494626" lon="7.838257">
        <ele>505.361511</ele>
        <time>2021-11-09T22:34:25.625Z</time>
      </trkpt>
      <trkpt lat="47.494536" lon="7.837978">
        <ele>504.014701</ele>
        <time>2021-11-09T22:34:28.502Z</time>
      </trkpt>
      <trkpt lat="47.494516" lon="7.837806">
        <ele>503.254409</ele>
        <time>2021-11-09T22:34:30.030Z</time>
      </trkpt>
      <trkpt lat="47.494593" lon="7.837800">
        <ele>502.757270</ele>
        <time>2021-11-09T22:34:31.020Z</time>
      </trkpt>
      <trkpt lat="47.494701" lon="7.837752">
        <ele>502.030232</ele>
        <time>2021-11-09T22:34:32.605Z</time>
      </trkpt>
      <trkpt lat="47.494860" lon="7.837661">
        <ele>500.931115</ele>
        <time>2021-11-09T22:34:34.856Z</time>
      </trkpt>
      <trkpt lat="47.495516" lon="7.837485">
        <ele>497.727445</ele>
        <time>2021-11-09T22:34:43.994Z</time>
      </trkpt>
      <trkpt lat="47.495686" lon="7.837455">
        <ele>496.984755</ele>
        <time>2021-11-09T22:34:46.150Z</time>
      </trkpt>
      <trkpt lat="47.496083" lon="7.837670">
        <ele>495.150887</ele>
        <time>2021-11-09T22:34:52.068Z</time>
      </trkpt>
      <trkpt lat="47.496520" lon="7.837694">
        <ele>493.253860</ele>
        <time>2021-11-09T22:34:58.270Z</time>
      </trkpt>
      <trkpt lat="47.496868" lon="7.837844">
        <ele>491.910489</ele>
        <time>2021-11-09T22:35:03.432Z</time>
      </trkpt>
      <trkpt lat="47.496962" lon="7.837850">
        <ele>491.691222</ele>
        <time>2021-11-09T22:35:05.093Z</time>
      </trkpt>
      <trkpt lat="47.497006" lon="7.837744">
        <ele>491.495339</ele>
        <time>2021-11-09T22:35:06.205Z</time>
      </trkpt>
      <trkpt lat="47.497050" lon="7.837488">
        <ele>491.079421</ele>
        <time>2021-11-09T22:35:09.190Z</time>
      </trkpt>
      <trkpt lat="47.496981" lon="7.836871">
        <ele>490.094719</ele>
        <time>2021-11-09T22:35:16.112Z</time>
      </trkpt>
      <trkpt lat="47.497024" lon="7.836771">
        <ele>489.908082</ele>
        <time>2021-11-09T22:35:17.305Z</time>
      </trkpt>
      <trkpt lat="47.497283" lon="7.836569">
        <ele>489.225821</ele>
        <time>2021-11-09T22:35:22.438Z</time>
      </trkpt>
      <trkpt lat="47.497488" lon="7.836415">
        <ele>488.690065</ele>
        <time>2021-11-09T22:35:25.982Z</time>
      </trkpt>
      <trkpt lat="47.497663" lon="7.836246">
        <ele>488.203103</ele>
        <time>2021-11-09T22:35:29.970Z</time>
      </trkpt>
      <trkpt lat="47.498371" lon="7.835942">
        <ele>484.687212</ele>
        <time>2021-11-09T22:35:40.252Z</time>
      </trkpt>
      <trkpt lat="47.499070" lon="7.835763">
        <ele>481.051856</ele>
        <time>2021-11-09T22:35:49.921Z</time>
      </trkpt>
      <trkpt lat="47.499117" lon="7.835753">
        <ele>480.808521</ele>
        <time>2021-11-09T22:35:50.628Z</time>
      </trkpt>
      <trkpt lat="47.499268" lon="7.835669">
        <ele>479.981851</ele>
        <time>2021-11-09T22:35:52.827Z</time>
      </trkpt>
      <trkpt lat="47.499349" lon="7.835598">
        <ele>479.499427</ele>
        <time>2021-11-09T22:35:53.941Z</time>
      </trkpt>
      <trkpt lat="47.499509" lon="7.835360">
        <ele>477.754830</ele>
        <time>2021-11-09T22:35:57.114Z</time>
      </trkpt>
      <trkpt lat="47.499533" lon="7.835290">
        <ele>477.115292</ele>
        <time>2021-11-09T22:35:57.747Z</time>
      </trkpt>
      <trkpt lat="47.499840" lon="7.834402">
        <ele>468.988385</ele>
        <time>2021-11-09T22:36:05.831Z</time>
      </trkpt>
      <trkpt lat="47.499905" lon="7.833427">
        <ele>461.006361</ele>
        <time>2021-11-09T22:36:13.570Z</time>
      </trkpt>
      <trkpt lat="47.499893" lon="7.833272">
        <ele>459.735294</ele>
        <time>2021-11-09T22:36:14.836Z</time>
      </trkpt>
      <trkpt lat="47.499956" lon="7.833147">
        <ele>458.464739</ele>
        <time>2021-11-09T22:36:16.050Z</time>
      </trkpt>
      <trkpt lat="47.500316" lon="7.832383">
        <ele>449.916882</ele>
        <time>2021-11-09T22:36:23.573Z</time>
      </trkpt>
      <trkpt lat="47.500938" lon="7.831417">
        <ele>437.363430</ele>
        <time>2021-11-09T22:36:34.061Z</time>
      </trkpt>
      <trkpt lat="47.501317" lon="7.830941">
        <ele>430.808978</ele>
        <time>2021-11-09T22:36:39.962Z</time>
      </trkpt>
      <trkpt lat="47.501426" lon="7.830651">
        <ele>428.407045</ele>
        <time>2021-11-09T22:36:42.676Z</time>
      </trkpt>
      <trkpt lat="47.501508" lon="7.830397">
        <ele>426.369535</ele>
        <time>2021-11-09T22:36:44.944Z</time>
      </trkpt>
      <trkpt lat="47.501570" lon="7.830119">
        <ele>424.250639</ele>
        <time>2021-11-09T22:36:47.320Z</time>
      </trkpt>
      <trkpt lat="47.501872" lon="7.828923">
        <ele>415.009432</ele>
        <time>2021-11-09T22:36:57.779Z</time>
      </trkpt>
      <trkpt lat="47.501916" lon="7.828447">
        <ele>412.021623</ele>
        <time>2021-11-09T22:37:01.811Z</time>
      </trkpt>
      <trkpt lat="47.501935" lon="7.828179">
        <ele>410.847339</ele>
        <time>2021-11-09T22:37:04.098Z</time>
      </trkpt>
      <trkpt lat="47.501972" lon="7.827862">
        <ele>409.445474</ele>
        <time>2021-11-09T22:37:06.929Z</time>
      </trkpt>
      <trkpt lat="47.502031" lon="7.827633">
        <ele>408.377448</ele>
        <time>2021-11-09T22:37:09.123Z</time>
      </trkpt>
      <trkpt lat="47.502306" lon="7.827173">
        <ele>405.700721</ele>
        <time>2021-11-09T22:37:14.515Z</time>
      </trkpt>
      <trkpt lat="47.502694" lon="7.826607">
        <ele>402.186846</ele>
        <time>2021-11-09T22:37:21.645Z</time>
      </trkpt>
      <trkpt lat="47.503059" lon="7.826259">
        <ele>400.445975</ele>
        <time>2021-11-09T22:37:27.593Z</time>
      </trkpt>
      <trkpt lat="47.503196" lon="7.826042">
        <ele>399.924920</ele>
        <time>2021-11-09T22:37:30.775Z</time>
      </trkpt>
      <trkpt lat="47.503225" lon="7.825979">
        <ele>399.791179</ele>
        <time>2021-11-09T22:37:31.438Z</time>
      </trkpt>
      <trkpt lat="47.503231" lon="7.825900">
        <ele>399.651715</ele>
        <time>2021-11-09T22:37:32.235Z</time>
      </trkpt>
      <trkpt lat="47.503225" lon="7.825809">
        <ele>399.491313</ele>
        <time>2021-11-09T22:37:33.156Z</time>
      </trkpt>
      <trkpt lat="47.503509" lon="7.825771">
        <ele>398.750792</ele>
        <time>2021-11-09T22:37:36.166Z</time>
      </trkpt>
      <trkpt lat="47.503860" lon="7.825735">
        <ele>397.837101</ele>
        <time>2021-11-09T22:37:39.994Z</time>
      </trkpt>
      <trkpt lat="47.504813" lon="7.825703">
        <ele>396.451859</ele>
        <time>2021-11-09T22:37:51.549Z</time>
      </trkpt>
      <trkpt lat="47.506147" lon="7.825028">
        <ele>396.281605</ele>
        <time>2021-11-09T22:38:14.644Z</time>
      </trkpt>
      <trkpt lat="47.507017" lon="7.824678">
        <ele>395.229296</ele>
        <time>2021-11-09T22:38:28.220Z</time>
      </trkpt>
      <trkpt lat="47.507990" lon="7.824326">
        <ele>393.435443</ele>
        <time>2021-11-09T22:38:39.003Z</time>
      </trkpt>
      <trkpt lat="47.508288" lon="7.824180">
        <ele>391.760625</ele>
        <time>2021-11-09T22:38:42.086Z</time>
      </trkpt>
      <trkpt lat="47.509075" lon="7.823456">
        <ele>386.816809</ele>
        <time>2021-11-09T22:38:50.612Z</time>
      </trkpt>
      <trkpt lat="47.509744" lon="7.823275">
        <ele>383.087857</ele>
        <time>2021-11-09T22:38:56.687Z</time>
      </trkpt>
      <trkpt lat="47.510203" lon="7.823212">
        <ele>380.458161</ele>
        <time>2021-11-09T22:39:00.907Z</time>
      </trkpt>
      <trkpt lat="47.510706" lon="7.823221">
        <ele>377.588476</ele>
        <time>2021-11-09T22:39:05.548Z</time>
      </trkpt>
      <trkpt lat="47.511863" lon="7.823271">
        <ele>372.900642</ele>
        <time>2021-11-09T22:39:16.591Z</time>
      </trkpt>
      <trkpt lat="47.512067" lon="7.823229">
        <ele>372.389099</ele>
        <time>2021-11-09T22:39:18.807Z</time>
      </trkpt>
      <trkpt lat="47.512263" lon="7.823167">
        <ele>371.891313</ele>
        <time>2021-11-09T22:39:20.941Z</time>
      </trkpt>
      <trkpt lat="47.512648" lon="7.822935">
        <ele>370.858932</ele>
        <time>2021-11-09T22:39:25.767Z</time>
      </trkpt>
      <trkpt lat="47.513483" lon="7.822231">
        <ele>369.213426</ele>
        <time>2021-11-09T22:39:38.776Z</time>
      </trkpt>
      <trkpt lat="47.514302" lon="7.821660">
        <ele>368.123791</ele>
        <time>2021-11-09T22:39:50.263Z</time>
      </trkpt>
      <trkpt lat="47.514708" lon="7.821376">
        <ele>367.174675</ele>
        <time>2021-11-09T22:39:54.910Z</time>
      </trkpt>
      <trkpt lat="47.514821" lon="7.821292">
        <ele>366.638578</ele>
        <time>2021-11-09T22:39:56.245Z</time>
      </trkpt>
      <trkpt lat="47.515036" lon="7.821090">
        <ele>365.558970</ele>
        <time>2021-11-09T22:39:58.756Z</time>
      </trkpt>
      <trkpt lat="47.515202" lon="7.820909">
        <ele>364.684900</ele>
        <time>2021-11-09T22:40:00.830Z</time>
      </trkpt>
      <trkpt lat="47.515268" lon="7.820836">
        <ele>364.335611</ele>
        <time>2021-11-09T22:40:01.581Z</time>
      </trkpt>
      <trkpt lat="47.515469" lon="7.820644">
        <ele>363.321438</ele>
        <time>2021-11-09T22:40:03.955Z</time>
      </trkpt>
      <trkpt lat="47.515587" lon="7.820532">
        <ele>362.727164</ele>
        <time>2021-11-09T22:40:05.236Z</time>
      </trkpt>
      <trkpt lat="47.516786" lon="7.819655">
        <ele>357.417720</ele>
        <time>2021-11-09T22:40:17.692Z</time>
      </trkpt>
      <trkpt lat="47.517657" lon="7.818442">
        <ele>353.153831</ele>
        <time>2021-11-09T22:40:30.110Z</time>
      </trkpt>
      <trkpt lat="47.518035" lon="7.818005">
        <ele>352.199158</ele>
        <time>2021-11-09T22:40:35.501Z</time>
      </trkpt>
      <trkpt lat="47.518220" lon="7.817823">
        <ele>351.757006</ele>
        <time>2021-11-09T22:40:38.034Z</time>
      </trkpt>
      <trkpt lat="47.518481" lon="7.817598">
        <ele>351.155795</ele>
        <time>2021-11-09T22:40:41.485Z</time>
      </trkpt>
      <trkpt lat="47.518941" lon="7.817228">
        <ele>350.113694</ele>
        <time>2021-11-09T22:40:47.280Z</time>
      </trkpt>
      <trkpt lat="47.519453" lon="7.816861">
        <ele>348.692079</ele>
        <time>2021-11-09T22:40:53.472Z</time>
      </trkpt>
      <trkpt lat="47.519807" lon="7.816661">
        <ele>347.674828</ele>
        <time>2021-11-09T22:40:57.407Z</time>
      </trkpt>
      <trkpt lat="47.519959" lon="7.816575">
        <ele>347.237962</ele>
        <time>2021-11-09T22:40:59.141Z</time>
      </trkpt>
      <trkpt lat="47.520002" lon="7.816556">
        <ele>347.117485</ele>
        <time>2021-11-09T22:40:59.585Z</time>
      </trkpt>
      <trkpt lat="47.520578" lon="7.816306">
        <ele>345.505974</ele>
        <time>2021-11-09T22:41:05.711Z</time>
      </trkpt>
      <trkpt lat="47.521028" lon="7.816163">
        <ele>344.257069</ele>
        <time>2021-11-09T22:41:10.437Z</time>
      </trkpt>
      <trkpt lat="47.521087" lon="7.816144">
        <ele>344.091948</ele>
        <time>2021-11-09T22:41:10.997Z</time>
      </trkpt>
      <trkpt lat="47.521199" lon="7.816108">
        <ele>343.778524</ele>
        <time>2021-11-09T22:41:12.200Z</time>
      </trkpt>
      <trkpt lat="47.521383" lon="7.816075">
        <ele>343.271653</ele>
        <time>2021-11-09T22:41:14.166Z</time>
      </trkpt>
      <trkpt lat="47.521699" lon="7.816019">
        <ele>342.401307</ele>
        <time>2021-11-09T22:41:17.454Z</time>
      </trkpt>
      <trkpt lat="47.521870" lon="7.815989">
        <ele>341.930395</ele>
        <time>2021-11-09T22:41:19.209Z</time>
      </trkpt>
      <trkpt lat="47.522090" lon="7.815952">
        <ele>341.324883</ele>
        <time>2021-11-09T22:41:21.697Z</time>
      </trkpt>
      <trkpt lat="47.523608" lon="7.815695">
        <ele>337.291711</ele>
        <time>2021-11-09T22:41:37.763Z</time>
      </trkpt>
      <trkpt lat="47.523730" lon="7.815653">
        <ele>336.966230</ele>
        <time>2021-11-09T22:41:39.074Z</time>
      </trkpt>
      <trkpt lat="47.523757" lon="7.815629">
        <ele>336.884399</ele>
        <time>2021-11-09T22:41:39.357Z</time>
      </trkpt>
      <trkpt lat="47.523836" lon="7.814923">
        <ele>335.628630</ele>
        <time>2021-11-09T22:41:44.590Z</time>
      </trkpt>
      <trkpt lat="47.523994" lon="7.814691">
        <ele>335.107972</ele>
        <time>2021-11-09T22:41:46.878Z</time>
      </trkpt>
      <trkpt lat="47.524032" lon="7.814643">
        <ele>335.000233</ele>
        <time>2021-11-09T22:41:47.389Z</time>
      </trkpt>
      <trkpt lat="47.524286" lon="7.814362">
        <ele>334.316324</ele>
        <time>2021-11-09T22:41:50.723Z</time>
      </trkpt>
      <trkpt lat="47.524601" lon="7.814100">
        <ele>333.537003</ele>
        <time>2021-11-09T22:41:54.498Z</time>
      </trkpt>
      <trkpt lat="47.524645" lon="7.814069">
        <ele>333.431897</ele>
        <time>2021-11-09T22:41:55.023Z</time>
      </trkpt>
      <trkpt lat="47.524963" lon="7.813836">
        <ele>332.666575</ele>
        <time>2021-11-09T22:41:58.959Z</time>
      </trkpt>
      <trkpt lat="47.524982" lon="7.813822">
        <ele>332.620797</ele>
        <time>2021-11-09T22:41:59.199Z</time>
      </trkpt>
      <trkpt lat="47.525103" lon="7.813754">
        <ele>332.341628</ele>
        <time>2021-11-09T22:42:00.685Z</time>
      </trkpt>
      <trkpt lat="47.525265" lon="7.813766">
        <ele>331.991743</ele>
        <time>2021-11-09T22:42:02.404Z</time>
      </trkpt>
      <trkpt lat="47.525640" lon="7.813941">
        <ele>331.411969</ele>
        <time>2021-11-09T22:42:06.946Z</time>
      </trkpt>
      <trkpt lat="47.525829" lon="7.814027">
        <ele>331.298482</ele>
        <time>2021-11-09T22:42:09.283Z</time>
      </trkpt>
      <trkpt lat="47.525874" lon="7.814072">
        <ele>331.267315</ele>
        <time>2021-11-09T22:42:09.899Z</time>
      </trkpt>
      <trkpt lat="47.526135" lon="7.814494">
        <ele>331.045518</ele>
        <time>2021-11-09T22:42:14.556Z</time>
      </trkpt>
      <trkpt lat="47.526394" lon="7.814809">
        <ele>330.853150</ele>
        <time>2021-11-09T22:42:18.873Z</time>
      </trkpt>
      <trkpt lat="47.526478" lon="7.814853">
        <ele>330.802009</ele>
        <time>2021-11-09T22:42:20.126Z</time>
      </trkpt>
      <trkpt lat="47.526579" lon="7.814859">
        <ele>330.743990</ele>
        <time>2021-11-09T22:42:21.682Z</time>
      </trkpt>
      <trkpt lat="47.526655" lon="7.814822">
        <ele>330.698071</ele>
        <time>2021-11-09T22:42:22.798Z</time>
      </trkpt>
      <trkpt lat="47.526665" lon="7.814850">
        <ele>330.685795</ele>
        <time>2021-11-09T22:42:23.079Z</time>
      </trkpt>
      <trkpt lat="47.527105" lon="7.815211">
        <ele>330.706005</ele>
        <time>2021-11-09T22:42:31.395Z</time>
      </trkpt>
      <trkpt lat="47.527153" lon="7.815269">
        <ele>330.808098</ele>
        <time>2021-11-09T22:42:32.577Z</time>
      </trkpt>
      <trkpt lat="47.527206" lon="7.815349">
        <ele>330.932814</ele>
        <time>2021-11-09T22:42:34.181Z</time>
      </trkpt>
      <trkpt lat="47.527292" lon="7.815550">
        <ele>331.197606</ele>
        <time>2021-11-09T22:42:37.210Z</time>
      </trkpt>
      <trkpt lat="47.527320" lon="7.815661">
        <ele>331.329463</ele>
        <time>2021-11-09T22:42:38.957Z</time>
      </trkpt>
      <trkpt lat="47.527346" lon="7.815799">
        <ele>331.488894</ele>
        <time>2021-11-09T22:42:41.132Z</time>
      </trkpt>
      <trkpt lat="47.527361" lon="7.815943">
        <ele>331.651031</ele>
        <time>2021-11-09T22:42:43.175Z</time>
      </trkpt>
      <trkpt lat="47.527362" lon="7.815959">
        <ele>331.668911</ele>
        <time>2021-11-09T22:42:43.387Z</time>
      </trkpt>
      <trkpt lat="47.527366" lon="7.816038">
        <ele>331.757068</ele>
        <time>2021-11-09T22:42:44.458Z</time>
      </trkpt>
      <trkpt lat="47.527376" lon="7.816175">
        <ele>331.910408</ele>
        <time>2021-11-09T22:42:46.506Z</time>
      </trkpt>
      <trkpt lat="47.527388" lon="7.816407">
        <ele>332.169331</ele>
        <time>2021-11-09T22:42:50.209Z</time>
      </trkpt>
      <trkpt lat="47.527432" lon="7.817173">
        <ele>333.024803</ele>
        <time>2021-11-09T22:43:02.366Z</time>
      </trkpt>
      <trkpt lat="47.527471" lon="7.817746">
        <ele>333.782790</ele>
        <time>2021-11-09T22:43:11.840Z</time>
      </trkpt>
      <trkpt lat="47.527477" lon="7.817911">
        <ele>334.062544</ele>
        <time>2021-11-09T22:43:14.429Z</time>
      </trkpt>
      <trkpt lat="47.527477" lon="7.818068">
        <ele>334.328349</ele>
        <time>2021-11-09T22:43:16.622Z</time>
      </trkpt>
      <trkpt lat="47.527466" lon="7.818406">
        <ele>334.901255</ele>
        <time>2021-11-09T22:43:22.222Z</time>
      </trkpt>
      <trkpt lat="47.527455" lon="7.818544">
        <ele>335.136515</ele>
        <time>2021-11-09T22:43:23.966Z</time>
      </trkpt>
      <trkpt lat="47.527408" lon="7.818945">
        <ele>335.825570</ele>
        <time>2021-11-09T22:43:30.194Z</time>
      </trkpt>
      <trkpt lat="47.527349" lon="7.819451">
        <ele>336.694921</ele>
        <time>2021-11-09T22:43:38.489Z</time>
      </trkpt>
      <trkpt lat="47.527327" lon="7.819619">
        <ele>336.984650</ele>
        <time>2021-11-09T22:43:40.843Z</time>
      </trkpt>
      <trkpt lat="47.527283" lon="7.819942">
        <ele>337.542516</ele>
        <time>2021-11-09T22:43:47.246Z</time>
      </trkpt>
      <trkpt lat="47.527258" lon="7.820150">
        <ele>337.900202</ele>
        <time>2021-11-09T22:43:50.382Z</time>
      </trkpt>
      <trkpt lat="47.527223" lon="7.820442">
        <ele>339.166279</ele>
        <time>2021-11-09T22:43:57.407Z</time>
      </trkpt>
      <trkpt lat="47.527128" lon="7.821204">
        <ele>342.697949</ele>
        <time>2021-11-09T22:44:13.964Z</time>
      </trkpt>
      <trkpt lat="47.527202" lon="7.821239">
        <ele>343.222285</ele>
        <time>2021-11-09T22:44:18.151Z</time>
      </trkpt>
      <trkpt lat="47.527273" lon="7.821332">
        <ele>343.862071</ele>
        <time>2021-11-09T22:44:23.129Z</time>
      </trkpt>
      <trkpt lat="47.527330" lon="7.821475">
        <ele>344.618906</ele>
        <time>2021-11-09T22:44:28.238Z</time>
      </trkpt>
      <trkpt lat="47.527328" lon="7.821598">
        <ele>345.179664</ele>
        <time>2021-11-09T22:44:32.057Z</time>
      </trkpt>
      <trkpt lat="47.527320" lon="7.821717">
        <ele>345.724711</ele>
        <time>2021-11-09T22:44:36.563Z</time>
      </trkpt>
      <trkpt lat="47.527306" lon="7.821963">
        <ele>346.849878</ele>
        <time>2021-11-09T22:44:45.335Z</time>
      </trkpt>
      <trkpt lat="47.527294" lon="7.822224">
        <ele>348.042190</ele>
        <time>2021-11-09T22:44:54.644Z</time>
      </trkpt>
      <trkpt lat="47.527302" lon="7.822396">
        <ele>348.827971</ele>
        <time>2021-11-09T22:45:01.361Z</time>
      </trkpt>
      <trkpt lat="47.527319" lon="7.822526">
        <ele>349.431480</ele>
        <time>2021-11-09T22:45:06.014Z</time>
      </trkpt>
      <trkpt lat="47.527440" lon="7.823003">
        <ele>353.030291</ele>
        <time>2021-11-09T22:45:25.836Z</time>
      </trkpt>
      <trkpt lat="47.527623" lon="7.823631">
        <ele>358.540893</ele>
        <time>2021-11-09T22:46:00.308Z</time>
      </trkpt>
      <trkpt lat="47.527888" lon="7.824419">
        <ele>365.633287</ele>
        <time>2021-11-09T22:46:42.537Z</time>
      </trkpt>
      <trkpt lat="47.528115" lon="7.824942">
        <ele>370.642281</ele>
        <time>2021-11-09T22:47:10.359Z</time>
      </trkpt>
      <trkpt lat="47.528196" lon="7.825074">
        <ele>372.092984</ele>
        <time>2021-11-09T22:47:21.716Z</time>
      </trkpt>
      <trkpt lat="47.528345" lon="7.825277">
        <ele>374.571347</ele>
        <time>2021-11-09T22:47:34.438Z</time>
      </trkpt>
      <trkpt lat="47.529325" lon="7.826126">
        <ele>388.469600</ele>
        <time>2021-11-09T22:48:51.579Z</time>
      </trkpt>
      <trkpt lat="47.529366" lon="7.826189">
        <ele>389.192826</ele>
        <time>2021-11-09T22:48:57.909Z</time>
      </trkpt>
      <trkpt lat="47.529587" lon="7.826488">
        <ele>392.857054</ele>
        <time>2021-11-09T22:49:18.763Z</time>
      </trkpt>
      <trkpt lat="47.529848" lon="7.826759">
        <ele>396.614636</ele>
        <time>2021-11-09T22:49:39.617Z</time>
      </trkpt>
      <trkpt lat="47.530051" lon="7.826934">
        <ele>399.359786</ele>
        <time>2021-11-09T22:49:55.350Z</time>
      </trkpt>
      <trkpt lat="47.530158" lon="7.827005">
        <ele>400.730092</ele>
        <time>2021-11-09T22:50:03.342Z</time>
      </trkpt>
      <trkpt lat="47.530339" lon="7.827141">
        <ele>403.102141</ele>
        <time>2021-11-09T22:50:17.521Z</time>
      </trkpt>
      <trkpt lat="47.530495" lon="7.827156">
        <ele>404.929184</ele>
        <time>2021-11-09T22:50:28.980Z</time>
      </trkpt>
      <trkpt lat="47.530663" lon="7.827082">
        <ele>406.977630</ele>
        <time>2021-11-09T22:50:41.101Z</time>
      </trkpt>
      <trkpt lat="47.530711" lon="7.827258">
        <ele>408.475491</ele>
        <time>2021-11-09T22:50:50.293Z</time>
      </trkpt>
      <trkpt lat="47.530778" lon="7.827416">
        <ele>409.947790</ele>
        <time>2021-11-09T22:50:57.222Z</time>
      </trkpt>
      <trkpt lat="47.530910" lon="7.827537">
        <ele>411.762081</ele>
        <time>2021-11-09T22:51:05.629Z</time>
      </trkpt>
      <trkpt lat="47.531513" lon="7.827959">
        <ele>418.052192</ele>
        <time>2021-11-09T22:51:43.095Z</time>
      </trkpt>
      <trkpt lat="47.531664" lon="7.828061">
        <ele>419.404223</ele>
        <time>2021-11-09T22:51:52.355Z</time>
      </trkpt>
      <trkpt lat="47.532227" lon="7.828686">
        <ele>425.136073</ele>
        <time>2021-11-09T22:52:24.269Z</time>
      </trkpt>
      <trkpt lat="47.532741" lon="7.829861">
        <ele>431.940711</ele>
        <time>2021-11-09T22:53:01.883Z</time>
      </trkpt>
      <trkpt lat="47.533138" lon="7.830624">
        <ele>435.917670</ele>
        <time>2021-11-09T22:53:25.772Z</time>
      </trkpt>
      <trkpt lat="47.533172" lon="7.830741">
        <ele>436.443550</ele>
        <time>2021-11-09T22:53:29.472Z</time>
      </trkpt>
      <trkpt lat="47.533205" lon="7.830904">
        <ele>437.146102</ele>
        <time>2021-11-09T22:53:33.504Z</time>
      </trkpt>
      <trkpt lat="47.533248" lon="7.831080">
        <ele>437.918832</ele>
        <time>2021-11-09T22:53:37.697Z</time>
      </trkpt>
      <trkpt lat="47.533464" lon="7.831485">
        <ele>440.049623</ele>
        <time>2021-11-09T22:53:51.281Z</time>
      </trkpt>
      <trkpt lat="47.533503" lon="7.831541">
        <ele>440.402831</ele>
        <time>2021-11-09T22:53:54.069Z</time>
      </trkpt>
      <trkpt lat="47.533606" lon="7.831667">
        <ele>441.342687</ele>
        <time>2021-11-09T22:53:59.812Z</time>
      </trkpt>
      <trkpt lat="47.533641" lon="7.831715">
        <ele>441.678276</ele>
        <time>2021-11-09T22:54:01.498Z</time>
      </trkpt>
      <trkpt lat="47.533685" lon="7.831757">
        <ele>442.046553</ele>
        <time>2021-11-09T22:54:04.151Z</time>
      </trkpt>
      <trkpt lat="47.533728" lon="7.831912">
        <ele>442.842538</ele>
        <time>2021-11-09T22:54:09.374Z</time>
      </trkpt>
      <trkpt lat="47.533787" lon="7.832819">
        <ele>447.170764</ele>
        <time>2021-11-09T22:54:39.705Z</time>
      </trkpt>
      <trkpt lat="47.533855" lon="7.833235">
        <ele>449.203862</ele>
        <time>2021-11-09T22:54:51.681Z</time>
      </trkpt>
      <trkpt lat="47.533862" lon="7.833372">
        <ele>449.856476</ele>
        <time>2021-11-09T22:54:58.842Z</time>
      </trkpt>
      <trkpt lat="47.534011" lon="7.833341">
        <ele>450.915050</ele>
        <time>2021-11-09T22:55:05.689Z</time>
      </trkpt>
      <trkpt lat="47.534141" lon="7.833324">
        <ele>451.833217</ele>
        <time>2021-11-09T22:55:09.521Z</time>
      </trkpt>
      <trkpt lat="47.534258" lon="7.833316">
        <ele>452.657242</ele>
        <time>2021-11-09T22:55:15.842Z</time>
      </trkpt>
      <trkpt lat="47.534536" lon="7.833350">
        <ele>453.349221</ele>
        <time>2021-11-09T22:55:23.888Z</time>
      </trkpt>
      <trkpt lat="47.534581" lon="7.833360">
        <ele>453.433370</ele>
        <time>2021-11-09T22:55:26.392Z</time>
      </trkpt>
      <trkpt lat="47.534869" lon="7.833423">
        <ele>453.971738</ele>
        <time>2021-11-09T22:55:33.924Z</time>
      </trkpt>
      <trkpt lat="47.535041" lon="7.833445">
        <ele>454.290997</ele>
        <time>2021-11-09T22:55:40.219Z</time>
      </trkpt>
      <trkpt lat="47.535301" lon="7.833465">
        <ele>454.772457</ele>
        <time>2021-11-09T22:55:46.783Z</time>
      </trkpt>
      <trkpt lat="47.535868" lon="7.833423">
        <ele>455.822306</ele>
        <time>2021-11-09T22:55:55.462Z</time>
      </trkpt>
      <trkpt lat="47.536091" lon="7.833355">
        <ele>456.165096</ele>
        <time>2021-11-09T22:55:58.121Z</time>
      </trkpt>
      <trkpt lat="47.536401" lon="7.833309">
        <ele>454.592360</ele>
        <time>2021-11-09T22:56:01.155Z</time>
      </trkpt>
      <trkpt lat="47.536644" lon="7.833357">
        <ele>453.354819</ele>
        <time>2021-11-09T22:56:03.495Z</time>
      </trkpt>
      <trkpt lat="47.536802" lon="7.833477">
        <ele>452.458487</ele>
        <time>2021-11-09T22:56:05.158Z</time>
      </trkpt>
      <trkpt lat="47.536897" lon="7.833599">
        <ele>451.823776</ele>
        <time>2021-11-09T22:56:06.311Z</time>
      </trkpt>
      <trkpt lat="47.537138" lon="7.834039">
        <ele>449.892799</ele>
        <time>2021-11-09T22:56:09.769Z</time>
      </trkpt>
      <trkpt lat="47.537707" lon="7.834801">
        <ele>445.632492</ele>
        <time>2021-11-09T22:56:16.784Z</time>
      </trkpt>
      <trkpt lat="47.538158" lon="7.835307">
        <ele>441.788758</ele>
        <time>2021-11-09T22:56:22.019Z</time>
      </trkpt>
      <trkpt lat="47.538222" lon="7.835464">
        <ele>440.947582</ele>
        <time>2021-11-09T22:56:23.149Z</time>
      </trkpt>
      <trkpt lat="47.538410" lon="7.837106">
        <ele>432.866865</ele>
        <time>2021-11-09T22:56:33.141Z</time>
      </trkpt>
      <trkpt lat="47.538505" lon="7.837464">
        <ele>430.619300</ele>
        <time>2021-11-09T22:56:35.427Z</time>
      </trkpt>
      <trkpt lat="47.538612" lon="7.837844">
        <ele>428.213598</ele>
        <time>2021-11-09T22:56:37.905Z</time>
      </trkpt>
      <trkpt lat="47.538712" lon="7.838169">
        <ele>426.126716</ele>
        <time>2021-11-09T22:56:40.021Z</time>
      </trkpt>
      <trkpt lat="47.538810" lon="7.838491">
        <ele>424.062949</ele>
        <time>2021-11-09T22:56:42.130Z</time>
      </trkpt>
      <trkpt lat="47.538837" lon="7.838580">
        <ele>423.492838</ele>
        <time>2021-11-09T22:56:42.711Z</time>
      </trkpt>
      <trkpt lat="47.538868" lon="7.838681">
        <ele>422.844577</ele>
        <time>2021-11-09T22:56:43.337Z</time>
      </trkpt>
      <trkpt lat="47.539226" lon="7.839805">
        <ele>414.799025</ele>
        <time>2021-11-09T22:56:50.552Z</time>
      </trkpt>
      <trkpt lat="47.539357" lon="7.840201">
        <ele>411.687010</ele>
        <time>2021-11-09T22:56:53.105Z</time>
      </trkpt>
      <trkpt lat="47.539459" lon="7.840353">
        <ele>410.174581</ele>
        <time>2021-11-09T22:56:54.355Z</time>
      </trkpt>
      <trkpt lat="47.539657" lon="7.840668">
        <ele>407.137270</ele>
        <time>2021-11-09T22:56:56.882Z</time>
      </trkpt>
      <trkpt lat="47.539702" lon="7.840734">
        <ele>406.475302</ele>
        <time>2021-11-09T22:56:57.416Z</time>
      </trkpt>
      <trkpt lat="47.540066" lon="7.841269">
        <ele>401.115095</ele>
        <time>2021-11-09T22:57:01.895Z</time>
      </trkpt>
      <trkpt lat="47.540168" lon="7.841414">
        <ele>399.386745</ele>
        <time>2021-11-09T22:57:03.070Z</time>
      </trkpt>
      <trkpt lat="47.540305" lon="7.841591">
        <ele>396.967030</ele>
        <time>2021-11-09T22:57:04.577Z</time>
      </trkpt>
      <trkpt lat="47.540531" lon="7.841825">
        <ele>393.296801</ele>
        <time>2021-11-09T22:57:06.864Z</time>
      </trkpt>
      <trkpt lat="47.540744" lon="7.841906">
        <ele>390.369678</ele>
        <time>2021-11-09T22:57:08.729Z</time>
      </trkpt>
      <trkpt lat="47.540817" lon="7.841934">
        <ele>389.365949</ele>
        <time>2021-11-09T22:57:09.358Z</time>
      </trkpt>
      <trkpt lat="47.541050" lon="7.841906">
        <ele>386.254356</ele>
        <time>2021-11-09T22:57:11.324Z</time>
      </trkpt>
      <trkpt lat="47.541351" lon="7.841740">
        <ele>381.979172</ele>
        <time>2021-11-09T22:57:14.032Z</time>
      </trkpt>
      <trkpt lat="47.541409" lon="7.841671">
        <ele>380.989010</ele>
        <time>2021-11-09T22:57:14.639Z</time>
      </trkpt>
      <trkpt lat="47.541483" lon="7.841624">
        <ele>379.917297</ele>
        <time>2021-11-09T22:57:15.324Z</time>
      </trkpt>
      <trkpt lat="47.541583" lon="7.841568">
        <ele>378.494286</ele>
        <time>2021-11-09T22:57:16.207Z</time>
      </trkpt>
      <trkpt lat="47.542097" lon="7.841420">
        <ele>372.008506</ele>
        <time>2021-11-09T22:57:20.577Z</time>
      </trkpt>
      <trkpt lat="47.542339" lon="7.841424">
        <ele>369.093529</ele>
        <time>2021-11-09T22:57:22.596Z</time>
      </trkpt>
      <trkpt lat="47.542781" lon="7.841430">
        <ele>363.769589</ele>
        <time>2021-11-09T22:57:26.299Z</time>
      </trkpt>
      <trkpt lat="47.542795" lon="7.841432">
        <ele>363.600182</ele>
        <time>2021-11-09T22:57:26.422Z</time>
      </trkpt>
      <trkpt lat="47.542890" lon="7.841434">
        <ele>362.455828</ele>
        <time>2021-11-09T22:57:27.222Z</time>
      </trkpt>
      <trkpt lat="47.543032" lon="7.841467">
        <ele>360.724576</ele>
        <time>2021-11-09T22:57:28.426Z</time>
      </trkpt>
      <trkpt lat="47.543343" lon="7.841595">
        <ele>356.836821</ele>
        <time>2021-11-09T22:57:31.288Z</time>
      </trkpt>
      <trkpt lat="47.544480" lon="7.842116">
        <ele>347.573359</ele>
        <time>2021-11-09T22:57:41.809Z</time>
      </trkpt>
      <trkpt lat="47.544939" lon="7.842229">
        <ele>344.252532</ele>
        <time>2021-11-09T22:57:46.083Z</time>
      </trkpt>
      <trkpt lat="47.545011" lon="7.842239">
        <ele>343.736412</ele>
        <time>2021-11-09T22:57:46.721Z</time>
      </trkpt>
      <trkpt lat="47.546197" lon="7.842259">
        <ele>337.767187</ele>
        <time>2021-11-09T22:57:57.825Z</time>
      </trkpt>
      <trkpt lat="47.546843" lon="7.842270">
        <ele>334.838718</ele>
        <time>2021-11-09T22:58:04.139Z</time>
      </trkpt>
      <trkpt lat="47.546951" lon="7.842267">
        <ele>334.349075</ele>
        <time>2021-11-09T22:58:05.233Z</time>
      </trkpt>
      <trkpt lat="47.547314" lon="7.842270">
        <ele>333.548502</ele>
        <time>2021-11-09T22:58:10.583Z</time>
      </trkpt>
      <trkpt lat="47.547448" lon="7.842262">
        <ele>333.349872</ele>
        <time>2021-11-09T22:58:12.595Z</time>
      </trkpt>
      <trkpt lat="47.547354" lon="7.842839">
        <ele>332.756469</ele>
        <time>2021-11-09T22:58:18.760Z</time>
      </trkpt>
      <trkpt lat="47.547313" lon="7.843735">
        <ele>331.858661</ele>
        <time>2021-11-09T22:58:29.203Z</time>
      </trkpt>
      <trkpt lat="47.547295" lon="7.844722">
        <ele>331.680018</ele>
        <time>2021-11-09T22:58:43.620Z</time>
      </trkpt>
      <trkpt lat="47.547274" lon="7.845536">
        <ele>332.422132</ele>
        <time>2021-11-09T22:58:57.073Z</time>
      </trkpt>
      <trkpt lat="47.547124" lon="7.848795">
        <ele>336.223604</ele>
        <time>2021-11-09T22:59:59.226Z</time>
      </trkpt>
      <trkpt lat="47.547143" lon="7.849985">
        <ele>337.682679</ele>
        <time>2021-11-09T23:00:22.078Z</time>
      </trkpt>
      <trkpt lat="47.547141" lon="7.850355">
        <ele>338.024151</ele>
        <time>2021-11-09T23:00:29.178Z</time>
      </trkpt>
      <trkpt lat="47.546945" lon="7.851719">
        <ele>339.311154</ele>
        <time>2021-11-09T23:00:53.711Z</time>
      </trkpt>
      <trkpt lat="47.546582" lon="7.856413">
        <ele>340.667256</ele>
        <time>2021-11-09T23:02:02.022Z</time>
      </trkpt>
      <trkpt lat="47.546537" lon="7.857497">
        <ele>340.850808</ele>
        <time>2021-11-09T23:02:17.330Z</time>
      </trkpt>
      <trkpt lat="47.546487" lon="7.859119">
        <ele>341.212175</ele>
        <time>2021-11-09T23:02:40.778Z</time>
      </trkpt>
      <trkpt lat="47.546526" lon="7.861665">
        <ele>341.235738</ele>
        <time>2021-11-09T23:03:17.952Z</time>
      </trkpt>
      <trkpt lat="47.546592" lon="7.863006">
        <ele>340.892309</ele>
        <time>2021-11-09T23:03:34.419Z</time>
      </trkpt>
      <trkpt lat="47.546877" lon="7.864345">
        <ele>339.210626</ele>
        <time>2021-11-09T23:03:49.589Z</time>
      </trkpt>
      <trkpt lat="47.546885" lon="7.864500">
        <ele>339.024428</ele>
        <time>2021-11-09T23:03:51.268Z</time>
      </trkpt>
      <trkpt lat="47.546894" lon="7.864837">
        <ele>338.620459</ele>
        <time>2021-11-09T23:03:54.747Z</time>
      </trkpt>
      <trkpt lat="47.546889" lon="7.865225">
        <ele>338.155635</ele>
        <time>2021-11-09T23:03:58.868Z</time>
      </trkpt>
      <trkpt lat="47.546819" lon="7.865489">
        <ele>337.820972</ele>
        <time>2021-11-09T23:04:01.946Z</time>
      </trkpt>
      <trkpt lat="47.546510" lon="7.865766">
        <ele>337.256345</ele>
        <time>2021-11-09T23:04:07.640Z</time>
      </trkpt>
      <trkpt lat="47.546327" lon="7.865959">
        <ele>336.905163</ele>
        <time>2021-11-09T23:04:10.972Z</time>
      </trkpt>
      <trkpt lat="47.546096" lon="7.866147">
        <ele>336.493124</ele>
        <time>2021-11-09T23:04:15.038Z</time>
      </trkpt>
      <trkpt lat="47.545240" lon="7.866887">
        <ele>335.101913</ele>
        <time>2021-11-09T23:04:31.711Z</time>
      </trkpt>
      <trkpt lat="47.545160" lon="7.866985">
        <ele>335.189103</ele>
        <time>2021-11-09T23:04:33.667Z</time>
      </trkpt>
      <trkpt lat="47.545003" lon="7.867278">
        <ele>335.401198</ele>
        <time>2021-11-09T23:04:39.335Z</time>
      </trkpt>
      <trkpt lat="47.544568" lon="7.867693">
        <ele>335.835769</ele>
        <time>2021-11-09T23:04:52.219Z</time>
      </trkpt>
      <trkpt lat="47.544469" lon="7.867776">
        <ele>335.931314</ele>
        <time>2021-11-09T23:04:55.111Z</time>
      </trkpt>
      <trkpt lat="47.544410" lon="7.867825">
        <ele>335.988125</ele>
        <time>2021-11-09T23:04:57.174Z</time>
      </trkpt>
      <trkpt lat="47.544246" lon="7.867967">
        <ele>336.147674</ele>
        <time>2021-11-09T23:05:01.861Z</time>
      </trkpt>
      <trkpt lat="47.544214" lon="7.867988">
        <ele>336.177071</ele>
        <time>2021-11-09T23:05:02.732Z</time>
      </trkpt>
      <trkpt lat="47.543801" lon="7.868269">
        <ele>336.559761</ele>
        <time>2021-11-09T23:05:14.324Z</time>
      </trkpt>
      <trkpt lat="47.543657" lon="7.868359">
        <ele>336.778401</ele>
        <time>2021-11-09T23:05:18.614Z</time>
      </trkpt>
      <trkpt lat="47.543534" lon="7.868440">
        <ele>336.966705</ele>
        <time>2021-11-09T23:05:21.200Z</time>
      </trkpt>
      <trkpt lat="47.543201" lon="7.868657">
        <ele>337.475629</ele>
        <time>2021-11-09T23:05:28.898Z</time>
      </trkpt>
      <trkpt lat="47.543105" lon="7.868711">
        <ele>337.619282</ele>
        <time>2021-11-09T23:05:31.443Z</time>
      </trkpt>
      <trkpt lat="47.543049" lon="7.868759">
        <ele>337.709790</ele>
        <time>2021-11-09T23:05:32.795Z</time>
      </trkpt>
      <trkpt lat="47.542722" lon="7.869201">
        <ele>338.329048</ele>
        <time>2021-11-09T23:05:42.626Z</time>
      </trkpt>
      <trkpt lat="47.542696" lon="7.869257">
        <ele>338.393232</ele>
        <time>2021-11-09T23:05:43.486Z</time>
      </trkpt>
      <trkpt lat="47.542657" lon="7.869354">
        <ele>338.499850</ele>
        <time>2021-11-09T23:05:44.952Z</time>
      </trkpt>
      <trkpt lat="47.542372" lon="7.869746">
        <ele>339.043902</ele>
        <time>2021-11-09T23:05:52.449Z</time>
      </trkpt>
      <trkpt lat="47.542329" lon="7.869820">
        <ele>339.073526</ele>
        <time>2021-11-09T23:05:53.679Z</time>
      </trkpt>
      <trkpt lat="47.542348" lon="7.869983">
        <ele>339.073526</ele>
        <time>2021-11-09T23:05:55.501Z</time>
      </trkpt>
      <trkpt lat="47.542317" lon="7.870012">
        <ele>339.073526</ele>
        <time>2021-11-09T23:05:56.218Z</time>
      </trkpt>
      <trkpt lat="47.542181" lon="7.870131">
        <ele>339.073526</ele>
        <time>2021-11-09T23:05:58.672Z</time>
      </trkpt>
      <trkpt lat="47.542118" lon="7.870135">
        <ele>339.073526</ele>
        <time>2021-11-09T23:05:59.781Z</time>
      </trkpt>
      <trkpt lat="47.542014" lon="7.870126">
        <ele>339.073526</ele>
        <time>2021-11-09T23:06:01.399Z</time>
      </trkpt>
      <trkpt lat="47.541910" lon="7.870106">
        <ele>339.073526</ele>
        <time>2021-11-09T23:06:03.056Z</time>
      </trkpt>
      <trkpt lat="47.541606" lon="7.870424">
        <ele>339.073526</ele>
        <time>2021-11-09T23:06:08.665Z</time>
      </trkpt>
      <trkpt lat="47.541521" lon="7.870517">
        <ele>339.073526</ele>
        <time>2021-11-09T23:06:10.093Z</time>
      </trkpt>
      <trkpt lat="47.541440" lon="7.870246">
        <ele>339.073526</ele>
        <time>2021-11-09T23:06:13.573Z</time>
      </trkpt>
    </trkseg>
  </trk>
</gpx>